
Distance (Route):
Temperature : 0°C
Humidity : 0%
Pressure : 0hPa| Receiver | Date | Latitude | Longitude | Direction | Speed | Altitude | Climb | Temperature | Humidity | Pressure | Voltage | Killtimer | Uptime | BKT | XDATA |
|---|---|---|---|---|---|---|---|---|---|---|---|---|---|---|---|
| EA3GEO | 2026-08-30 13:00:16 | 41.35665 | 2.84108 | 46° | 13km/h | 115m | -6.4m/s | 0°C | 0% | 0hPa | 0V | 00:00:00 | 00:00:00 | 00:00:00 | |
| EA3GEO | 2026-08-30 13:00:10 | 41.35646 | 2.84091 | 27° | 18km/h | 162m | -9.7m/s | 0°C | 0% | 0hPa | 0V | 00:00:00 | 00:00:00 | 00:00:00 | |
| EA3GEO | 2026-08-30 13:00:05 | 41.35632 | 2.84077 | 40° | 11km/h | 210m | -8.1m/s | 0°C | 0% | 0hPa | 0V | 00:00:00 | 00:00:00 | 00:00:00 | |
| EA3GEO | 2026-08-30 12:59:59 | 41.35611 | 2.84063 | 25° | 15km/h | 269m | -9.0m/s | 0°C | 0% | 0hPa | 0V | 00:00:00 | 00:00:00 | 00:00:00 | |
| EA3GEO | 2026-08-30 12:59:54 | 41.35596 | 2.84049 | 18° | 16km/h | 315m | -12.9m/s | 0°C | 0% | 0hPa | 0V | 00:00:00 | 00:00:00 | 00:00:00 | |
| EA3GEO | 2026-08-30 12:59:49 | 41.35581 | 2.84036 | 45° | 15km/h | 365m | -9.3m/s | 0°C | 0% | 0hPa | 0V | 00:00:00 | 00:00:00 | 00:00:00 | |
| EA3GEO | 2026-08-30 12:59:44 | 41.35565 | 2.84019 | 25° | 18km/h | 410m | -10.3m/s | 0°C | 0% | 0hPa | 0V | 00:00:00 | 00:00:00 | 00:00:00 | |
| EA3GEO | 2026-08-30 12:59:38 | 41.35540 | 2.84003 | 32° | 18km/h | 472m | -10.9m/s | 0°C | 0% | 0hPa | 0V | 00:00:00 | 00:00:00 | 00:00:00 | |
| EA3GEO | 2026-08-30 12:59:32 | 41.35513 | 2.83986 | 24° | 20km/h | 534m | -8.2m/s | 0°C | 0% | 0hPa | 0V | 00:00:00 | 00:00:00 | 00:00:00 | |
| EA3GEO | 2026-08-30 12:59:26 | 41.35484 | 2.83971 | 21° | 18km/h | 586m | -7.4m/s | 0°C | 0% | 0hPa | 0V | 00:00:00 | 00:00:00 | 00:00:00 | |
| EA3GEO | 2026-08-30 12:59:21 | 41.35458 | 2.83960 | 19° | 18km/h | 632m | -7.3m/s | 0°C | 0% | 0hPa | 0V | 00:00:00 | 00:00:00 | 00:00:00 | |
| EA3GEO | 2026-08-30 12:59:15 | 41.35425 | 2.83951 | 18° | 22km/h | 691m | -5.2m/s | 0°C | 0% | 0hPa | 0V | 00:00:00 | 00:00:00 | 00:00:00 | |
| EA3GEO | 2026-08-30 12:59:08 | 41.35388 | 2.83944 | 11° | 22km/h | 752m | -7.1m/s | 0°C | 0% | 0hPa | 0V | 00:00:00 | 00:00:00 | 00:00:00 | |
| EA3GEO | 2026-08-30 12:59:02 | 41.35358 | 2.83932 | 15° | 26km/h | 805m | -9.7m/s | 0°C | 0% | 0hPa | 0V | 00:00:00 | 00:00:00 | 00:00:00 | |
| EA3GEO | 2026-08-30 12:58:57 | 41.35334 | 2.83926 | 23° | 15km/h | 855m | -6.9m/s | 0°C | 0% | 0hPa | 0V | 00:00:00 | 00:00:00 | 00:00:00 | |
| EA3GEO | 2026-08-30 12:58:51 | 41.35309 | 2.83915 | 28° | 15km/h | 908m | -8.2m/s | 0°C | 0% | 0hPa | 0V | 00:00:00 | 00:00:00 | 00:00:00 | |
| EA3GEO | 2026-08-30 12:58:45 | 41.35292 | 2.83917 | 28° | 13km/h | 966m | -10.2m/s | 0°C | 0% | 0hPa | 0V | 00:00:00 | 00:00:00 | 00:00:00 | |
| EA3GEO | 2026-08-30 12:58:36 | 41.35270 | 2.83879 | 67° | 11km/h | 1052m | -9.6m/s | 0°C | 0% | 0hPa | 0V | 00:00:00 | 00:00:00 | 00:00:00 | |
| EA3GEO | 2026-08-30 12:58:28 | 41.35258 | 2.83857 | 59° | 11km/h | 1129m | -6.9m/s | 0°C | 0% | 0hPa | 0V | 00:00:00 | 00:00:00 | 00:00:00 | |
| EA3GEO | 2026-08-30 12:58:23 | 41.35249 | 2.83841 | 53° | 13km/h | 1174m | -10.7m/s | 0°C | 0% | 0hPa | 0V | 00:00:00 | 00:00:00 | 00:00:00 | |
| EA3GEO | 2026-08-30 12:58:18 | 41.35240 | 2.83827 | 60° | 13km/h | 1225m | -9.1m/s | 0°C | 0% | 0hPa | 0V | 00:00:00 | 00:00:00 | 00:00:00 | |
| EA3GEO | 2026-08-30 12:58:12 | 41.35233 | 2.83803 | 62° | 13km/h | 1278m | -8.9m/s | 0°C | 0% | 0hPa | 0V | 00:00:00 | 00:00:00 | 00:00:00 | |
| EA3GEO | 2026-08-30 12:58:07 | 41.35226 | 2.83780 | 69° | 16km/h | 1325m | -7.9m/s | 0°C | 0% | 0hPa | 0V | 00:00:00 | 00:00:00 | 00:00:00 | |
| EA3GEO | 2026-08-30 12:57:56 | 41.35217 | 2.83712 | 86° | 18km/h | 1431m | -10.1m/s | 0°C | 0% | 0hPa | 0V | 00:00:00 | 00:00:00 | 00:00:00 | |
| EA3GEO | 2026-08-30 12:57:47 | 41.35212 | 2.83656 | 82° | 24km/h | 1517m | -9.8m/s | 0°C | 0% | 0hPa | 0V | 00:00:00 | 00:00:00 | 00:00:00 | |
| EA3GEO | 2026-08-30 12:57:40 | 41.35205 | 2.83606 | 83° | 26km/h | 1590m | -9.2m/s | 0°C | 0% | 0hPa | 0V | 00:00:00 | 00:00:00 | 00:00:00 | |
| EA3GEO | 2026-08-30 12:57:33 | 41.35196 | 2.83541 | 75° | 24km/h | 1665m | -9.7m/s | 0°C | 0% | 0hPa | 0V | 00:00:00 | 00:00:00 | 00:00:00 | |
| EA3GEO | 2026-08-30 12:57:24 | 41.35179 | 2.83467 | 80° | 31km/h | 1744m | -8.6m/s | 0°C | 0% | 0hPa | 0V | 00:00:00 | 00:00:00 | 00:00:00 | |
| EA3GEO | 2026-08-30 12:57:00 | 41.35127 | 2.83256 | 75° | 24km/h | 1970m | -8.2m/s | 0°C | 0% | 0hPa | 0V | 00:00:00 | 00:00:00 | 00:00:00 | |
| EA3GEO | 2026-08-30 12:56:48 | 41.35103 | 2.83162 | 77° | 27km/h | 2084m | -9.0m/s | 0°C | 0% | 0hPa | 0V | 00:00:00 | 00:00:00 | 00:00:00 | |
| EA3GEO | 2026-08-30 12:56:41 | 41.35091 | 2.83101 | 62° | 27km/h | 2150m | -12.3m/s | 0°C | 0% | 0hPa | 0V | 00:00:00 | 00:00:00 | 00:00:00 | |
| EA3GEO | 2026-08-30 12:56:32 | 41.35070 | 2.83015 | 69° | 31km/h | 2240m | -8.7m/s | 0°C | 0% | 0hPa | 0V | 00:00:00 | 00:00:00 | 00:00:00 | |
| EA3GEO | 2026-08-30 12:56:04 | 41.35004 | 2.82764 | 74° | 29km/h | 2506m | -9.9m/s | 0°C | 0% | 0hPa | 0V | 00:00:00 | 00:00:00 | 00:00:00 | |
| EA3GEO | 2026-08-30 12:55:56 | 41.34986 | 2.82682 | 73° | 33km/h | 2588m | -9.3m/s | 0°C | 0% | 0hPa | 0V | 00:00:00 | 00:00:00 | 00:00:00 | |
| EA3GEO | 2026-08-30 12:53:18 | 41.34780 | 2.80866 | 82° | 35km/h | 4105m | -10.4m/s | 0°C | 0% | 0hPa | 0V | 00:00:00 | 00:00:00 | 00:00:00 | |
| EA3GEO | 2026-08-30 12:50:00 | 41.34469 | 2.77804 | 85° | 55km/h | 6110m | -9.0m/s | 0°C | 0% | 0hPa | 0V | 00:00:00 | 00:00:00 | 00:00:00 | |
| EA3GEO | 2026-08-30 12:49:44 | 41.34455 | 2.77519 | 87° | 49km/h | 6276m | -11.2m/s | 0°C | 0% | 0hPa | 0V | 00:00:00 | 00:00:00 | 00:00:00 | |
| EA3GEO | 2026-08-30 12:49:35 | 41.34451 | 2.77358 | 89° | 53km/h | 6370m | -10.4m/s | 0°C | 0% | 0hPa | 0V | 00:00:00 | 00:00:00 | 00:00:00 | |
| EA3GEO | 2026-08-30 12:49:03 | 41.34447 | 2.76740 | 89° | 62km/h | 6712m | -10.9m/s | 0°C | 0% | 0hPa | 0V | 00:00:00 | 00:00:00 | 00:00:00 | |
| EA3GEO | 2026-08-30 12:48:57 | 41.34448 | 2.76617 | 90° | 57km/h | 6772m | -9.4m/s | 0°C | 0% | 0hPa | 0V | 00:00:00 | 00:00:00 | 00:00:00 | |
| EA3GEO | 2026-08-30 12:48:49 | 41.34444 | 2.76451 | 88° | 62km/h | 6860m | -9.9m/s | 0°C | 0% | 0hPa | 0V | 00:00:00 | 00:00:00 | 00:00:00 | |
| EA3GEO | 2026-08-30 12:48:40 | 41.34436 | 2.76266 | 89° | 60km/h | 6956m | -12.2m/s | 0°C | 0% | 0hPa | 0V | 00:00:00 | 00:00:00 | 00:00:00 | |
| EA3GEO | 2026-08-30 12:48:33 | 41.34430 | 2.76127 | 88° | 60km/h | 7029m | -9.6m/s | 0°C | 0% | 0hPa | 0V | 00:00:00 | 00:00:00 | 00:00:00 | |
| EA3GEO | 2026-08-30 12:48:26 | 41.34423 | 2.75990 | 89° | 62km/h | 7104m | -10.2m/s | 0°C | 0% | 0hPa | 0V | 00:00:00 | 00:00:00 | 00:00:00 | |
| EA3GEO | 2026-08-30 12:48:20 | 41.34418 | 2.75871 | 89° | 58km/h | 7165m | -11.2m/s | 0°C | 0% | 0hPa | 0V | 00:00:00 | 00:00:00 | 00:00:00 | |
| EA3GEO | 2026-08-30 12:48:15 | 41.34413 | 2.75770 | 90° | 60km/h | 7219m | -10.8m/s | 0°C | 0% | 0hPa | 0V | 00:00:00 | 00:00:00 | 00:00:00 | |
| EA3GEO | 2026-08-30 12:48:09 | 41.34409 | 2.75648 | 85° | 60km/h | 7285m | -11.6m/s | 0°C | 0% | 0hPa | 0V | 00:00:00 | 00:00:00 | 00:00:00 | |
| EA3GEO | 2026-08-30 12:48:02 | 41.34402 | 2.75503 | 86° | 58km/h | 7364m | -11.4m/s | 0°C | 0% | 0hPa | 0V | 00:00:00 | 00:00:00 | 00:00:00 | |
| EA3GEO | 2026-08-30 12:47:57 | 41.34398 | 2.75401 | 90° | 62km/h | 7425m | -10.9m/s | 0°C | 0% | 0hPa | 0V | 00:00:00 | 00:00:00 | 00:00:00 | |
| EA3GEO | 2026-08-30 12:47:49 | 41.34389 | 2.75233 | 88° | 62km/h | 7508m | -9.3m/s | 0°C | 0% | 0hPa | 0V | 00:00:00 | 00:00:00 | 00:00:00 | |
| EA3GEO | 2026-08-30 12:47:43 | 41.34384 | 2.75107 | 86° | 60km/h | 7574m | -11.3m/s | 0°C | 0% | 0hPa | 0V | 00:00:00 | 00:00:00 | 00:00:00 | |
| EA3GEO | 2026-08-30 12:47:37 | 41.34382 | 2.74980 | 89° | 64km/h | 7640m | -10.4m/s | 0°C | 0% | 0hPa | 0V | 00:00:00 | 00:00:00 | 00:00:00 | |
| EA3GEO | 2026-08-30 12:47:31 | 41.34379 | 2.74852 | 88° | 62km/h | 7706m | -8.6m/s | 0°C | 0% | 0hPa | 0V | 00:00:00 | 00:00:00 | 00:00:00 | |
| EA3GEO | 2026-08-30 12:47:25 | 41.34375 | 2.74728 | 92° | 58km/h | 7774m | -9.5m/s | 0°C | 0% | 0hPa | 0V | 00:00:00 | 00:00:00 | 00:00:00 | |
| EA3GEO | 2026-08-30 12:47:20 | 41.34373 | 2.74625 | 89° | 62km/h | 7828m | -9.8m/s | 0°C | 0% | 0hPa | 0V | 00:00:00 | 00:00:00 | 00:00:00 | |
| EA3GEO | 2026-08-30 12:47:14 | 41.34370 | 2.74502 | 90° | 60km/h | 7892m | -10.0m/s | 0°C | 0% | 0hPa | 0V | 00:00:00 | 00:00:00 | 00:00:00 | |
| EA3GEO | 2026-08-30 12:47:09 | 41.34370 | 2.74402 | 91° | 60km/h | 7948m | -10.2m/s | 0°C | 0% | 0hPa | 0V | 00:00:00 | 00:00:00 | 00:00:00 | |
| EA3GEO | 2026-08-30 12:47:03 | 41.34372 | 2.74281 | 94° | 64km/h | 8015m | -8.8m/s | 0°C | 0% | 0hPa | 0V | 00:00:00 | 00:00:00 | 00:00:00 | |
| EA3GEO | 2026-08-30 12:46:57 | 41.34376 | 2.74158 | 95° | 62km/h | 8081m | -10.4m/s | 0°C | 0% | 0hPa | 0V | 00:00:00 | 00:00:00 | 00:00:00 | |
| EA3GEO | 2026-08-30 12:46:52 | 41.34380 | 2.74054 | 95° | 58km/h | 8132m | -10.2m/s | 0°C | 0% | 0hPa | 0V | 00:00:00 | 00:00:00 | 00:00:00 | |
| EA3GEO | 2026-08-30 12:46:47 | 41.34384 | 2.73951 | 92° | 64km/h | 8188m | -11.7m/s | 0°C | 0% | 0hPa | 0V | 00:00:00 | 00:00:00 | 00:00:00 | |
| EA3GEO | 2026-08-30 12:46:41 | 41.34391 | 2.73826 | 94° | 64km/h | 8252m | -9.9m/s | 0°C | 0% | 0hPa | 0V | 00:00:00 | 00:00:00 | 00:00:00 | |
| EA3GEO | 2026-08-30 12:46:35 | 41.34398 | 2.73700 | 96° | 62km/h | 8320m | -9.4m/s | 0°C | 0% | 0hPa | 0V | 00:00:00 | 00:00:00 | 00:00:00 | |
| EA3GEO | 2026-08-30 12:46:30 | 41.34406 | 2.73592 | 98° | 64km/h | 8374m | -10.2m/s | 0°C | 0% | 0hPa | 0V | 00:00:00 | 00:00:00 | 00:00:00 | |
| EA3GEO | 2026-08-30 12:46:24 | 41.34415 | 2.73464 | 108° | 62km/h | 8448m | -8.6m/s | 0°C | 0% | 0hPa | 0V | 00:00:00 | 00:00:00 | 00:00:00 | |
| EA3GEO | 2026-08-30 12:46:18 | 41.34434 | 2.73334 | 106° | 66km/h | 8513m | -10.4m/s | 0°C | 0% | 0hPa | 0V | 00:00:00 | 00:00:00 | 00:00:00 | |
| EA3GEO | 2026-08-30 12:46:13 | 41.34458 | 2.73209 | 106° | 66km/h | 8582m | -10.1m/s | 0°C | 0% | 0hPa | 0V | 00:00:00 | 00:00:00 | 00:00:00 | |
| EA3GEO | 2026-08-30 12:46:06 | 41.34481 | 2.73079 | 110° | 64km/h | 8649m | -9.4m/s | 0°C | 0% | 0hPa | 0V | 00:00:00 | 00:00:00 | 00:00:00 | |
| EA3GEO | 2026-08-30 12:46:00 | 41.34506 | 2.72949 | 105° | 66km/h | 8713m | -11.1m/s | 0°C | 0% | 0hPa | 0V | 00:00:00 | 00:00:00 | 00:00:00 | |
| EA3GEO | 2026-08-30 12:45:54 | 41.34532 | 2.72819 | 107° | 68km/h | 8786m | -10.2m/s | 0°C | 0% | 0hPa | 0V | 00:00:00 | 00:00:00 | 00:00:00 | |
| EA3GEO | 2026-08-30 12:45:48 | 41.34557 | 2.72683 | 104° | 69km/h | 8851m | -10.0m/s | 0°C | 0% | 0hPa | 0V | 00:00:00 | 00:00:00 | 00:00:00 | |
| EA3GEO | 2026-08-30 12:45:43 | 41.34577 | 2.72570 | 106° | 68km/h | 8905m | -9.8m/s | 0°C | 0% | 0hPa | 0V | 00:00:00 | 00:00:00 | 00:00:00 | |
| EA3GEO | 2026-08-30 12:45:37 | 41.34605 | 2.72432 | 104° | 71km/h | 8973m | -9.8m/s | 0°C | 0% | 0hPa | 0V | 00:00:00 | 00:00:00 | 00:00:00 | |
| EA3GEO | 2026-08-30 12:45:31 | 41.34633 | 2.72292 | 107° | 73km/h | 9042m | -9.3m/s | 0°C | 0% | 0hPa | 0V | 00:00:00 | 00:00:00 | 00:00:00 | |
| EA3GEO | 2026-08-30 12:45:26 | 41.34659 | 2.72152 | 106° | 73km/h | 9110m | -10.3m/s | 0°C | 0% | 0hPa | 0V | 00:00:00 | 00:00:00 | 00:00:00 | |
| EA3GEO | 2026-08-30 12:45:20 | 41.34682 | 2.72037 | 108° | 75km/h | 9170m | -9.0m/s | 0°C | 0% | 0hPa | 0V | 00:00:00 | 00:00:00 | 00:00:00 | |
| EA3GEO | 2026-08-30 12:45:14 | 41.34711 | 2.71894 | 107° | 75km/h | 9236m | -9.8m/s | 0°C | 0% | 0hPa | 0V | 00:00:00 | 00:00:00 | 00:00:00 | |
| EA3GEO | 2026-08-30 12:45:09 | 41.34739 | 2.71750 | 105° | 73km/h | 9300m | -12.5m/s | 0°C | 0% | 0hPa | 0V | 00:00:00 | 00:00:00 | 00:00:00 | |
| EA3GEO | 2026-08-30 12:44:57 | 41.34796 | 2.71482 | 108° | 77km/h | 9430m | -8.2m/s | 0°C | 0% | 0hPa | 0V | 00:00:00 | 00:00:00 | 00:00:00 | |
| EA3GEO | 2026-08-30 12:44:52 | 41.34824 | 2.71361 | 112° | 77km/h | 9486m | -10.6m/s | 0°C | 0% | 0hPa | 0V | 00:00:00 | 00:00:00 | 00:00:00 | |
| EA3GEO | 2026-08-30 12:44:46 | 41.34862 | 2.71217 | 112° | 75km/h | 9557m | -8.7m/s | 0°C | 0% | 0hPa | 0V | 00:00:00 | 00:00:00 | 00:00:00 | |
| EA3GEO | 2026-08-30 12:44:40 | 41.34899 | 2.71075 | 112° | 73km/h | 9623m | -10.7m/s | 0°C | 0% | 0hPa | 0V | 00:00:00 | 00:00:00 | 00:00:00 | |
| EA3GEO | 2026-08-30 12:44:34 | 41.34936 | 2.70935 | 109° | 77km/h | 9692m | -11.2m/s | 0°C | 0% | 0hPa | 0V | 00:00:00 | 00:00:00 | 00:00:00 | |
| EA3GEO | 2026-08-30 12:44:28 | 41.34970 | 2.70794 | 109° | 73km/h | 9760m | -9.9m/s | 0°C | 0% | 0hPa | 0V | 00:00:00 | 00:00:00 | 00:00:00 | |
| EA3GEO | 2026-08-30 12:44:23 | 41.34998 | 2.70677 | 109° | 73km/h | 9820m | -10.7m/s | 0°C | 0% | 0hPa | 0V | 00:00:00 | 00:00:00 | 00:00:00 | |
| EA3GEO | 2026-08-30 12:44:17 | 41.35033 | 2.70536 | 113° | 77km/h | 9887m | -10.5m/s | 0°C | 0% | 0hPa | 0V | 00:00:00 | 00:00:00 | 00:00:00 | |
| EA3GEO | 2026-08-30 12:44:12 | 41.35067 | 2.70418 | 113° | 75km/h | 9947m | -9.6m/s | 0°C | 0% | 0hPa | 0V | 00:00:00 | 00:00:00 | 00:00:00 | |
| EA3GEO | 2026-08-30 12:44:07 | 41.35110 | 2.70277 | 116° | 75km/h | 10017m | -11.9m/s | 0°C | 0% | 0hPa | 0V | 00:00:00 | 00:00:00 | 00:00:00 | |
| EA3GEO | 2026-08-30 12:44:00 | 41.35154 | 2.70142 | 116° | 73km/h | 10089m | -11.1m/s | 0°C | 0% | 0hPa | 0V | 00:00:00 | 00:00:00 | 00:00:00 | |
| EA3GEO | 2026-08-30 12:43:53 | 41.35201 | 2.69987 | 112° | 71km/h | 10173m | -9.8m/s | 0°C | 0% | 0hPa | 0V | 00:00:00 | 00:00:00 | 00:00:00 | |
| EA3GEO | 2026-08-30 12:43:48 | 41.35233 | 2.69877 | 115° | 69km/h | 10230m | -9.4m/s | 0°C | 0% | 0hPa | 0V | 00:00:00 | 00:00:00 | 00:00:00 | |
| EA3GEO | 2026-08-30 12:43:43 | 41.35268 | 2.69767 | 114° | 73km/h | 10291m | -11.6m/s | 0°C | 0% | 0hPa | 0V | 00:00:00 | 00:00:00 | 00:00:00 | |
| EA3GEO | 2026-08-30 12:43:37 | 41.35313 | 2.69636 | 115° | 69km/h | 10362m | -10.4m/s | 0°C | 0% | 0hPa | 0V | 00:00:00 | 00:00:00 | 00:00:00 | |
| EA3GEO | 2026-08-30 12:43:32 | 41.35345 | 2.69532 | 112° | 68km/h | 10426m | -10.9m/s | 0°C | 0% | 0hPa | 0V | 00:00:00 | 00:00:00 | 00:00:00 | |
| EA3GEO | 2026-08-30 12:43:27 | 41.35376 | 2.69427 | 114° | 69km/h | 10488m | -9.4m/s | 0°C | 0% | 0hPa | 0V | 00:00:00 | 00:00:00 | 00:00:00 | |
| EA3GEO | 2026-08-30 12:43:22 | 41.35412 | 2.69320 | 119° | 68km/h | 10547m | -10.1m/s | 0°C | 0% | 0hPa | 0V | 00:00:00 | 00:00:00 | 00:00:00 | |
| EA3GEO | 2026-08-30 12:43:16 | 41.35459 | 2.69197 | 120° | 68km/h | 10619m | -11.4m/s | 0°C | 0% | 0hPa | 0V | 00:00:00 | 00:00:00 | 00:00:00 | |
| EA3GEO | 2026-08-30 12:43:11 | 41.35502 | 2.69098 | 121° | 69km/h | 10680m | -12.2m/s | 0°C | 0% | 0hPa | 0V | 00:00:00 | 00:00:00 | 00:00:00 | |
| EA3GEO | 2026-08-30 12:43:01 | 41.35597 | 2.68900 | 128° | 73km/h | 10806m | -11.5m/s | 0°C | 0% | 0hPa | 0V | 00:00:00 | 00:00:00 | 00:00:00 | |
| EA3GEO | 2026-08-30 12:42:56 | 41.35650 | 2.68801 | 126° | 71km/h | 10874m | -9.8m/s | 0°C | 0% | 0hPa | 0V | 00:00:00 | 00:00:00 | 00:00:00 | |
| EA3GEO | 2026-08-30 12:42:50 | 41.35716 | 2.68680 | 125° | 75km/h | 10947m | -11.6m/s | 0°C | 0% | 0hPa | 0V | 00:00:00 | 00:00:00 | 00:00:00 | |
| EA3GEO | 2026-08-30 12:42:30 | 41.35967 | 2.68281 | 130° | 84km/h | 11206m | -13.0m/s | 0°C | 0% | 0hPa | 0V | 00:00:00 | 00:00:00 | 00:00:00 | |
| EA3GEO | 2026-08-30 12:42:24 | 41.36045 | 2.68150 | 129° | 86km/h | 11286m | -10.9m/s | 0°C | 0% | 0hPa | 0V | 00:00:00 | 00:00:00 | 00:00:00 | |
| EA3GEO | 2026-08-30 12:42:19 | 41.36114 | 2.68035 | 127° | 91km/h | 11347m | -10.7m/s | 0°C | 0% | 0hPa | 0V | 00:00:00 | 00:00:00 | 00:00:00 | |
| EA3GEO | 2026-08-30 12:42:14 | 41.36183 | 2.67916 | 129° | 89km/h | 11414m | -11.4m/s | 0°C | 0% | 0hPa | 0V | 00:00:00 | 00:00:00 | 00:00:00 | |
| EA3GEO | 2026-08-30 12:42:08 | 41.36266 | 2.67776 | 128° | 88km/h | 11498m | -11.6m/s | 0°C | 0% | 0hPa | 0V | 00:00:00 | 00:00:00 | 00:00:00 | |
| EA3GEO | 2026-08-30 12:42:02 | 41.36345 | 2.67637 | 128° | 86km/h | 11578m | -11.0m/s | 0°C | 0% | 0hPa | 0V | 00:00:00 | 00:00:00 | 00:00:00 | |
| EA3GEO | 2026-08-30 12:41:57 | 41.36410 | 2.67520 | 127° | 89km/h | 11644m | -13.6m/s | 0°C | 0% | 0hPa | 0V | 00:00:00 | 00:00:00 | 00:00:00 | |
| EA3GEO | 2026-08-30 12:41:51 | 41.36489 | 2.67380 | 129° | 86km/h | 11727m | -13.0m/s | 0°C | 0% | 0hPa | 0V | 00:00:00 | 00:00:00 | 00:00:00 | |
| EA3GEO | 2026-08-30 12:41:42 | 41.36607 | 2.67173 | 128° | 88km/h | 11843m | -11.8m/s | 0°C | 0% | 0hPa | 0V | 00:00:00 | 00:00:00 | 00:00:00 | |
| EA3GEO | 2026-08-30 12:41:36 | 41.36687 | 2.67030 | 128° | 89km/h | 11929m | -13.9m/s | 0°C | 0% | 0hPa | 0V | 00:00:00 | 00:00:00 | 00:00:00 | |
| EA3GEO | 2026-08-30 12:41:29 | 41.36783 | 2.66862 | 127° | 88km/h | 12034m | -13.2m/s | 0°C | 0% | 0hPa | 0V | 00:00:00 | 00:00:00 | 00:00:00 | |
| EA3GEO | 2026-08-30 12:41:23 | 41.36860 | 2.66721 | 130° | 88km/h | 12126m | -14.7m/s | 0°C | 0% | 0hPa | 0V | 00:00:00 | 00:00:00 | 00:00:00 | |
| EA3GEO | 2026-08-30 12:41:16 | 41.36951 | 2.66558 | 129° | 89km/h | 12236m | -14.9m/s | 0°C | 0% | 0hPa | 0V | 00:00:00 | 00:00:00 | 00:00:00 | |
| EA3GEO | 2026-08-30 12:41:10 | 41.37027 | 2.66415 | 125° | 84km/h | 12327m | -13.9m/s | 0°C | 0% | 0hPa | 0V | 00:00:00 | 00:00:00 | 00:00:00 | |
| EA3GEO | 2026-08-30 12:40:54 | 41.37221 | 2.66014 | 121° | 89km/h | 12569m | -14.5m/s | 0°C | 0% | 0hPa | 0V | 00:00:00 | 00:00:00 | 00:00:00 | |
| EA3GEO | 2026-08-30 12:40:48 | 41.37290 | 2.65862 | 122° | 89km/h | 12657m | -12.4m/s | 0°C | 0% | 0hPa | 0V | 00:00:00 | 00:00:00 | 00:00:00 | |
| EA3GEO | 2026-08-30 12:40:41 | 41.37370 | 2.65693 | 123° | 84km/h | 12747m | -11.6m/s | 0°C | 0% | 0hPa | 0V | 00:00:00 | 00:00:00 | 00:00:00 | |
| EA3GEO | 2026-08-30 12:40:23 | 41.37576 | 2.65265 | 122° | 84km/h | 13026m | -12.3m/s | 0°C | 0% | 0hPa | 0V | 00:00:00 | 00:00:00 | 00:00:00 | |
| EA3GEO | 2026-08-30 12:40:17 | 41.37638 | 2.65127 | 122° | 78km/h | 13111m | -13.4m/s | 0°C | 0% | 0hPa | 0V | 00:00:00 | 00:00:00 | 00:00:00 | |
| EA3GEO | 2026-08-30 12:39:41 | 41.37966 | 2.64318 | 110° | 71km/h | 13657m | -15.2m/s | 0°C | 0% | 0hPa | 0V | 00:00:00 | 00:00:00 | 00:00:00 | |
| EA3GEO | 2026-08-30 12:39:26 | 41.38049 | 2.63946 | 109° | 82km/h | 13877m | -12.6m/s | 0°C | 0% | 0hPa | 0V | 00:00:00 | 00:00:00 | 00:00:00 | |
| EA3GEO | 2026-08-30 12:39:14 | 41.38130 | 2.63623 | 109° | 88km/h | 14058m | -14.6m/s | 0°C | 0% | 0hPa | 0V | 00:00:00 | 00:00:00 | 00:00:00 | |
| EA3GEO | 2026-08-30 12:38:18 | 41.38226 | 2.62178 | 81° | 71km/h | 15024m | -18.3m/s | 0°C | 0% | 0hPa | 0V | 00:00:00 | 00:00:00 | 00:00:00 | |
| EA3IBE | 2026-08-30 12:38:13 | 41.38213 | 2.62056 | 81° | 71km/h | 15114m | -19.4m/s | 0°C | 0% | 0hPa | 0V | 00:00:00 | 00:00:00 | 00:00:00 | |
| EA3IBE | 2026-08-30 12:37:33 | 41.38165 | 2.61189 | 106° | 55km/h | 15891m | -17.6m/s | 0°C | 0% | 0hPa | 0V | 00:00:00 | 00:00:00 | 00:00:00 | |
| EA3IBE | 2026-08-30 12:37:23 | 41.38186 | 2.61042 | 97° | 33km/h | 16081m | -19.0m/s | 0°C | 0% | 0hPa | 0V | 00:00:00 | 00:00:00 | 00:00:00 | |
| EA3IBE | 2026-08-30 12:37:17 | 41.38190 | 2.60976 | 94° | 33km/h | 16206m | -20.4m/s | 0°C | 0% | 0hPa | 0V | 00:00:00 | 00:00:00 | 00:00:00 | |
| EA3IBE | 2026-08-30 12:36:47 | 41.38178 | 2.60701 | 61° | 16km/h | 16799m | -18.3m/s | 0°C | 0% | 0hPa | 0V | 00:00:00 | 00:00:00 | 00:00:00 | |
| EA3IBE | 2026-08-30 12:36:43 | 41.38158 | 2.60673 | 47° | 24km/h | 16895m | -18.2m/s | 0°C | 0% | 0hPa | 0V | 00:00:00 | 00:00:00 | 00:00:00 | |
| EA3IBE | 2026-08-30 12:36:27 | 41.38060 | 2.60555 | 49° | 42km/h | 17206m | -18.3m/s | 0°C | 0% | 0hPa | 0V | 00:00:00 | 00:00:00 | 00:00:00 | |
| EA3IBE | 2026-08-30 12:36:17 | 41.38003 | 2.60457 | 57° | 31km/h | 17413m | -17.8m/s | 0°C | 0% | 0hPa | 0V | 00:00:00 | 00:00:00 | 00:00:00 | |
| EA3IBE | 2026-08-30 12:36:05 | 41.37965 | 2.60334 | 77° | 37km/h | 17656m | -20.9m/s | 0°C | 0% | 0hPa | 0V | 00:00:00 | 00:00:00 | 00:00:00 | |
| EA3IBE | 2026-08-30 12:35:53 | 41.37949 | 2.60203 | 90° | 31km/h | 17916m | -21.7m/s | 0°C | 0% | 0hPa | 0V | 00:00:00 | 00:00:00 | 00:00:00 | |
| EA3GEO | 2026-08-30 12:35:46 | 41.37952 | 2.60132 | 94° | 33km/h | 18073m | -19.2m/s | 0°C | 0% | 0hPa | 0V | 00:00:00 | 00:00:00 | 00:00:00 | |
| EA3IBE | 2026-08-30 12:34:19 | 41.37763 | 2.59877 | 293° | 5km/h | 19884m | -16.9m/s | 0°C | 0% | 0hPa | 0V | 00:00:00 | 00:00:00 | 00:00:00 | |
| EA3GEO | 2026-08-30 12:32:36 | 41.37579 | 2.59990 | 305° | 5km/h | 22026m | -19.0m/s | 0°C | 0% | 0hPa | 0V | 00:00:00 | 00:00:00 | 00:00:00 | |
| EA3IBE | 2026-08-30 12:32:12 | 41.37616 | 2.60023 | 235° | 20km/h | 22533m | -19.0m/s | 0°C | 0% | 0hPa | 0V | 00:00:00 | 00:00:00 | 00:00:00 | |
| EA3IBE | 2026-08-30 12:32:03 | 41.37641 | 2.60078 | 257° | 22km/h | 22717m | -20.3m/s | 0°C | 0% | 0hPa | 0V | 00:00:00 | 00:00:00 | 00:00:00 | |
| EA3IBE | 2026-08-30 12:31:55 | 41.37637 | 2.60149 | 287° | 29km/h | 22884m | -18.9m/s | 0°C | 0% | 0hPa | 0V | 00:00:00 | 00:00:00 | 00:00:00 | |
| EA3IBE | 2026-08-30 12:31:47 | 41.37605 | 2.60214 | 323° | 29km/h | 23044m | -20.6m/s | 0°C | 0% | 0hPa | 0V | 00:00:00 | 00:00:00 | 00:00:00 | |
| EA3IBE | 2026-08-30 12:31:42 | 41.37579 | 2.60247 | 308° | 31km/h | 23147m | -18.4m/s | 0°C | 0% | 0hPa | 0V | 00:00:00 | 00:00:00 | 00:00:00 | |
| EA3IBE | 2026-08-30 12:31:36 | 41.37546 | 2.60297 | 314° | 35km/h | 23293m | -21.0m/s | 0°C | 0% | 0hPa | 0V | 00:00:00 | 00:00:00 | 00:00:00 | |
| EA3IBE | 2026-08-30 12:31:25 | 41.37478 | 2.60382 | 332° | 26km/h | 23543m | -22.6m/s | 0°C | 0% | 0hPa | 0V | 00:00:00 | 00:00:00 | 00:00:00 | |
| EA3GEO | 2026-08-30 12:31:23 | 41.37468 | 2.60389 | 331° | 22km/h | 23590m | -19.7m/s | 0°C | 0% | 0hPa | 0V | 00:00:00 | 00:00:00 | 00:00:00 | |
| EA3IBE | 2026-08-30 12:31:18 | 41.37452 | 2.60401 | 331° | 13km/h | 23688m | -19.2m/s | 0°C | 0% | 0hPa | 0V | 00:00:00 | 00:00:00 | 00:00:00 | |
| EA3GEO | 2026-08-30 12:31:03 | 41.37429 | 2.60476 | 302° | 20km/h | 23988m | -18.9m/s | 0°C | 0% | 0hPa | 0V | 00:00:00 | 00:00:00 | 00:00:00 | |
| EA3IBE | 2026-08-30 12:30:54 | 41.37400 | 2.60526 | 318° | 20km/h | 24162m | -18.0m/s | 0°C | 0% | 0hPa | 0V | 00:00:00 | 00:00:00 | 00:00:00 | |
| EA3GEO | 2026-08-30 12:30:50 | 41.37381 | 2.60539 | 349° | 22km/h | 24246m | -21.7m/s | 0°C | 0% | 0hPa | 0V | 00:00:00 | 00:00:00 | 00:00:00 | |
| EA3GEO | 2026-08-30 12:30:00 | 41.37272 | 2.60650 | 186° | 5km/h | 25272m | -17.9m/s | 0°C | 0% | 0hPa | 0V | 00:00:00 | 00:00:00 | 00:00:00 | |
| EA3GEO | 2026-08-30 12:29:51 | 41.37278 | 2.60680 | 287° | 11km/h | 25471m | -16.9m/s | 0°C | 0% | 0hPa | 0V | 00:00:00 | 00:00:00 | 00:00:00 | |
| EA3GEO | 2026-08-30 12:29:42 | 41.37268 | 2.60717 | 285° | 13km/h | 25654m | -16.7m/s | 0°C | 0% | 0hPa | 0V | 00:00:00 | 00:00:00 | 00:00:00 | |
| EA3GEO | 2026-08-30 12:29:22 | 41.37249 | 2.60806 | 295° | 13km/h | 26079m | -19.6m/s | 0°C | 0% | 0hPa | 0V | 00:00:00 | 00:00:00 | 00:00:00 | |
| EA3GEO | 2026-08-30 12:29:14 | 41.37216 | 2.60853 | 339° | 22km/h | 26273m | -22.1m/s | 0°C | 0% | 0hPa | 0V | 00:00:00 | 00:00:00 | 00:00:00 | |
| EA3GEO | 2026-08-30 12:29:05 | 41.37186 | 2.60858 | 313° | 15km/h | 26470m | -26.6m/s | 0°C | 0% | 0hPa | 0V | 00:00:00 | 00:00:00 | 00:00:00 | |
| EA3GEO | 2026-08-30 12:28:58 | 41.37173 | 2.60890 | 295° | 15km/h | 26628m | -18.0m/s | 0°C | 0% | 0hPa | 0V | 00:00:00 | 00:00:00 | 00:00:00 | |
| EA3GEO | 2026-08-30 12:28:50 | 41.37137 | 2.60941 | 328° | 22km/h | 26793m | -20.3m/s | 0°C | 0% | 0hPa | 0V | 00:00:00 | 00:00:00 | 00:00:00 | |
| EA3GEO | 2026-08-30 12:28:42 | 41.37095 | 2.60952 | 11° | 24km/h | 26939m | -16.6m/s | 0°C | 0% | 0hPa | 0V | 00:00:00 | 00:00:00 | 00:00:00 | |
| EA3GEO | 2026-08-30 12:28:24 | 41.37058 | 2.60930 | 248° | 4km/h | 27309m | -18.9m/s | 0°C | 0% | 0hPa | 0V | 00:00:00 | 00:00:00 | 00:00:00 | |
| EA3GEO | 2026-08-30 12:28:08 | 41.37059 | 2.61008 | 285° | 27km/h | 27640m | -11.2m/s | 0°C | 0% | 0hPa | 0V | 00:00:00 | 00:00:00 | 00:00:00 | |
| EA3GEO | 2026-08-30 12:28:01 | 41.37025 | 2.61025 | 355° | 26km/h | 27767m | -16.2m/s | 0°C | 0% | 0hPa | 0V | 00:00:00 | 00:00:00 | 00:00:00 | |
| EA3GEO | 2026-08-30 12:27:53 | 41.37013 | 2.61022 | 140° | 13km/h | 27928m | -16.1m/s | 0°C | 0% | 0hPa | 0V | 00:00:00 | 00:00:00 | 00:00:00 | |
| EA3GEO | 2026-08-30 12:27:45 | 41.37019 | 2.61015 | 92° | 7km/h | 28068m | -18.8m/s | 0°C | 0% | 0hPa | 0V | 00:00:00 | 00:00:00 | 00:00:00 | |
| EA3GEO | 2026-08-30 12:27:29 | 41.37019 | 2.61054 | 274° | 16km/h | 28484m | -22.8m/s | 0°C | 0% | 0hPa | 0V | 00:00:00 | 00:00:00 | 00:00:00 | |
| EA3GEO | 2026-08-30 12:27:24 | 41.37033 | 2.61070 | 212° | 20km/h | 28600m | -20.0m/s | 0°C | 0% | 0hPa | 0V | 00:00:00 | 00:00:00 | 00:00:00 | |
| EA3GEO | 2026-08-30 12:27:16 | 41.37038 | 2.61147 | 296° | 29km/h | 28741m | -22.4m/s | 0°C | 0% | 0hPa | 0V | 00:00:00 | 00:00:00 | 00:00:00 | |
| EA3GEO | 2026-08-30 12:27:02 | 41.36996 | 2.61213 | 327° | 15km/h | 28922m | 5.3m/s | 0°C | 0% | 0hPa | 0V | 00:00:00 | 00:00:00 | 00:00:00 | |
| EA3GEO | 2026-08-30 12:26:48 | 41.36963 | 2.61291 | 309° | 7km/h | 28842m | 4.6m/s | 0°C | 0% | 0hPa | 0V | 00:00:00 | 00:00:00 | 00:00:00 | |
| EA3GEO | 2026-08-30 12:26:34 | 41.36945 | 2.61395 | 259° | 18km/h | 28755m | 5.4m/s | 0°C | 0% | 0hPa | 0V | 00:00:00 | 00:00:00 | 00:00:00 | |
| EA3GEO | 2026-08-30 12:26:20 | 41.36949 | 2.61495 | 205° | 7km/h | 28673m | 5.2m/s | 0°C | 0% | 0hPa | 0V | 00:00:00 | 00:00:00 | 00:00:00 | |
| EA3GEO | 2026-08-30 12:25:56 | 41.36985 | 2.61599 | 250° | 18km/h | 28536m | 3.6m/s | 0°C | 0% | 0hPa | 0V | 00:00:00 | 00:00:00 | 00:00:00 | |
| EA3GEO | 2026-08-30 12:25:27 | 41.37000 | 2.61654 | 104° | 5km/h | 28363m | 6.3m/s | 0°C | 0% | 0hPa | 0V | 00:00:00 | 00:00:00 | 00:00:00 | |
| EA3GEO | 2026-08-30 12:24:45 | 41.36967 | 2.61726 | 58° | 5km/h | 28124m | 6.5m/s | 0°C | 0% | 0hPa | 0V | 00:00:00 | 00:00:00 | 00:00:00 | |
| EA3GEO | 2026-08-30 12:24:39 | 41.36967 | 2.61730 | 214° | 9km/h | 28093m | 5.0m/s | 0°C | 0% | 0hPa | 0V | 00:00:00 | 00:00:00 | 00:00:00 | |
| EA3GEO | 2026-08-30 12:24:32 | 41.36967 | 2.61721 | 290° | 11km/h | 28053m | 3.9m/s | 0°C | 0% | 0hPa | 0V | 00:00:00 | 00:00:00 | 00:00:00 | |
| EA3GEO | 2026-08-30 12:24:08 | 41.36978 | 2.61689 | 210° | 9km/h | 27915m | 3.9m/s | 0°C | 0% | 0hPa | 0V | 00:00:00 | 00:00:00 | 00:00:00 | |
| EA3GEO | 2026-08-30 12:24:03 | 41.36973 | 2.61694 | 361° | 16km/h | 27891m | 5.2m/s | 0°C | 0% | 0hPa | 0V | 00:00:00 | 00:00:00 | 00:00:00 | |
| EA3GEO | 2026-08-30 12:23:57 | 41.36960 | 2.61683 | 327° | 18km/h | 27860m | 8.3m/s | 0°C | 0% | 0hPa | 0V | 00:00:00 | 00:00:00 | 00:00:00 | |
| EA3GEO | 2026-08-30 12:23:52 | 41.36943 | 2.61699 | 12° | 13km/h | 27834m | 5.7m/s | 0°C | 0% | 0hPa | 0V | 00:00:00 | 00:00:00 | 00:00:00 | |
| EA3GEO | 2026-08-30 12:23:45 | 41.36909 | 2.61697 | 309° | 13km/h | 27795m | 5.3m/s | 0°C | 0% | 0hPa | 0V | 00:00:00 | 00:00:00 | 00:00:00 | |
| EA3GEO | 2026-08-30 12:23:40 | 41.36881 | 2.61720 | 352° | 20km/h | 27765m | 7.0m/s | 0°C | 0% | 0hPa | 0V | 00:00:00 | 00:00:00 | 00:00:00 | |
| EA3GEO | 2026-08-30 12:23:31 | 41.36853 | 2.61756 | 342° | 29km/h | 27714m | 6.6m/s | 0°C | 0% | 0hPa | 0V | 00:00:00 | 00:00:00 | 00:00:00 | |
| EA3GEO | 2026-08-30 12:23:26 | 41.36830 | 2.61777 | 254° | 9km/h | 27687m | 5.2m/s | 0°C | 0% | 0hPa | 0V | 00:00:00 | 00:00:00 | 00:00:00 | |
| EA3IBE | 2026-08-30 12:23:21 | 41.36821 | 2.61808 | 321° | 24km/h | 27659m | 6.2m/s | 0°C | 0% | 0hPa | 0V | 00:00:00 | 00:00:00 | 00:00:00 | |
| EA3GEO | 2026-08-30 12:23:20 | 41.36817 | 2.61812 | 317° | 16km/h | 27653m | 6.3m/s | 0°C | 0% | 0hPa | 0V | 00:00:00 | 00:00:00 | 00:00:00 | |
| EA3GEO | 2026-08-30 12:23:14 | 41.36805 | 2.61839 | 305° | 16km/h | 27619m | 6.1m/s | 0°C | 0% | 0hPa | 0V | 00:00:00 | 00:00:00 | 00:00:00 | |
| EA3GEO | 2026-08-30 12:23:08 | 41.36797 | 2.61868 | 292° | 27km/h | 27583m | 3.9m/s | 0°C | 0% | 0hPa | 0V | 00:00:00 | 00:00:00 | 00:00:00 | |
| EA3GEO | 2026-08-30 12:23:03 | 41.36797 | 2.61892 | 265° | 13km/h | 27555m | 6.0m/s | 0°C | 0% | 0hPa | 0V | 00:00:00 | 00:00:00 | 00:00:00 | |
| EA3GEO | 2026-08-30 12:22:57 | 41.36804 | 2.61922 | 239° | 16km/h | 27523m | 4.8m/s | 0°C | 0% | 0hPa | 0V | 00:00:00 | 00:00:00 | 00:00:00 | |
| EA3GEO | 2026-08-30 12:22:51 | 41.36809 | 2.61956 | 164° | 5km/h | 27488m | 5.5m/s | 0°C | 0% | 0hPa | 0V | 00:00:00 | 00:00:00 | 00:00:00 | |
| EA3GEO | 2026-08-30 12:22:45 | 41.36825 | 2.61981 | 242° | 15km/h | 27453m | 5.5m/s | 0°C | 0% | 0hPa | 0V | 00:00:00 | 00:00:00 | 00:00:00 | |
| EA3GEO | 2026-08-30 12:22:39 | 41.36822 | 2.61992 | 156° | 9km/h | 27419m | 6.2m/s | 0°C | 0% | 0hPa | 0V | 00:00:00 | 00:00:00 | 00:00:00 | |
| EA3GEO | 2026-08-30 12:22:34 | 41.36840 | 2.62007 | 255° | 18km/h | 27392m | 4.0m/s | 0°C | 0% | 0hPa | 0V | 00:00:00 | 00:00:00 | 00:00:00 | |
| EA3GEO | 2026-08-30 12:22:28 | 41.36832 | 2.62006 | 287° | 9km/h | 27359m | 6.6m/s | 0°C | 0% | 0hPa | 0V | 00:00:00 | 00:00:00 | 00:00:00 | |
| EA3GEO | 2026-08-30 12:22:22 | 41.36840 | 2.62019 | 20° | 5km/h | 27323m | 6.2m/s | 0°C | 0% | 0hPa | 0V | 00:00:00 | 00:00:00 | 00:00:00 | |
| EA3GEO | 2026-08-30 12:22:17 | 41.36838 | 2.62012 | 149° | 9km/h | 27294m | 4.6m/s | 0°C | 0% | 0hPa | 0V | 00:00:00 | 00:00:00 | 00:00:00 | |
| EA3GEO | 2026-08-30 12:22:12 | 41.36838 | 2.62017 | 48° | 15km/h | 27265m | 7.3m/s | 0°C | 0% | 0hPa | 0V | 00:00:00 | 00:00:00 | 00:00:00 | |
| EA3GEO | 2026-08-30 12:22:01 | 41.36814 | 2.61992 | 27° | 33km/h | 27204m | 6.5m/s | 0°C | 0% | 0hPa | 0V | 00:00:00 | 00:00:00 | 00:00:00 | |
| EA3GEO | 2026-08-30 12:21:49 | 41.36767 | 2.61968 | 30° | 24km/h | 27136m | 6.4m/s | 0°C | 0% | 0hPa | 0V | 00:00:00 | 00:00:00 | 00:00:00 | |
| EA3GEO | 2026-08-30 12:21:44 | 41.36760 | 2.61975 | 348° | 5km/h | 27106m | 3.5m/s | 0°C | 0% | 0hPa | 0V | 00:00:00 | 00:00:00 | 00:00:00 | |
| EA3GEO | 2026-08-30 12:21:38 | 41.36726 | 2.61960 | 46° | 18km/h | 27071m | 4.4m/s | 0°C | 0% | 0hPa | 0V | 00:00:00 | 00:00:00 | 00:00:00 | |
| EA3GEO | 2026-08-30 12:21:32 | 41.36710 | 2.61969 | 21° | 24km/h | 27039m | 5.5m/s | 0°C | 0% | 0hPa | 0V | 00:00:00 | 00:00:00 | 00:00:00 | |
| EA3GEO | 2026-08-30 12:21:25 | 41.36662 | 2.61949 | 245° | 4km/h | 26999m | 5.1m/s | 0°C | 0% | 0hPa | 0V | 00:00:00 | 00:00:00 | 00:00:00 | |
| EA3GEO | 2026-08-30 12:21:17 | 41.36617 | 2.61944 | 32° | 16km/h | 26959m | 5.8m/s | 0°C | 0% | 0hPa | 0V | 00:00:00 | 00:00:00 | 00:00:00 | |
| EA3GEO | 2026-08-30 12:21:04 | 41.36551 | 2.61960 | 332° | 5km/h | 26885m | 4.7m/s | 0°C | 0% | 0hPa | 0V | 00:00:00 | 00:00:00 | 00:00:00 | |
| EA3GEO | 2026-08-30 12:20:57 | 41.36511 | 2.61997 | 355° | 31km/h | 26846m | 5.0m/s | 0°C | 0% | 0hPa | 0V | 00:00:00 | 00:00:00 | 00:00:00 | |
| EA3GEO | 2026-08-30 12:20:51 | 41.36477 | 2.62028 | 308° | 20km/h | 26814m | 4.3m/s | 0°C | 0% | 0hPa | 0V | 00:00:00 | 00:00:00 | 00:00:00 | |
| EA3GEO | 2026-08-30 12:20:45 | 41.36438 | 2.62069 | 316° | 22km/h | 26782m | 5.9m/s | 0°C | 0% | 0hPa | 0V | 00:00:00 | 00:00:00 | 00:00:00 | |
| EA3GEO | 2026-08-30 12:20:39 | 41.36417 | 2.62119 | 312° | 31km/h | 26751m | 4.8m/s | 0°C | 0% | 0hPa | 0V | 00:00:00 | 00:00:00 | 00:00:00 | |
| EA3GEO | 2026-08-30 12:20:25 | 41.36371 | 2.62214 | 314° | 15km/h | 26666m | 3.9m/s | 0°C | 0% | 0hPa | 0V | 00:00:00 | 00:00:00 | 00:00:00 | |
| EA3GEO | 2026-08-30 12:20:19 | 41.36353 | 2.62259 | 290° | 16km/h | 26633m | 4.8m/s | 0°C | 0% | 0hPa | 0V | 00:00:00 | 00:00:00 | 00:00:00 | |
| EA3GEO | 2026-08-30 12:20:13 | 41.36331 | 2.62281 | 331° | 11km/h | 26601m | 7.3m/s | 0°C | 0% | 0hPa | 0V | 00:00:00 | 00:00:00 | 00:00:00 | |
| EA3GEO | 2026-08-30 12:20:08 | 41.36325 | 2.62304 | 322° | 29km/h | 26575m | 4.7m/s | 0°C | 0% | 0hPa | 0V | 00:00:00 | 00:00:00 | 00:00:00 | |
| EA3GEO | 2026-08-30 12:19:40 | 41.36243 | 2.62368 | 13° | 9km/h | 26413m | 5.0m/s | 0°C | 0% | 0hPa | 0V | 00:00:00 | 00:00:00 | 00:00:00 | |
| EA3GEO | 2026-08-30 12:19:34 | 41.36224 | 2.62366 | 361° | 26km/h | 26380m | 4.7m/s | 0°C | 0% | 0hPa | 0V | 00:00:00 | 00:00:00 | 00:00:00 | |
| EA3GEO | 2026-08-30 12:19:27 | 41.36190 | 2.62377 | 24° | 11km/h | 26341m | 5.9m/s | 0°C | 0% | 0hPa | 0V | 00:00:00 | 00:00:00 | 00:00:00 | |
| EA3GEO | 2026-08-30 12:19:20 | 41.36144 | 2.62390 | 355° | 27km/h | 26304m | 5.8m/s | 0°C | 0% | 0hPa | 0V | 00:00:00 | 00:00:00 | 00:00:00 | |
| EA3GEO | 2026-08-30 12:19:15 | 41.36119 | 2.62411 | 332° | 13km/h | 26275m | 4.0m/s | 0°C | 0% | 0hPa | 0V | 00:00:00 | 00:00:00 | 00:00:00 | |
| EA3GEO | 2026-08-30 12:18:57 | 41.36023 | 2.62492 | 330° | 26km/h | 26176m | 6.2m/s | 0°C | 0% | 0hPa | 0V | 00:00:00 | 00:00:00 | 00:00:00 | |
| EA3GEO | 2026-08-30 12:18:47 | 41.36000 | 2.62546 | 306° | 22km/h | 26120m | 3.6m/s | 0°C | 0% | 0hPa | 0V | 00:00:00 | 00:00:00 | 00:00:00 | |
| EA3GEO | 2026-08-30 12:18:41 | 41.35993 | 2.62579 | 292° | 26km/h | 26087m | 5.4m/s | 0°C | 0% | 0hPa | 0V | 00:00:00 | 00:00:00 | 00:00:00 | |
| EA3GEO | 2026-08-30 12:18:36 | 41.35973 | 2.62592 | 338° | 18km/h | 26058m | 6.7m/s | 0°C | 0% | 0hPa | 0V | 00:00:00 | 00:00:00 | 00:00:00 | |
| EA3GEO | 2026-08-30 12:18:30 | 41.35956 | 2.62629 | 283° | 26km/h | 26024m | 5.5m/s | 0°C | 0% | 0hPa | 0V | 00:00:00 | 00:00:00 | 00:00:00 | |
| EA3GEO | 2026-08-30 12:18:25 | 41.35945 | 2.62638 | 16° | 15km/h | 25997m | 2.9m/s | 0°C | 0% | 0hPa | 0V | 00:00:00 | 00:00:00 | 00:00:00 | |
| EA3GEO | 2026-08-30 12:18:14 | 41.35930 | 2.62695 | 232° | 9km/h | 25935m | 4.9m/s | 0°C | 0% | 0hPa | 0V | 00:00:00 | 00:00:00 | 00:00:00 | |
| EA3GEO | 2026-08-30 12:18:09 | 41.35928 | 2.62729 | 277° | 29km/h | 25908m | 2.5m/s | 0°C | 0% | 0hPa | 0V | 00:00:00 | 00:00:00 | 00:00:00 | |
| EA3GEO | 2026-08-30 12:18:03 | 41.35923 | 2.62742 | 280° | 16km/h | 25873m | 5.2m/s | 0°C | 0% | 0hPa | 0V | 00:00:00 | 00:00:00 | 00:00:00 | |
| EA3GEO | 2026-08-30 12:17:57 | 41.35913 | 2.62791 | 273° | 22km/h | 25839m | 6.2m/s | 0°C | 0% | 0hPa | 0V | 00:00:00 | 00:00:00 | 00:00:00 | |
| EA3GEO | 2026-08-30 12:17:44 | 41.35897 | 2.62843 | 337° | 5km/h | 25771m | 6.3m/s | 0°C | 0% | 0hPa | 0V | 00:00:00 | 00:00:00 | 00:00:00 | |
| EA3GEO | 2026-08-30 12:17:38 | 41.35895 | 2.62854 | 325° | 7km/h | 25738m | 3.4m/s | 0°C | 0% | 0hPa | 0V | 00:00:00 | 00:00:00 | 00:00:00 | |
| EA3GEO | 2026-08-30 12:17:32 | 41.35890 | 2.62883 | 339° | 13km/h | 25704m | 5.7m/s | 0°C | 0% | 0hPa | 0V | 00:00:00 | 00:00:00 | 00:00:00 | |
| EA3GEO | 2026-08-30 12:17:27 | 41.35882 | 2.62895 | 317° | 11km/h | 25675m | 6.6m/s | 0°C | 0% | 0hPa | 0V | 00:00:00 | 00:00:00 | 00:00:00 | |
| EA3GEO | 2026-08-30 12:17:13 | 41.35856 | 2.62952 | 300° | 24km/h | 25594m | 6.8m/s | 0°C | 0% | 0hPa | 0V | 00:00:00 | 00:00:00 | 00:00:00 | |
| EA3GEO | 2026-08-30 12:17:08 | 41.35846 | 2.62980 | 7° | 9km/h | 25564m | 4.6m/s | 0°C | 0% | 0hPa | 0V | 00:00:00 | 00:00:00 | 00:00:00 | |
| EA3GEO | 2026-08-30 12:16:55 | 41.35819 | 2.63018 | 100° | 5km/h | 25491m | 7.5m/s | 0°C | 0% | 0hPa | 0V | 00:00:00 | 00:00:00 | 00:00:00 | |
| EA3GEO | 2026-08-30 12:16:50 | 41.35819 | 2.63032 | 299° | 18km/h | 25462m | 4.4m/s | 0°C | 0% | 0hPa | 0V | 00:00:00 | 00:00:00 | 00:00:00 | |
| EA3GEO | 2026-08-30 12:16:45 | 41.35815 | 2.63051 | 355° | 7km/h | 25434m | 5.8m/s | 0°C | 0% | 0hPa | 0V | 00:00:00 | 00:00:00 | 00:00:00 | |
| EA3IBE | 2026-08-30 12:16:37 | 41.35815 | 2.63069 | 267° | 16km/h | 25388m | 6.2m/s | 0°C | 0% | 0hPa | 0V | 00:00:00 | 00:00:00 | 00:00:00 | |
| EA3GEO | 2026-08-30 12:16:36 | 41.35815 | 2.63074 | 269° | 11km/h | 25383m | 3.9m/s | 0°C | 0% | 0hPa | 0V | 00:00:00 | 00:00:00 | 00:00:00 | |
| EA3GEO | 2026-08-30 12:16:31 | 41.35818 | 2.63079 | 211° | 15km/h | 25354m | 5.9m/s | 0°C | 0% | 0hPa | 0V | 00:00:00 | 00:00:00 | 00:00:00 | |
| EA3IBE | 2026-08-30 12:16:27 | 41.35821 | 2.63097 | 318° | 16km/h | 25332m | 3.9m/s | 0°C | 0% | 0hPa | 0V | 00:00:00 | 00:00:00 | 00:00:00 | |
| EA3GEO | 2026-08-30 12:16:25 | 41.35817 | 2.63100 | 0° | 0km/h | 25322m | 6.1m/s | 0°C | 0% | 0hPa | 0V | 00:00:00 | 00:00:00 | 00:00:00 | |
| EA3GEO | 2026-08-30 12:16:20 | 41.35827 | 2.63098 | 273° | 7km/h | 25294m | 5.0m/s | 0°C | 0% | 0hPa | 0V | 00:00:00 | 00:00:00 | 00:00:00 | |
| EA3IBE | 2026-08-30 12:16:18 | 41.35828 | 2.63103 | 248° | 7km/h | 25283m | 6.8m/s | 0°C | 0% | 0hPa | 0V | 00:00:00 | 00:00:00 | 00:00:00 | |
| EA3GEO | 2026-08-30 12:16:12 | 41.35828 | 2.63107 | 168° | 13km/h | 25248m | 6.4m/s | 0°C | 0% | 0hPa | 0V | 00:00:00 | 00:00:00 | 00:00:00 | |
| EA3IBE | 2026-08-30 12:16:11 | 41.35832 | 2.63107 | 191° | 15km/h | 25243m | 5.0m/s | 0°C | 0% | 0hPa | 0V | 00:00:00 | 00:00:00 | 00:00:00 | |
| EA3IBE | 2026-08-30 12:16:06 | 41.35830 | 2.63123 | 290° | 9km/h | 25212m | 5.4m/s | 0°C | 0% | 0hPa | 0V | 00:00:00 | 00:00:00 | 00:00:00 | |
| EA3GEO | 2026-08-30 12:16:01 | 41.35828 | 2.63127 | 13° | 4km/h | 25185m | 4.4m/s | 0°C | 0% | 0hPa | 0V | 00:00:00 | 00:00:00 | 00:00:00 | |
| EA3IBE | 2026-08-30 12:15:57 | 41.35834 | 2.63127 | 200° | 7km/h | 25165m | 4.6m/s | 0°C | 0% | 0hPa | 0V | 00:00:00 | 00:00:00 | 00:00:00 | |
| EA3GEO | 2026-08-30 12:15:56 | 41.35834 | 2.63129 | 292° | 7km/h | 25159m | 6.9m/s | 0°C | 0% | 0hPa | 0V | 00:00:00 | 00:00:00 | 00:00:00 | |
| EA3IBE | 2026-08-30 12:15:47 | 41.35820 | 2.63144 | 288° | 9km/h | 25107m | 5.0m/s | 0°C | 0% | 0hPa | 0V | 00:00:00 | 00:00:00 | 00:00:00 | |
| EA3GEO | 2026-08-30 12:15:45 | 41.35820 | 2.63149 | 249° | 7km/h | 25096m | 4.6m/s | 0°C | 0% | 0hPa | 0V | 00:00:00 | 00:00:00 | 00:00:00 | |
| EA3GEO | 2026-08-30 12:15:40 | 41.35807 | 2.63166 | 314° | 9km/h | 25066m | 5.3m/s | 0°C | 0% | 0hPa | 0V | 00:00:00 | 00:00:00 | 00:00:00 | |
| EA3GEO | 2026-08-30 12:15:34 | 41.35790 | 2.63180 | 329° | 16km/h | 25036m | 5.5m/s | 0°C | 0% | 0hPa | 0V | 00:00:00 | 00:00:00 | 00:00:00 | |
| EA3IBE | 2026-08-30 12:15:31 | 41.35787 | 2.63190 | 284° | 13km/h | 25020m | 4.8m/s | 0°C | 0% | 0hPa | 0V | 00:00:00 | 00:00:00 | 00:00:00 | |
| EA3GEO | 2026-08-30 12:15:21 | 41.35756 | 2.63219 | 273° | 15km/h | 24961m | 5.3m/s | 0°C | 0% | 0hPa | 0V | 00:00:00 | 00:00:00 | 00:00:00 | |
| EA3IBE | 2026-08-30 12:15:17 | 41.35745 | 2.63238 | 334° | 29km/h | 24940m | 4.1m/s | 0°C | 0% | 0hPa | 0V | 00:00:00 | 00:00:00 | 00:00:00 | |
| EA3GEO | 2026-08-30 12:15:13 | 41.35732 | 2.63250 | 294° | 13km/h | 24918m | 5.3m/s | 0°C | 0% | 0hPa | 0V | 00:00:00 | 00:00:00 | 00:00:00 | |
| EA3GEO | 2026-08-30 12:15:07 | 41.35720 | 2.63282 | 299° | 13km/h | 24887m | 4.5m/s | 0°C | 0% | 0hPa | 0V | 00:00:00 | 00:00:00 | 00:00:00 | |
| EA3IBE | 2026-08-30 12:15:01 | 41.35704 | 2.63317 | 282° | 13km/h | 24854m | 5.5m/s | 0°C | 0% | 0hPa | 0V | 00:00:00 | 00:00:00 | 00:00:00 | |
| EA3IBE | 2026-08-30 12:14:50 | 41.35680 | 2.63386 | 299° | 22km/h | 24793m | 7.6m/s | 0°C | 0% | 0hPa | 0V | 00:00:00 | 00:00:00 | 00:00:00 | |
| EA3GEO | 2026-08-30 12:14:48 | 41.35677 | 2.63397 | 294° | 16km/h | 24781m | 5.1m/s | 0°C | 0% | 0hPa | 0V | 00:00:00 | 00:00:00 | 00:00:00 | |
| EA3IBE | 2026-08-30 12:14:45 | 41.35667 | 2.63421 | 294° | 18km/h | 24759m | 6.0m/s | 0°C | 0% | 0hPa | 0V | 00:00:00 | 00:00:00 | 00:00:00 | |
| EA3IBE | 2026-08-30 12:14:38 | 41.35656 | 2.63461 | 289° | 15km/h | 24725m | 5.5m/s | 0°C | 0% | 0hPa | 0V | 00:00:00 | 00:00:00 | 00:00:00 | |
| EA3IBE | 2026-08-30 12:14:34 | 41.35649 | 2.63489 | 304° | 13km/h | 24696m | 6.2m/s | 0°C | 0% | 0hPa | 0V | 00:00:00 | 00:00:00 | 00:00:00 | |
| EA3GEO | 2026-08-30 12:14:28 | 41.35640 | 2.63512 | 296° | 24km/h | 24670m | 4.9m/s | 0°C | 0% | 0hPa | 0V | 00:00:00 | 00:00:00 | 00:00:00 | |
| EA3GEO | 2026-08-30 12:14:20 | 41.35627 | 2.63542 | 312° | 9km/h | 24626m | 6.4m/s | 0°C | 0% | 0hPa | 0V | 00:00:00 | 00:00:00 | 00:00:00 | |
| EA3IBE | 2026-08-30 12:14:16 | 41.35620 | 2.63556 | 307° | 18km/h | 24606m | 5.1m/s | 0°C | 0% | 0hPa | 0V | 00:00:00 | 00:00:00 | 00:00:00 | |
| EA3GEO | 2026-08-30 12:14:15 | 41.35617 | 2.63561 | 307° | 15km/h | 24599m | 7.4m/s | 0°C | 0% | 0hPa | 0V | 00:00:00 | 00:00:00 | 00:00:00 | |
| EA3IBE | 2026-08-30 12:14:09 | 41.35600 | 2.63575 | 304° | 18km/h | 24565m | 3.8m/s | 0°C | 0% | 0hPa | 0V | 00:00:00 | 00:00:00 | 00:00:00 | |
| EA3IBE | 2026-08-30 12:13:58 | 41.35572 | 2.63603 | 325° | 13km/h | 24504m | 5.6m/s | 0°C | 0% | 0hPa | 0V | 00:00:00 | 00:00:00 | 00:00:00 | |
| EA3IBE | 2026-08-30 12:13:51 | 41.35560 | 2.63601 | 317° | 20km/h | 24466m | 5.6m/s | 0°C | 0% | 0hPa | 0V | 00:00:00 | 00:00:00 | 00:00:00 | |
| EA3GEO | 2026-08-30 12:13:47 | 41.35544 | 2.63612 | 360° | 15km/h | 24445m | 5.3m/s | 0°C | 0% | 0hPa | 0V | 00:00:00 | 00:00:00 | 00:00:00 | |
| EA3IBE | 2026-08-30 12:13:42 | 41.35530 | 2.63614 | 19° | 15km/h | 24417m | 6.7m/s | 0°C | 0% | 0hPa | 0V | 00:00:00 | 00:00:00 | 00:00:00 | |
| EA3GEO | 2026-08-30 12:13:40 | 41.35524 | 2.63613 | 345° | 7km/h | 24406m | 7.9m/s | 0°C | 0% | 0hPa | 0V | 00:00:00 | 00:00:00 | 00:00:00 | |
| EA3IBE | 2026-08-30 12:13:35 | 41.35512 | 2.63626 | 352° | 18km/h | 24376m | 4.4m/s | 0°C | 0% | 0hPa | 0V | 00:00:00 | 00:00:00 | 00:00:00 | |
| EA3GEO | 2026-08-30 12:13:34 | 41.35508 | 2.63627 | 345° | 16km/h | 24371m | 6.1m/s | 0°C | 0% | 0hPa | 0V | 00:00:00 | 00:00:00 | 00:00:00 | |
| EA3IBE | 2026-08-30 12:13:30 | 41.35493 | 2.63632 | 14° | 9km/h | 24343m | 5.9m/s | 0°C | 0% | 0hPa | 0V | 00:00:00 | 00:00:00 | 00:00:00 | |
| EA3GEO | 2026-08-30 12:13:26 | 41.35488 | 2.63634 | 328° | 9km/h | 24326m | 5.7m/s | 0°C | 0% | 0hPa | 0V | 00:00:00 | 00:00:00 | 00:00:00 | |
| EA3IBE | 2026-08-30 12:13:20 | 41.35461 | 2.63648 | 350° | 22km/h | 24292m | 6.1m/s | 0°C | 0% | 0hPa | 0V | 00:00:00 | 00:00:00 | 00:00:00 | |
| EA3GEO | 2026-08-30 12:13:14 | 41.35437 | 2.63654 | 344° | 24km/h | 24260m | 6.3m/s | 0°C | 0% | 0hPa | 0V | 00:00:00 | 00:00:00 | 00:00:00 | |
| EA3GEO | 2026-08-30 12:13:09 | 41.35406 | 2.63668 | 8° | 18km/h | 24222m | 5.7m/s | 0°C | 0% | 0hPa | 0V | 00:00:00 | 00:00:00 | 00:00:00 | |
| EA3GEO | 2026-08-30 12:13:03 | 41.35388 | 2.63668 | 348° | 24km/h | 24192m | 5.5m/s | 0°C | 0% | 0hPa | 0V | 00:00:00 | 00:00:00 | 00:00:00 | |
| EA3GEO | 2026-08-30 12:12:58 | 41.35365 | 2.63693 | 328° | 15km/h | 24156m | 4.5m/s | 0°C | 0% | 0hPa | 0V | 00:00:00 | 00:00:00 | 00:00:00 | |
| EA3GEO | 2026-08-30 12:12:45 | 41.35329 | 2.63740 | 345° | 20km/h | 24087m | 6.2m/s | 0°C | 0% | 0hPa | 0V | 00:00:00 | 00:00:00 | 00:00:00 | |
| EA3GEO | 2026-08-30 12:12:40 | 41.35312 | 2.63749 | 312° | 22km/h | 24059m | 6.4m/s | 0°C | 0% | 0hPa | 0V | 00:00:00 | 00:00:00 | 00:00:00 | |
| EA3GEO | 2026-08-30 12:12:35 | 41.35296 | 2.63790 | 311° | 24km/h | 24029m | 7.5m/s | 0°C | 0% | 0hPa | 0V | 00:00:00 | 00:00:00 | 00:00:00 | |
| EA3GEO | 2026-08-30 12:12:29 | 41.35284 | 2.63812 | 297° | 24km/h | 23995m | 6.0m/s | 0°C | 0% | 0hPa | 0V | 00:00:00 | 00:00:00 | 00:00:00 | |
| EA3IBE | 2026-08-30 12:12:25 | 41.35273 | 2.63852 | 284° | 27km/h | 23974m | 4.8m/s | 0°C | 0% | 0hPa | 0V | 00:00:00 | 00:00:00 | 00:00:00 | |
| EA3GEO | 2026-08-30 12:12:23 | 41.35269 | 2.63863 | 332° | 15km/h | 23962m | 5.8m/s | 0°C | 0% | 0hPa | 0V | 00:00:00 | 00:00:00 | 00:00:00 | |
| EA3GEO | 2026-08-30 12:12:18 | 41.35266 | 2.63886 | 275° | 31km/h | 23937m | 5.9m/s | 0°C | 0% | 0hPa | 0V | 00:00:00 | 00:00:00 | 00:00:00 | |
| EA3IBE | 2026-08-30 12:12:17 | 41.35265 | 2.63897 | 284° | 33km/h | 23931m | 5.5m/s | 0°C | 0% | 0hPa | 0V | 00:00:00 | 00:00:00 | 00:00:00 | |
| EA3GEO | 2026-08-30 12:12:12 | 41.35257 | 2.63931 | 256° | 9km/h | 23902m | 5.5m/s | 0°C | 0% | 0hPa | 0V | 00:00:00 | 00:00:00 | 00:00:00 | |
| EA3GEO | 2026-08-30 12:12:07 | 41.35258 | 2.63956 | 275° | 35km/h | 23873m | 4.7m/s | 0°C | 0% | 0hPa | 0V | 00:00:00 | 00:00:00 | 00:00:00 | |
| EA3GEO | 2026-08-30 12:12:01 | 41.35247 | 2.64007 | 254° | 9km/h | 23839m | 6.7m/s | 0°C | 0% | 0hPa | 0V | 00:00:00 | 00:00:00 | 00:00:00 | |
| EA3GEO | 2026-08-30 12:11:55 | 41.35253 | 2.64049 | 285° | 33km/h | 23808m | 6.2m/s | 0°C | 0% | 0hPa | 0V | 00:00:00 | 00:00:00 | 00:00:00 | |
| EA3GEO | 2026-08-30 12:11:50 | 41.35244 | 2.64076 | 234° | 15km/h | 23779m | 5.7m/s | 0°C | 0% | 0hPa | 0V | 00:00:00 | 00:00:00 | 00:00:00 | |
| EA3GEO | 2026-08-30 12:11:45 | 41.35249 | 2.64106 | 279° | 22km/h | 23752m | 4.6m/s | 0°C | 0% | 0hPa | 0V | 00:00:00 | 00:00:00 | 00:00:00 | |
| EA3GEO | 2026-08-30 12:11:39 | 41.35236 | 2.64118 | 257° | 7km/h | 23720m | 5.8m/s | 0°C | 0% | 0hPa | 0V | 00:00:00 | 00:00:00 | 00:00:00 | |
| EA3IBE | 2026-08-30 12:11:33 | 41.35229 | 2.64146 | 323° | 15km/h | 23688m | 5.5m/s | 0°C | 0% | 0hPa | 0V | 00:00:00 | 00:00:00 | 00:00:00 | |
| EA3GEO | 2026-08-30 12:11:31 | 41.35225 | 2.64150 | 345° | 11km/h | 23677m | 5.0m/s | 0°C | 0% | 0hPa | 0V | 00:00:00 | 00:00:00 | 00:00:00 | |
| EA3GEO | 2026-08-30 12:11:26 | 41.35213 | 2.64160 | 265° | 13km/h | 23649m | 4.8m/s | 0°C | 0% | 0hPa | 0V | 00:00:00 | 00:00:00 | 00:00:00 | |
| EA3IBE | 2026-08-30 12:11:20 | 41.35201 | 2.64177 | 299° | 9km/h | 23615m | 4.7m/s | 0°C | 0% | 0hPa | 0V | 00:00:00 | 00:00:00 | 00:00:00 | |
| EA3GEO | 2026-08-30 12:11:14 | 41.35189 | 2.64193 | 281° | 13km/h | 23583m | 4.5m/s | 0°C | 0% | 0hPa | 0V | 00:00:00 | 00:00:00 | 00:00:00 | |
| EA3IBE | 2026-08-30 12:11:13 | 41.35188 | 2.64197 | 287° | 15km/h | 23578m | 4.5m/s | 0°C | 0% | 0hPa | 0V | 00:00:00 | 00:00:00 | 00:00:00 | |
| EA3GEO | 2026-08-30 12:11:09 | 41.35175 | 2.64213 | 334° | 15km/h | 23557m | 6.3m/s | 0°C | 0% | 0hPa | 0V | 00:00:00 | 00:00:00 | 00:00:00 | |
| EA3GEO | 2026-08-30 12:11:04 | 41.35145 | 2.64227 | 325° | 22km/h | 23526m | 5.8m/s | 0°C | 0% | 0hPa | 0V | 00:00:00 | 00:00:00 | 00:00:00 | |
| EA3GEO | 2026-08-30 12:10:58 | 41.35124 | 2.64257 | 323° | 26km/h | 23498m | 6.3m/s | 0°C | 0% | 0hPa | 0V | 00:00:00 | 00:00:00 | 00:00:00 | |
| EA3GEO | 2026-08-30 12:10:19 | 41.34911 | 2.64534 | 298° | 35km/h | 23286m | 4.6m/s | 0°C | 0% | 0hPa | 0V | 00:00:00 | 00:00:00 | 00:00:00 | |
| EA3GEO | 2026-08-30 12:10:13 | 41.34892 | 2.64593 | 308° | 40km/h | 23255m | 4.0m/s | 0°C | 0% | 0hPa | 0V | 00:00:00 | 00:00:00 | 00:00:00 | |
| EA3GEO | 2026-08-30 12:10:08 | 41.34870 | 2.64639 | 307° | 29km/h | 23229m | 4.2m/s | 0°C | 0% | 0hPa | 0V | 00:00:00 | 00:00:00 | 00:00:00 | |
| EA3IBE | 2026-08-30 12:10:07 | 41.34866 | 2.64646 | 309° | 24km/h | 23224m | 5.2m/s | 0°C | 0% | 0hPa | 0V | 00:00:00 | 00:00:00 | 00:00:00 | |
| EA3GEO | 2026-08-30 12:10:03 | 41.34847 | 2.64672 | 314° | 38km/h | 23202m | 5.4m/s | 0°C | 0% | 0hPa | 0V | 00:00:00 | 00:00:00 | 00:00:00 | |
| EA3GEO | 2026-08-30 12:09:57 | 41.34825 | 2.64732 | 305° | 26km/h | 23169m | 6.0m/s | 0°C | 0% | 0hPa | 0V | 00:00:00 | 00:00:00 | 00:00:00 | |
| EA3IBE | 2026-08-30 12:09:51 | 41.34792 | 2.64771 | 311° | 38km/h | 23137m | 3.7m/s | 0°C | 0% | 0hPa | 0V | 00:00:00 | 00:00:00 | 00:00:00 | |
| EA3GEO | 2026-08-30 12:09:46 | 41.34775 | 2.64799 | 333° | 20km/h | 23111m | 5.3m/s | 0°C | 0% | 0hPa | 0V | 00:00:00 | 00:00:00 | 00:00:00 | |
| EA3IBE | 2026-08-30 12:09:43 | 41.34759 | 2.64811 | 317° | 24km/h | 23096m | 6.2m/s | 0°C | 0% | 0hPa | 0V | 00:00:00 | 00:00:00 | 00:00:00 | |
| EA3GEO | 2026-08-30 12:09:41 | 41.34751 | 2.64824 | 307° | 29km/h | 23086m | 4.8m/s | 0°C | 0% | 0hPa | 0V | 00:00:00 | 00:00:00 | 00:00:00 | |
| EA3GEO | 2026-08-30 12:09:34 | 41.34715 | 2.64869 | 327° | 27km/h | 23048m | 6.4m/s | 0°C | 0% | 0hPa | 0V | 00:00:00 | 00:00:00 | 00:00:00 | |
| EA3GEO | 2026-08-30 12:09:28 | 41.34686 | 2.64915 | 310° | 29km/h | 23015m | 5.7m/s | 0°C | 0% | 0hPa | 0V | 00:00:00 | 00:00:00 | 00:00:00 | |
| EA3GEO | 2026-08-30 12:09:23 | 41.34667 | 2.64964 | 293° | 38km/h | 22989m | 6.2m/s | 0°C | 0% | 0hPa | 0V | 00:00:00 | 00:00:00 | 00:00:00 | |
| EA3IBE | 2026-08-30 12:09:19 | 41.34650 | 2.65005 | 289° | 27km/h | 22968m | 5.8m/s | 0°C | 0% | 0hPa | 0V | 00:00:00 | 00:00:00 | 00:00:00 | |
| EA3GEO | 2026-08-30 12:09:17 | 41.34645 | 2.65023 | 293° | 33km/h | 22958m | 5.4m/s | 0°C | 0% | 0hPa | 0V | 00:00:00 | 00:00:00 | 00:00:00 | |
| EA3GEO | 2026-08-30 12:09:12 | 41.34627 | 2.65075 | 286° | 29km/h | 22931m | 4.2m/s | 0°C | 0% | 0hPa | 0V | 00:00:00 | 00:00:00 | 00:00:00 | |
| EA3GEO | 2026-08-30 12:09:06 | 41.34619 | 2.65134 | 279° | 26km/h | 22900m | 4.9m/s | 0°C | 0% | 0hPa | 0V | 00:00:00 | 00:00:00 | 00:00:00 | |
| EA3IBE | 2026-08-30 12:09:01 | 41.34607 | 2.65177 | 270° | 31km/h | 22870m | 4.2m/s | 0°C | 0% | 0hPa | 0V | 00:00:00 | 00:00:00 | 00:00:00 | |
| EA3IBE | 2026-08-30 12:08:53 | 41.34607 | 2.65256 | 280° | 31km/h | 22826m | 4.8m/s | 0°C | 0% | 0hPa | 0V | 00:00:00 | 00:00:00 | 00:00:00 | |
| EA3GEO | 2026-08-30 12:08:50 | 41.34608 | 2.65284 | 261° | 26km/h | 22810m | 5.7m/s | 0°C | 0% | 0hPa | 0V | 00:00:00 | 00:00:00 | 00:00:00 | |
| EA3GEO | 2026-08-30 12:08:44 | 41.34612 | 2.65332 | 259° | 16km/h | 22776m | 5.1m/s | 0°C | 0% | 0hPa | 0V | 00:00:00 | 00:00:00 | 00:00:00 | |
| EA3GEO | 2026-08-30 12:08:38 | 41.34618 | 2.65374 | 248° | 26km/h | 22743m | 6.3m/s | 0°C | 0% | 0hPa | 0V | 00:00:00 | 00:00:00 | 00:00:00 | |
| EA3IBE | 2026-08-30 12:08:35 | 41.34625 | 2.65395 | 229° | 20km/h | 22726m | 6.6m/s | 0°C | 0% | 0hPa | 0V | 00:00:00 | 00:00:00 | 00:00:00 | |
| EA3GEO | 2026-08-30 12:08:32 | 41.34632 | 2.65406 | 266° | 15km/h | 22710m | 7.3m/s | 0°C | 0% | 0hPa | 0V | 00:00:00 | 00:00:00 | 00:00:00 | |
| EA3IBE | 2026-08-30 12:08:29 | 41.34633 | 2.65423 | 247° | 16km/h | 22693m | 6.1m/s | 0°C | 0% | 0hPa | 0V | 00:00:00 | 00:00:00 | 00:00:00 | |
| EA3GEO | 2026-08-30 12:08:27 | 41.34640 | 2.65432 | 212° | 22km/h | 22681m | 4.6m/s | 0°C | 0% | 0hPa | 0V | 00:00:00 | 00:00:00 | 00:00:00 | |
| EA3IBE | 2026-08-30 12:08:23 | 41.34655 | 2.65452 | 229° | 18km/h | 22660m | 6.0m/s | 0°C | 0% | 0hPa | 0V | 00:00:00 | 00:00:00 | 00:00:00 | |
| EA3GEO | 2026-08-30 12:08:21 | 41.34660 | 2.65461 | 249° | 15km/h | 22648m | 6.6m/s | 0°C | 0% | 0hPa | 0V | 00:00:00 | 00:00:00 | 00:00:00 | |
| EA3GEO | 2026-08-30 12:08:15 | 41.34677 | 2.65486 | 219° | 16km/h | 22615m | 6.1m/s | 0°C | 0% | 0hPa | 0V | 00:00:00 | 00:00:00 | 00:00:00 | |
| EA3IBE | 2026-08-30 12:08:14 | 41.34680 | 2.65490 | 226° | 18km/h | 22609m | 6.0m/s | 0°C | 0% | 0hPa | 0V | 00:00:00 | 00:00:00 | 00:00:00 | |
| EA3GEO | 2026-08-30 12:08:10 | 41.34694 | 2.65507 | 224° | 16km/h | 22587m | 6.2m/s | 0°C | 0% | 0hPa | 0V | 00:00:00 | 00:00:00 | 00:00:00 | |
| EA3GEO | 2026-08-30 12:08:03 | 41.34728 | 2.65535 | 229° | 24km/h | 22547m | 5.3m/s | 0°C | 0% | 0hPa | 0V | 00:00:00 | 00:00:00 | 00:00:00 | |
| EA3IBE | 2026-08-30 12:08:02 | 41.34732 | 2.65540 | 227° | 20km/h | 22541m | 5.7m/s | 0°C | 0% | 0hPa | 0V | 00:00:00 | 00:00:00 | 00:00:00 | |
| EA3GEO | 2026-08-30 12:07:49 | 41.34783 | 2.65584 | 179° | 13km/h | 22471m | 5.2m/s | 0°C | 0% | 0hPa | 0V | 00:00:00 | 00:00:00 | 00:00:00 | |
| EA3GEO | 2026-08-30 12:07:43 | 41.34804 | 2.65586 | 193° | 24km/h | 22438m | 4.7m/s | 0°C | 0% | 0hPa | 0V | 00:00:00 | 00:00:00 | 00:00:00 | |
| EA3IBE | 2026-08-30 12:07:39 | 41.34820 | 2.65597 | 199° | 13km/h | 22419m | 5.6m/s | 0°C | 0% | 0hPa | 0V | 00:00:00 | 00:00:00 | 00:00:00 | |
| EA3GEO | 2026-08-30 12:07:38 | 41.34823 | 2.65597 | 165° | 15km/h | 22413m | 6.5m/s | 0°C | 0% | 0hPa | 0V | 00:00:00 | 00:00:00 | 00:00:00 | |
| EA3GEO | 2026-08-30 12:07:32 | 41.34843 | 2.65590 | 195° | 18km/h | 22379m | 4.7m/s | 0°C | 0% | 0hPa | 0V | 00:00:00 | 00:00:00 | 00:00:00 | |
| EA3IBE | 2026-08-30 12:07:27 | 41.34860 | 2.65588 | 142° | 20km/h | 22352m | 4.3m/s | 0°C | 0% | 0hPa | 0V | 00:00:00 | 00:00:00 | 00:00:00 | |
| EA3GEO | 2026-08-30 12:07:24 | 41.34867 | 2.65577 | 115° | 7km/h | 22336m | 5.3m/s | 0°C | 0% | 0hPa | 0V | 00:00:00 | 00:00:00 | 00:00:00 | |
| EA3IBE | 2026-08-30 12:07:18 | 41.34886 | 2.65571 | 176° | 13km/h | 22304m | 4.7m/s | 0°C | 0% | 0hPa | 0V | 00:00:00 | 00:00:00 | 00:00:00 | |
| EA3GEO | 2026-08-30 12:07:10 | 41.34892 | 2.65553 | 187° | 7km/h | 22262m | 5.9m/s | 0°C | 0% | 0hPa | 0V | 00:00:00 | 00:00:00 | 00:00:00 | |
| EA3IBE | 2026-08-30 12:07:06 | 41.34898 | 2.65562 | 187° | 5km/h | 22240m | 4.8m/s | 0°C | 0% | 0hPa | 0V | 00:00:00 | 00:00:00 | 00:00:00 | |
| EA3GEO | 2026-08-30 12:07:04 | 41.34897 | 2.65558 | 45° | 9km/h | 22230m | 5.9m/s | 0°C | 0% | 0hPa | 0V | 00:00:00 | 00:00:00 | 00:00:00 | |
| EA3GEO | 2026-08-30 12:06:59 | 41.34889 | 2.65551 | 113° | 2km/h | 22204m | 4.5m/s | 0°C | 0% | 0hPa | 0V | 00:00:00 | 00:00:00 | 00:00:00 | |
| EA3IBE | 2026-08-30 12:06:56 | 41.34885 | 2.65553 | 337° | 13km/h | 22188m | 4.4m/s | 0°C | 0% | 0hPa | 0V | 00:00:00 | 00:00:00 | 00:00:00 | |
| EA3GEO | 2026-08-30 12:06:50 | 41.34872 | 2.65556 | 14° | 9km/h | 22152m | 6.3m/s | 0°C | 0% | 0hPa | 0V | 00:00:00 | 00:00:00 | 00:00:00 | |
| EA3GEO | 2026-08-30 12:06:43 | 41.34866 | 2.65569 | 271° | 4km/h | 22120m | 4.1m/s | 0°C | 0% | 0hPa | 0V | 00:00:00 | 00:00:00 | 00:00:00 | |
| EA3IBE | 2026-08-30 12:06:40 | 41.34860 | 2.65574 | 326° | 15km/h | 22104m | 5.2m/s | 0°C | 0% | 0hPa | 0V | 00:00:00 | 00:00:00 | 00:00:00 | |
| EA3GEO | 2026-08-30 12:06:37 | 41.34851 | 2.65579 | 1° | 9km/h | 22089m | 4.6m/s | 0°C | 0% | 0hPa | 0V | 00:00:00 | 00:00:00 | 00:00:00 | |
| EA3IBE | 2026-08-30 12:06:32 | 41.34837 | 2.65585 | 8° | 7km/h | 22064m | 5.8m/s | 0°C | 0% | 0hPa | 0V | 00:00:00 | 00:00:00 | 00:00:00 | |
| EA3GEO | 2026-08-30 12:06:31 | 41.34835 | 2.65585 | 27° | 7km/h | 22058m | 4.5m/s | 0°C | 0% | 0hPa | 0V | 00:00:00 | 00:00:00 | 00:00:00 | |
| EA3GEO | 2026-08-30 12:06:26 | 41.34826 | 2.65584 | 352° | 9km/h | 22031m | 4.5m/s | 0°C | 0% | 0hPa | 0V | 00:00:00 | 00:00:00 | 00:00:00 | |
| EA3GEO | 2026-08-30 12:06:20 | 41.34819 | 2.65589 | 115° | 2km/h | 21999m | 5.7m/s | 0°C | 0% | 0hPa | 0V | 00:00:00 | 00:00:00 | 00:00:00 | |
| EA3GEO | 2026-08-30 12:06:15 | 41.34813 | 2.65590 | 290° | 7km/h | 21975m | 4.9m/s | 0°C | 0% | 0hPa | 0V | 00:00:00 | 00:00:00 | 00:00:00 | |
| EA3GEO | 2026-08-30 12:06:10 | 41.34818 | 2.65611 | 204° | 5km/h | 21948m | 4.2m/s | 0°C | 0% | 0hPa | 0V | 00:00:00 | 00:00:00 | 00:00:00 | |
| EA3GEO | 2026-08-30 12:06:03 | 41.34801 | 2.65621 | 328° | 13km/h | 21913m | 4.3m/s | 0°C | 0% | 0hPa | 0V | 00:00:00 | 00:00:00 | 00:00:00 | |
| EA3GEO | 2026-08-30 12:05:56 | 41.34802 | 2.65648 | 289° | 9km/h | 21877m | 6.0m/s | 0°C | 0% | 0hPa | 0V | 00:00:00 | 00:00:00 | 00:00:00 | |
| EA3GEO | 2026-08-30 12:05:49 | 41.34792 | 2.65687 | 241° | 22km/h | 21841m | 6.4m/s | 0°C | 0% | 0hPa | 0V | 00:00:00 | 00:00:00 | 00:00:00 | |
| EA3GEO | 2026-08-30 12:05:43 | 41.34799 | 2.65719 | 293° | 20km/h | 21811m | 4.9m/s | 0°C | 0% | 0hPa | 0V | 00:00:00 | 00:00:00 | 00:00:00 | |
| EA3IBE | 2026-08-30 12:05:39 | 41.34798 | 2.65745 | 264° | 16km/h | 21785m | 4.6m/s | 0°C | 0% | 0hPa | 0V | 00:00:00 | 00:00:00 | 00:00:00 | |
| EA3GEO | 2026-08-30 12:05:37 | 41.34798 | 2.65750 | 263° | 13km/h | 21781m | 3.9m/s | 0°C | 0% | 0hPa | 0V | 00:00:00 | 00:00:00 | 00:00:00 | |
| EA3GEO | 2026-08-30 12:05:31 | 41.34797 | 2.65768 | 280° | 9km/h | 21749m | 5.8m/s | 0°C | 0% | 0hPa | 0V | 00:00:00 | 00:00:00 | 00:00:00 | |
| EA3GEO | 2026-08-30 12:05:21 | 41.34799 | 2.65772 | 285° | 9km/h | 21698m | 3.6m/s | 0°C | 0% | 0hPa | 0V | 00:00:00 | 00:00:00 | 00:00:00 | |
| EA3GEO | 2026-08-30 12:05:15 | 41.34804 | 2.65767 | 141° | 7km/h | 21668m | 4.4m/s | 0°C | 0% | 0hPa | 0V | 00:00:00 | 00:00:00 | 00:00:00 | |
| EA3GEO | 2026-08-30 12:05:10 | 41.34799 | 2.65757 | 9° | 5km/h | 21642m | 4.5m/s | 0°C | 0% | 0hPa | 0V | 00:00:00 | 00:00:00 | 00:00:00 | |
| EA3GEO | 2026-08-30 12:04:53 | 41.34776 | 2.65696 | 68° | 15km/h | 21558m | 4.3m/s | 0°C | 0% | 0hPa | 0V | 00:00:00 | 00:00:00 | 00:00:00 | |
| EA3GEO | 2026-08-30 12:04:48 | 41.34769 | 2.65684 | 58° | 15km/h | 21531m | 4.4m/s | 0°C | 0% | 0hPa | 0V | 00:00:00 | 00:00:00 | 00:00:00 | |
| EA3GEO | 2026-08-30 12:04:42 | 41.34752 | 2.65662 | 77° | 16km/h | 21502m | 3.9m/s | 0°C | 0% | 0hPa | 0V | 00:00:00 | 00:00:00 | 00:00:00 | |
| EA3GEO | 2026-08-30 12:04:37 | 41.34743 | 2.65647 | 37° | 20km/h | 21476m | 5.4m/s | 0°C | 0% | 0hPa | 0V | 00:00:00 | 00:00:00 | 00:00:00 | |
| EA3IBE | 2026-08-30 12:04:34 | 41.34728 | 2.65634 | 23° | 22km/h | 21462m | 5.3m/s | 0°C | 0% | 0hPa | 0V | 00:00:00 | 00:00:00 | 00:00:00 | |
| EA3GEO | 2026-08-30 12:04:32 | 41.34720 | 2.65629 | 46° | 15km/h | 21452m | 6.6m/s | 0°C | 0% | 0hPa | 0V | 00:00:00 | 00:00:00 | 00:00:00 | |
| EA3IBE | 2026-08-30 12:04:26 | 41.34698 | 2.65610 | 17° | 29km/h | 21420m | 5.5m/s | 0°C | 0% | 0hPa | 0V | 00:00:00 | 00:00:00 | 00:00:00 | |
| EA3GEO | 2026-08-30 12:04:19 | 41.34668 | 2.65599 | 34° | 18km/h | 21385m | 5.2m/s | 0°C | 0% | 0hPa | 0V | 00:00:00 | 00:00:00 | 00:00:00 | |
| EA3GEO | 2026-08-30 12:04:08 | 41.34623 | 2.65593 | 32° | 13km/h | 21327m | 4.3m/s | 0°C | 0% | 0hPa | 0V | 00:00:00 | 00:00:00 | 00:00:00 | |
| EA3GEO | 2026-08-30 12:04:01 | 41.34591 | 2.65590 | 357° | 11km/h | 21291m | 4.5m/s | 0°C | 0% | 0hPa | 0V | 00:00:00 | 00:00:00 | 00:00:00 | |
| EA3GEO | 2026-08-30 12:03:50 | 41.34555 | 2.65604 | 5° | 9km/h | 21233m | 5.9m/s | 0°C | 0% | 0hPa | 0V | 00:00:00 | 00:00:00 | 00:00:00 | |
| EA3GEO | 2026-08-30 12:03:44 | 41.34549 | 2.65617 | 282° | 13km/h | 21200m | 5.2m/s | 0°C | 0% | 0hPa | 0V | 00:00:00 | 00:00:00 | 00:00:00 | |
| EA3GEO | 2026-08-30 12:03:39 | 41.34538 | 2.65625 | 316° | 16km/h | 21174m | 5.2m/s | 0°C | 0% | 0hPa | 0V | 00:00:00 | 00:00:00 | 00:00:00 | |
| EA3GEO | 2026-08-30 12:03:12 | 41.34436 | 2.65742 | 315° | 31km/h | 21031m | 5.8m/s | 0°C | 0% | 0hPa | 0V | 00:00:00 | 00:00:00 | 00:00:00 | |
| EA3GEO | 2026-08-30 12:03:06 | 41.34409 | 2.65770 | 320° | 15km/h | 20999m | 4.4m/s | 0°C | 0% | 0hPa | 0V | 00:00:00 | 00:00:00 | 00:00:00 | |
| EA3GEO | 2026-08-30 12:02:57 | 41.34370 | 2.65807 | 321° | 15km/h | 20949m | 6.1m/s | 0°C | 0% | 0hPa | 0V | 00:00:00 | 00:00:00 | 00:00:00 | |
| EA3GEO | 2026-08-30 12:02:43 | 41.34333 | 2.65848 | 320° | 18km/h | 20878m | 4.2m/s | 0°C | 0% | 0hPa | 0V | 00:00:00 | 00:00:00 | 00:00:00 | |
| EA3GEO | 2026-08-30 12:02:30 | 41.34306 | 2.65910 | 293° | 22km/h | 20810m | 4.6m/s | 0°C | 0% | 0hPa | 0V | 00:00:00 | 00:00:00 | 00:00:00 | |
| EA3GEO | 2026-08-30 12:02:25 | 41.34294 | 2.65932 | 297° | 16km/h | 20786m | 5.2m/s | 0°C | 0% | 0hPa | 0V | 00:00:00 | 00:00:00 | 00:00:00 | |
| EA3IBE | 2026-08-30 12:02:22 | 41.34290 | 2.65944 | 303° | 7km/h | 20769m | 5.0m/s | 0°C | 0% | 0hPa | 0V | 00:00:00 | 00:00:00 | 00:00:00 | |
| EA3GEO | 2026-08-30 12:02:19 | 41.34288 | 2.65953 | 271° | 13km/h | 20754m | 4.3m/s | 0°C | 0% | 0hPa | 0V | 00:00:00 | 00:00:00 | 00:00:00 | |
| EA3GEO | 2026-08-30 12:02:14 | 41.34287 | 2.65977 | 277° | 24km/h | 20729m | 4.3m/s | 0°C | 0% | 0hPa | 0V | 00:00:00 | 00:00:00 | 00:00:00 | |
| EA3GEO | 2026-08-30 12:02:07 | 41.34281 | 2.66009 | 248° | 13km/h | 20694m | 5.9m/s | 0°C | 0% | 0hPa | 0V | 00:00:00 | 00:00:00 | 00:00:00 | |
| EA3GEO | 2026-08-30 12:02:01 | 41.34285 | 2.66032 | 295° | 9km/h | 20663m | 5.6m/s | 0°C | 0% | 0hPa | 0V | 00:00:00 | 00:00:00 | 00:00:00 | |
| EA3GEO | 2026-08-30 12:01:55 | 41.34286 | 2.66041 | 322° | 2km/h | 20633m | 4.6m/s | 0°C | 0% | 0hPa | 0V | 00:00:00 | 00:00:00 | 00:00:00 | |
| EA3GEO | 2026-08-30 12:01:37 | 41.34284 | 2.66058 | 126° | 9km/h | 20543m | 5.4m/s | 0°C | 0% | 0hPa | 0V | 00:00:00 | 00:00:00 | 00:00:00 | |
| EA3IBE | 2026-08-30 12:01:12 | 41.34258 | 2.65984 | 38° | 20km/h | 20416m | 3.7m/s | 0°C | 0% | 0hPa | 0V | 00:00:00 | 00:00:00 | 00:00:00 | |
| EA3GEO | 2026-08-30 12:01:11 | 41.34255 | 2.65980 | 31° | 18km/h | 20411m | 5.3m/s | 0°C | 0% | 0hPa | 0V | 00:00:00 | 00:00:00 | 00:00:00 | |
| EA3GEO | 2026-08-30 12:01:04 | 41.34240 | 2.65963 | 35° | 9km/h | 20376m | 3.5m/s | 0°C | 0% | 0hPa | 0V | 00:00:00 | 00:00:00 | 00:00:00 | |
| EA3GEO | 2026-08-30 12:00:58 | 41.34213 | 2.65961 | 329° | 7km/h | 20346m | 4.8m/s | 0°C | 0% | 0hPa | 0V | 00:00:00 | 00:00:00 | 00:00:00 | |
| EA3GEO | 2026-08-30 12:00:51 | 41.34196 | 2.65951 | 15° | 22km/h | 20312m | 4.4m/s | 0°C | 0% | 0hPa | 0V | 00:00:00 | 00:00:00 | 00:00:00 | |
| EA3IBE | 2026-08-30 12:00:49 | 41.34187 | 2.65950 | 355° | 15km/h | 20302m | 5.8m/s | 0°C | 0% | 0hPa | 0V | 00:00:00 | 00:00:00 | 00:00:00 | |
| EA3GEO | 2026-08-30 12:00:43 | 41.34172 | 2.65954 | 6° | 9km/h | 20272m | 4.8m/s | 0°C | 0% | 0hPa | 0V | 00:00:00 | 00:00:00 | 00:00:00 | |
| EA3GEO | 2026-08-30 12:00:36 | 41.34138 | 2.65963 | 335° | 26km/h | 20236m | 4.4m/s | 0°C | 0% | 0hPa | 0V | 00:00:00 | 00:00:00 | 00:00:00 | |
| EA3GEO | 2026-08-30 12:00:30 | 41.34119 | 2.65976 | 355° | 16km/h | 20207m | 4.0m/s | 0°C | 0% | 0hPa | 0V | 00:00:00 | 00:00:00 | 00:00:00 | |
| EA3GEO | 2026-08-30 12:00:24 | 41.34082 | 2.66008 | 316° | 27km/h | 20177m | 6.2m/s | 0°C | 0% | 0hPa | 0V | 00:00:00 | 00:00:00 | 00:00:00 | |
| EA3IBE | 2026-08-30 12:00:18 | 41.34060 | 2.66034 | 318° | 24km/h | 20146m | 5.5m/s | 0°C | 0% | 0hPa | 0V | 00:00:00 | 00:00:00 | 00:00:00 | |
| EA3IBE | 2026-08-30 11:59:59 | 41.33988 | 2.66103 | 303° | 13km/h | 20047m | 4.7m/s | 0°C | 0% | 0hPa | 0V | 00:00:00 | 00:00:00 | 00:00:00 | |
| EA3GEO | 2026-08-30 11:59:37 | 41.33961 | 2.66150 | 208° | 5km/h | 19935m | 5.5m/s | 0°C | 0% | 0hPa | 0V | 00:00:00 | 00:00:00 | 00:00:00 | |
| EA3IBE | 2026-08-30 11:59:32 | 41.33962 | 2.66159 | 15° | 11km/h | 19910m | 3.8m/s | 0°C | 0% | 0hPa | 0V | 00:00:00 | 00:00:00 | 00:00:00 | |
| EA3IBE | 2026-08-30 11:59:26 | 41.33963 | 2.66151 | 152° | 7km/h | 19880m | 4.8m/s | 0°C | 0% | 0hPa | 0V | 00:00:00 | 00:00:00 | 00:00:00 | |
| EA3IBE | 2026-08-30 11:59:17 | 41.33964 | 2.66136 | 113° | 5km/h | 19829m | 4.6m/s | 0°C | 0% | 0hPa | 0V | 00:00:00 | 00:00:00 | 00:00:00 | |
| EA3GEO | 2026-08-30 11:58:35 | 41.33909 | 2.66078 | 18° | 15km/h | 19616m | 4.1m/s | 0°C | 0% | 0hPa | 0V | 00:00:00 | 00:00:00 | 00:00:00 | |
| EA3GEO | 2026-08-30 11:58:27 | 41.33886 | 2.66062 | 59° | 9km/h | 19575m | 4.6m/s | 0°C | 0% | 0hPa | 0V | 00:00:00 | 00:00:00 | 00:00:00 | |
| EA3GEO | 2026-08-30 11:58:12 | 41.33861 | 2.66038 | 339° | 7km/h | 19499m | 3.5m/s | 0°C | 0% | 0hPa | 0V | 00:00:00 | 00:00:00 | 00:00:00 | |
| EA3IBE | 2026-08-30 11:58:10 | 41.33857 | 2.66036 | 39° | 11km/h | 19489m | 4.8m/s | 0°C | 0% | 0hPa | 0V | 00:00:00 | 00:00:00 | 00:00:00 | |
| EA3GEO | 2026-08-30 11:58:04 | 41.33830 | 2.66027 | 13° | 15km/h | 19458m | 4.2m/s | 0°C | 0% | 0hPa | 0V | 00:00:00 | 00:00:00 | 00:00:00 | |
| EA3IBE | 2026-08-30 11:57:52 | 41.33794 | 2.66015 | 22° | 15km/h | 19397m | 4.5m/s | 0°C | 0% | 0hPa | 0V | 00:00:00 | 00:00:00 | 00:00:00 | |
| EA3IBE | 2026-08-30 11:57:46 | 41.33774 | 2.66001 | 34° | 20km/h | 19366m | 4.6m/s | 0°C | 0% | 0hPa | 0V | 00:00:00 | 00:00:00 | 00:00:00 | |
| EA3GEO | 2026-08-30 11:57:26 | 41.33703 | 2.65960 | 19° | 13km/h | 19268m | 4.2m/s | 0°C | 0% | 0hPa | 0V | 00:00:00 | 00:00:00 | 00:00:00 | |
| EA3GEO | 2026-08-30 11:57:21 | 41.33689 | 2.65947 | 34° | 15km/h | 19242m | 5.8m/s | 0°C | 0% | 0hPa | 0V | 00:00:00 | 00:00:00 | 00:00:00 | |
| EA3GEO | 2026-08-30 11:57:16 | 41.33676 | 2.65939 | 7° | 9km/h | 19218m | 4.6m/s | 0°C | 0% | 0hPa | 0V | 00:00:00 | 00:00:00 | 00:00:00 | |
| EA3IBE | 2026-08-30 11:57:14 | 41.33670 | 2.65935 | 38° | 15km/h | 19208m | 3.9m/s | 0°C | 0% | 0hPa | 0V | 00:00:00 | 00:00:00 | 00:00:00 | |
| EA3GEO | 2026-08-30 11:57:10 | 41.33656 | 2.65927 | 34° | 11km/h | 19188m | 5.8m/s | 0°C | 0% | 0hPa | 0V | 00:00:00 | 00:00:00 | 00:00:00 | |
| EA3IBE | 2026-08-30 11:57:07 | 41.33651 | 2.65923 | 3° | 9km/h | 19173m | 4.9m/s | 0°C | 0% | 0hPa | 0V | 00:00:00 | 00:00:00 | 00:00:00 | |
| EA3IBE | 2026-08-30 11:57:01 | 41.33636 | 2.65918 | 34° | 7km/h | 19143m | 5.0m/s | 0°C | 0% | 0hPa | 0V | 00:00:00 | 00:00:00 | 00:00:00 | |
| EA3GEO | 2026-08-30 11:56:56 | 41.33632 | 2.65904 | 38° | 9km/h | 19118m | 4.2m/s | 0°C | 0% | 0hPa | 0V | 00:00:00 | 00:00:00 | 00:00:00 | |
| EA3IBE | 2026-08-30 11:56:54 | 41.33627 | 2.65898 | 52° | 15km/h | 19108m | 4.4m/s | 0°C | 0% | 0hPa | 0V | 00:00:00 | 00:00:00 | 00:00:00 | |
| EA3GEO | 2026-08-30 11:56:50 | 41.33621 | 2.65887 | 72° | 11km/h | 19087m | 5.9m/s | 0°C | 0% | 0hPa | 0V | 00:00:00 | 00:00:00 | 00:00:00 | |
| EA3GEO | 2026-08-30 11:56:45 | 41.33611 | 2.65870 | 59° | 15km/h | 19063m | 6.2m/s | 0°C | 0% | 0hPa | 0V | 00:00:00 | 00:00:00 | 00:00:00 | |
| EA3IBE | 2026-08-30 11:56:35 | 41.33588 | 2.65821 | 56° | 16km/h | 19014m | 5.5m/s | 0°C | 0% | 0hPa | 0V | 00:00:00 | 00:00:00 | 00:00:00 | |
| EA3IBE | 2026-08-30 11:56:29 | 41.33580 | 2.65788 | 39° | 20km/h | 18978m | 4.0m/s | 0°C | 0% | 0hPa | 0V | 00:00:00 | 00:00:00 | 00:00:00 | |
| EA3IBE | 2026-08-30 11:56:01 | 41.33531 | 2.65700 | 92° | 5km/h | 18843m | 5.3m/s | 0°C | 0% | 0hPa | 0V | 00:00:00 | 00:00:00 | 00:00:00 | |
| EA3IBE | 2026-08-30 11:55:52 | 41.33524 | 2.65679 | 78° | 4km/h | 18799m | 5.8m/s | 0°C | 0% | 0hPa | 0V | 00:00:00 | 00:00:00 | 00:00:00 | |
| EA3GEO | 2026-08-30 11:55:51 | 41.33524 | 2.65677 | 0° | 0km/h | 18793m | 4.7m/s | 0°C | 0% | 0hPa | 0V | 00:00:00 | 00:00:00 | 00:00:00 | |
| EA3IBE | 2026-08-30 11:55:39 | 41.33501 | 2.65659 | 85° | 7km/h | 18733m | 5.3m/s | 0°C | 0% | 0hPa | 0V | 00:00:00 | 00:00:00 | 00:00:00 | |
| EA3IBE | 2026-08-30 11:55:28 | 41.33466 | 2.65657 | 5° | 9km/h | 18682m | 5.4m/s | 0°C | 0% | 0hPa | 0V | 00:00:00 | 00:00:00 | 00:00:00 | |
| EA3GEO | 2026-08-30 11:55:15 | 41.33432 | 2.65657 | 323° | 5km/h | 18619m | 4.5m/s | 0°C | 0% | 0hPa | 0V | 00:00:00 | 00:00:00 | 00:00:00 | |
| EA3IBE | 2026-08-30 11:54:56 | 41.33388 | 2.65635 | 109° | 13km/h | 18525m | 4.7m/s | 0°C | 0% | 0hPa | 0V | 00:00:00 | 00:00:00 | 00:00:00 | |
| EA3GEO | 2026-08-30 11:54:49 | 41.33376 | 2.65610 | 26° | 18km/h | 18492m | 5.0m/s | 0°C | 0% | 0hPa | 0V | 00:00:00 | 00:00:00 | 00:00:00 | |
| EA3GEO | 2026-08-30 11:54:44 | 41.33367 | 2.65591 | 94° | 13km/h | 18467m | 5.3m/s | 0°C | 0% | 0hPa | 0V | 00:00:00 | 00:00:00 | 00:00:00 | |
| EA3GEO | 2026-08-30 11:54:37 | 41.33359 | 2.65571 | 89° | 9km/h | 18434m | 4.1m/s | 0°C | 0% | 0hPa | 0V | 00:00:00 | 00:00:00 | 00:00:00 | |
| EA3GEO | 2026-08-30 11:54:30 | 41.33353 | 2.65535 | 39° | 7km/h | 18400m | 4.1m/s | 0°C | 0% | 0hPa | 0V | 00:00:00 | 00:00:00 | 00:00:00 | |
| EA3GEO | 2026-08-30 11:54:25 | 41.33347 | 2.65518 | 93° | 13km/h | 18377m | 5.8m/s | 0°C | 0% | 0hPa | 0V | 00:00:00 | 00:00:00 | 00:00:00 | |
| EA3GEO | 2026-08-30 11:54:17 | 41.33342 | 2.65493 | 60° | 11km/h | 18337m | 5.0m/s | 0°C | 0% | 0hPa | 0V | 00:00:00 | 00:00:00 | 00:00:00 | |
| EA3GEO | 2026-08-30 11:53:11 | 41.33416 | 2.64976 | 86° | 31km/h | 18021m | 5.3m/s | 0°C | 0% | 0hPa | 0V | 00:00:00 | 00:00:00 | 00:00:00 | |
| EA3GEO | 2026-08-30 11:53:04 | 41.33409 | 2.64890 | 91° | 37km/h | 17988m | 5.1m/s | 0°C | 0% | 0hPa | 0V | 00:00:00 | 00:00:00 | 00:00:00 | |
| EA3GEO | 2026-08-30 11:52:51 | 41.33397 | 2.64757 | 83° | 35km/h | 17928m | 5.8m/s | 0°C | 0% | 0hPa | 0V | 00:00:00 | 00:00:00 | 00:00:00 | |
| EA3GEO | 2026-08-30 11:52:43 | 41.33382 | 2.64675 | 80° | 29km/h | 17888m | 4.3m/s | 0°C | 0% | 0hPa | 0V | 00:00:00 | 00:00:00 | 00:00:00 | |
| EA3GEO | 2026-08-30 11:52:37 | 41.33369 | 2.64617 | 66° | 22km/h | 17861m | 5.4m/s | 0°C | 0% | 0hPa | 0V | 00:00:00 | 00:00:00 | 00:00:00 | |
| EA3GEO | 2026-08-30 11:52:32 | 41.33358 | 2.64569 | 65° | 38km/h | 17839m | 3.4m/s | 0°C | 0% | 0hPa | 0V | 00:00:00 | 00:00:00 | 00:00:00 | |
| EA3GEO | 2026-08-30 11:52:25 | 41.33345 | 2.64494 | 72° | 27km/h | 17808m | 4.5m/s | 0°C | 0% | 0hPa | 0V | 00:00:00 | 00:00:00 | 00:00:00 | |
| EA3GEO | 2026-08-30 11:52:19 | 41.33325 | 2.64438 | 74° | 33km/h | 17779m | 5.5m/s | 0°C | 0% | 0hPa | 0V | 00:00:00 | 00:00:00 | 00:00:00 | |
| EA3GEO | 2026-08-30 11:52:05 | 41.33280 | 2.64295 | 66° | 37km/h | 17713m | 4.8m/s | 0°C | 0% | 0hPa | 0V | 00:00:00 | 00:00:00 | 00:00:00 | |
| EA3GEO | 2026-08-30 11:51:57 | 41.33245 | 2.64217 | 58° | 27km/h | 17673m | 5.6m/s | 0°C | 0% | 0hPa | 0V | 00:00:00 | 00:00:00 | 00:00:00 | |
| EA3GEO | 2026-08-30 11:51:51 | 41.33222 | 2.64166 | 64° | 38km/h | 17645m | 5.6m/s | 0°C | 0% | 0hPa | 0V | 00:00:00 | 00:00:00 | 00:00:00 | |
| EA3GEO | 2026-08-30 11:51:46 | 41.33200 | 2.64121 | 62° | 22km/h | 17623m | 5.4m/s | 0°C | 0% | 0hPa | 0V | 00:00:00 | 00:00:00 | 00:00:00 | |
| EA3GEO | 2026-08-30 11:51:40 | 41.33177 | 2.64082 | 56° | 27km/h | 17593m | 5.8m/s | 0°C | 0% | 0hPa | 0V | 00:00:00 | 00:00:00 | 00:00:00 | |
| EA3GEO | 2026-08-30 11:51:36 | 41.33158 | 2.64046 | 50° | 22km/h | 17568m | 6.2m/s | 0°C | 0% | 0hPa | 0V | 00:00:00 | 00:00:00 | 00:00:00 | |
| EA3GEO | 2026-08-30 11:51:29 | 41.33134 | 2.64014 | 39° | 27km/h | 17538m | 4.1m/s | 0°C | 0% | 0hPa | 0V | 00:00:00 | 00:00:00 | 00:00:00 | |
| EA3GEO | 2026-08-30 11:51:23 | 41.33110 | 2.63977 | 66° | 20km/h | 17509m | 5.9m/s | 0°C | 0% | 0hPa | 0V | 00:00:00 | 00:00:00 | 00:00:00 | |
| EA3GEO | 2026-08-30 11:51:05 | 41.33021 | 2.63856 | 37° | 37km/h | 17421m | 3.6m/s | 0°C | 0% | 0hPa | 0V | 00:00:00 | 00:00:00 | 00:00:00 | |
| EA3GEO | 2026-08-30 11:50:50 | 41.32946 | 2.63726 | 76° | 31km/h | 17346m | 4.8m/s | 0°C | 0% | 0hPa | 0V | 00:00:00 | 00:00:00 | 00:00:00 | |
| EA3GEO | 2026-08-30 11:50:11 | 41.32695 | 2.63393 | 32° | 40km/h | 17123m | 4.2m/s | 0°C | 0% | 0hPa | 0V | 00:00:00 | 00:00:00 | 00:00:00 | |
| EA3GEO | 2026-08-30 11:50:05 | 41.32638 | 2.63345 | 45° | 40km/h | 17086m | 5.0m/s | 0°C | 0% | 0hPa | 0V | 00:00:00 | 00:00:00 | 00:00:00 | |
| EA3GEO | 2026-08-30 11:49:58 | 41.32588 | 2.63302 | 37° | 37km/h | 17047m | 5.1m/s | 0°C | 0% | 0hPa | 0V | 00:00:00 | 00:00:00 | 00:00:00 | |
| EA3GEO | 2026-08-30 11:49:51 | 41.32549 | 2.63248 | 32° | 33km/h | 16999m | 6.2m/s | 0°C | 0% | 0hPa | 0V | 00:00:00 | 00:00:00 | 00:00:00 | |
| EA3GEO | 2026-08-30 11:49:45 | 41.32513 | 2.63193 | 62° | 26km/h | 16965m | 5.4m/s | 0°C | 0% | 0hPa | 0V | 00:00:00 | 00:00:00 | 00:00:00 | |
| EA3GEO | 2026-08-30 11:49:40 | 41.32494 | 2.63159 | 39° | 37km/h | 16941m | 4.5m/s | 0°C | 0% | 0hPa | 0V | 00:00:00 | 00:00:00 | 00:00:00 | |
| EA3GEO | 2026-08-30 11:49:34 | 41.32467 | 2.63106 | 60° | 18km/h | 16906m | 6.3m/s | 0°C | 0% | 0hPa | 0V | 00:00:00 | 00:00:00 | 00:00:00 | |
| EA3GEO | 2026-08-30 11:49:28 | 41.32438 | 2.63060 | 45° | 37km/h | 16874m | 8.0m/s | 0°C | 0% | 0hPa | 0V | 00:00:00 | 00:00:00 | 00:00:00 | |
| EA3GEO | 2026-08-30 11:49:22 | 41.32417 | 2.63020 | 63° | 18km/h | 16840m | 8.1m/s | 0°C | 0% | 0hPa | 0V | 00:00:00 | 00:00:00 | 00:00:00 | |
| EA3GEO | 2026-08-30 11:49:16 | 41.32396 | 2.62969 | 37° | 33km/h | 16803m | 7.0m/s | 0°C | 0% | 0hPa | 0V | 00:00:00 | 00:00:00 | 00:00:00 | |
| EA3GEO | 2026-08-30 11:49:05 | 41.32356 | 2.62896 | 65° | 26km/h | 16738m | 7.8m/s | 0°C | 0% | 0hPa | 0V | 00:00:00 | 00:00:00 | 00:00:00 | |
| EA3GEO | 2026-08-30 11:48:59 | 41.32338 | 2.62867 | 42° | 26km/h | 16700m | 7.7m/s | 0°C | 0% | 0hPa | 0V | 00:00:00 | 00:00:00 | 00:00:00 | |
| EA3GEO | 2026-08-30 11:48:54 | 41.32334 | 2.62832 | 118° | 24km/h | 16673m | 5.0m/s | 0°C | 0% | 0hPa | 0V | 00:00:00 | 00:00:00 | 00:00:00 | |
| EA3GEO | 2026-08-30 11:48:48 | 41.32322 | 2.62775 | 101° | 18km/h | 16639m | 6.8m/s | 0°C | 0% | 0hPa | 0V | 00:00:00 | 00:00:00 | 00:00:00 | |
| EA3GEO | 2026-08-30 11:48:37 | 41.32330 | 2.62686 | 110° | 29km/h | 16577m | 5.3m/s | 0°C | 0% | 0hPa | 0V | 00:00:00 | 00:00:00 | 00:00:00 | |
| EA3GEO | 2026-08-30 11:48:32 | 41.32332 | 2.62635 | 91° | 35km/h | 16553m | 5.5m/s | 0°C | 0% | 0hPa | 0V | 00:00:00 | 00:00:00 | 00:00:00 | |
| EA3GEO | 2026-08-30 11:48:26 | 41.32331 | 2.62565 | 72° | 27km/h | 16524m | 5.5m/s | 0°C | 0% | 0hPa | 0V | 00:00:00 | 00:00:00 | 00:00:00 | |
| EA3GEO | 2026-08-30 11:48:21 | 41.32323 | 2.62509 | 94° | 47km/h | 16500m | 6.2m/s | 0°C | 0% | 0hPa | 0V | 00:00:00 | 00:00:00 | 00:00:00 | |
| EA3GEO | 2026-08-30 11:48:15 | 41.32321 | 2.62424 | 80° | 37km/h | 16472m | 3.9m/s | 0°C | 0% | 0hPa | 0V | 00:00:00 | 00:00:00 | 00:00:00 | |
| EA3GEO | 2026-08-30 11:48:09 | 41.32317 | 2.62349 | 98° | 46km/h | 16444m | 5.2m/s | 0°C | 0% | 0hPa | 0V | 00:00:00 | 00:00:00 | 00:00:00 | |
| EA3GEO | 2026-08-30 11:48:03 | 41.32310 | 2.62264 | 81° | 37km/h | 16415m | 5.3m/s | 0°C | 0% | 0hPa | 0V | 00:00:00 | 00:00:00 | 00:00:00 | |
| EA3GEO | 2026-08-30 11:47:57 | 41.32313 | 2.62182 | 92° | 46km/h | 16385m | 5.6m/s | 0°C | 0% | 0hPa | 0V | 00:00:00 | 00:00:00 | 00:00:00 | |
| EA3GEO | 2026-08-30 11:47:51 | 41.32307 | 2.62108 | 87° | 38km/h | 16357m | 4.2m/s | 0°C | 0% | 0hPa | 0V | 00:00:00 | 00:00:00 | 00:00:00 | |
| EA3GEO | 2026-08-30 11:47:46 | 41.32311 | 2.62045 | 99° | 40km/h | 16333m | 3.4m/s | 0°C | 0% | 0hPa | 0V | 00:00:00 | 00:00:00 | 00:00:00 | |
| EA3GEO | 2026-08-30 11:47:40 | 41.32322 | 2.61969 | 102° | 35km/h | 16304m | 5.2m/s | 0°C | 0% | 0hPa | 0V | 00:00:00 | 00:00:00 | 00:00:00 | |
| EA3GEO | 2026-08-30 11:47:34 | 41.32327 | 2.61893 | 99° | 46km/h | 16275m | 6.1m/s | 0°C | 0% | 0hPa | 0V | 00:00:00 | 00:00:00 | 00:00:00 | |
| EA3GEO | 2026-08-30 11:47:28 | 41.32338 | 2.61806 | 88° | 37km/h | 16249m | 5.3m/s | 0°C | 0% | 0hPa | 0V | 00:00:00 | 00:00:00 | 00:00:00 | |
| EA3GEO | 2026-08-30 11:47:23 | 41.32333 | 2.61740 | 98° | 47km/h | 16225m | 5.3m/s | 0°C | 0% | 0hPa | 0V | 00:00:00 | 00:00:00 | 00:00:00 | |
| EA3GEO | 2026-08-30 11:47:17 | 41.32349 | 2.61660 | 89° | 33km/h | 16199m | 5.8m/s | 0°C | 0% | 0hPa | 0V | 00:00:00 | 00:00:00 | 00:00:00 | |
| EA3GEO | 2026-08-30 11:47:11 | 41.32347 | 2.61583 | 103° | 47km/h | 16169m | 5.6m/s | 0°C | 0% | 0hPa | 0V | 00:00:00 | 00:00:00 | 00:00:00 | |
| EA3GEO | 2026-08-30 11:47:05 | 41.32348 | 2.61511 | 79° | 38km/h | 16143m | 3.5m/s | 0°C | 0% | 0hPa | 0V | 00:00:00 | 00:00:00 | 00:00:00 | |
| EA3GEO | 2026-08-30 11:47:00 | 41.32356 | 2.61443 | 102° | 47km/h | 16120m | 4.3m/s | 0°C | 0% | 0hPa | 0V | 00:00:00 | 00:00:00 | 00:00:00 | |
| EA3GEO | 2026-08-30 11:46:54 | 41.32357 | 2.61363 | 85° | 40km/h | 16091m | 4.2m/s | 0°C | 0% | 0hPa | 0V | 00:00:00 | 00:00:00 | 00:00:00 | |
| EA3GEO | 2026-08-30 11:46:49 | 41.32370 | 2.61293 | 105° | 49km/h | 16066m | 4.8m/s | 0°C | 0% | 0hPa | 0V | 00:00:00 | 00:00:00 | 00:00:00 | |
| EA3GEO | 2026-08-30 11:46:43 | 41.32384 | 2.61197 | 102° | 55km/h | 16038m | 3.9m/s | 0°C | 0% | 0hPa | 0V | 00:00:00 | 00:00:00 | 00:00:00 | |
| EA3GEO | 2026-08-30 11:46:37 | 41.32408 | 2.61093 | 106° | 57km/h | 16008m | 5.4m/s | 0°C | 0% | 0hPa | 0V | 00:00:00 | 00:00:00 | 00:00:00 | |
| EA3GEO | 2026-08-30 11:46:31 | 41.32430 | 2.60984 | 109° | 58km/h | 15979m | 3.9m/s | 0°C | 0% | 0hPa | 0V | 00:00:00 | 00:00:00 | 00:00:00 | |
| EA3GEO | 2026-08-30 11:46:25 | 41.32451 | 2.60869 | 98° | 53km/h | 15950m | 3.3m/s | 0°C | 0% | 0hPa | 0V | 00:00:00 | 00:00:00 | 00:00:00 | |
| EA3GEO | 2026-08-30 11:46:19 | 41.32471 | 2.60756 | 102° | 55km/h | 15924m | 5.1m/s | 0°C | 0% | 0hPa | 0V | 00:00:00 | 00:00:00 | 00:00:00 | |
| EA3GEO | 2026-08-30 11:46:14 | 41.32484 | 2.60661 | 102° | 64km/h | 15899m | 6.1m/s | 0°C | 0% | 0hPa | 0V | 00:00:00 | 00:00:00 | 00:00:00 | |
| EA3GEO | 2026-08-30 11:46:02 | 41.32505 | 2.60412 | 99° | 69km/h | 15840m | 5.6m/s | 0°C | 0% | 0hPa | 0V | 00:00:00 | 00:00:00 | 00:00:00 | |
| EA3GEO | 2026-08-30 11:45:56 | 41.32513 | 2.60290 | 97° | 57km/h | 15812m | 4.7m/s | 0°C | 0% | 0hPa | 0V | 00:00:00 | 00:00:00 | 00:00:00 | |
| EA3GEO | 2026-08-30 11:45:50 | 41.32521 | 2.60162 | 88° | 64km/h | 15783m | 4.5m/s | 0°C | 0% | 0hPa | 0V | 00:00:00 | 00:00:00 | 00:00:00 | |
| EA3GEO | 2026-08-30 11:45:44 | 41.32520 | 2.60040 | 89° | 68km/h | 15756m | 4.9m/s | 0°C | 0% | 0hPa | 0V | 00:00:00 | 00:00:00 | 00:00:00 | |
| EA3GEO | 2026-08-30 11:45:39 | 41.32522 | 2.59929 | 95° | 62km/h | 15731m | 3.9m/s | 0°C | 0% | 0hPa | 0V | 00:00:00 | 00:00:00 | 00:00:00 | |
| EA3GEO | 2026-08-30 11:45:33 | 41.32524 | 2.59810 | 91° | 62km/h | 15703m | 3.9m/s | 0°C | 0% | 0hPa | 0V | 00:00:00 | 00:00:00 | 00:00:00 | |
| EA3GEO | 2026-08-30 11:45:28 | 41.32524 | 2.59702 | 88° | 62km/h | 15678m | 6.3m/s | 0°C | 0% | 0hPa | 0V | 00:00:00 | 00:00:00 | 00:00:00 | |
| EA3GEO | 2026-08-30 11:45:23 | 41.32518 | 2.59603 | 82° | 60km/h | 15655m | 3.4m/s | 0°C | 0% | 0hPa | 0V | 00:00:00 | 00:00:00 | 00:00:00 | |
| EA3GEO | 2026-08-30 11:45:17 | 41.32508 | 2.59480 | 87° | 60km/h | 15626m | 5.3m/s | 0°C | 0% | 0hPa | 0V | 00:00:00 | 00:00:00 | 00:00:00 | |
| EA3GEO | 2026-08-30 11:45:12 | 41.32495 | 2.59379 | 80° | 62km/h | 15603m | 4.2m/s | 0°C | 0% | 0hPa | 0V | 00:00:00 | 00:00:00 | 00:00:00 | |
| EA3GEO | 2026-08-30 11:45:00 | 41.32457 | 2.59146 | 71° | 57km/h | 15548m | 3.3m/s | 0°C | 0% | 0hPa | 0V | 00:00:00 | 00:00:00 | 00:00:00 | |
| EA3GEO | 2026-08-30 11:44:54 | 41.32438 | 2.59018 | 83° | 68km/h | 15517m | 4.6m/s | 0°C | 0% | 0hPa | 0V | 00:00:00 | 00:00:00 | 00:00:00 | |
| EA3IBE | 2026-08-30 11:44:53 | 41.32436 | 2.58996 | 79° | 66km/h | 15512m | 5.3m/s | 0°C | 0% | 0hPa | 0V | 00:00:00 | 00:00:00 | 00:00:00 | |
| EA3GEO | 2026-08-30 11:44:49 | 41.32422 | 2.58918 | 75° | 60km/h | 15493m | 5.7m/s | 0°C | 0% | 0hPa | 0V | 00:00:00 | 00:00:00 | 00:00:00 | |
| EA3IBE | 2026-08-30 11:44:48 | 41.32418 | 2.58897 | 78° | 64km/h | 15488m | 3.4m/s | 0°C | 0% | 0hPa | 0V | 00:00:00 | 00:00:00 | 00:00:00 | |
| EA3GEO | 2026-08-30 11:44:43 | 41.32404 | 2.58785 | 79° | 68km/h | 15466m | 5.2m/s | 0°C | 0% | 0hPa | 0V | 00:00:00 | 00:00:00 | 00:00:00 | |
| EA3IBE | 2026-08-30 11:44:42 | 41.32401 | 2.58764 | 79° | 64km/h | 15461m | 4.9m/s | 0°C | 0% | 0hPa | 0V | 00:00:00 | 00:00:00 | 00:00:00 | |
| EA3GEO | 2026-08-30 11:44:38 | 41.32383 | 2.58680 | 77° | 64km/h | 15443m | 5.5m/s | 0°C | 0% | 0hPa | 0V | 00:00:00 | 00:00:00 | 00:00:00 | |
| EA3IBE | 2026-08-30 11:44:37 | 41.32379 | 2.58659 | 79° | 62km/h | 15438m | 3.9m/s | 0°C | 0% | 0hPa | 0V | 00:00:00 | 00:00:00 | 00:00:00 | |
| EA3IBE | 2026-08-30 11:44:30 | 41.32353 | 2.58516 | 81° | 69km/h | 15406m | 4.5m/s | 0°C | 0% | 0hPa | 0V | 00:00:00 | 00:00:00 | 00:00:00 | |
| EA3GEO | 2026-08-30 11:44:27 | 41.32348 | 2.58443 | 88° | 75km/h | 15392m | 4.1m/s | 0°C | 0% | 0hPa | 0V | 00:00:00 | 00:00:00 | 00:00:00 | |
| EA3IBE | 2026-08-30 11:44:24 | 41.32341 | 2.58369 | 83° | 69km/h | 15377m | 5.7m/s | 0°C | 0% | 0hPa | 0V | 00:00:00 | 00:00:00 | 00:00:00 | |
| EA3GEO | 2026-08-30 11:44:21 | 41.32329 | 2.58301 | 75° | 71km/h | 15362m | 4.0m/s | 0°C | 0% | 0hPa | 0V | 00:00:00 | 00:00:00 | 00:00:00 | |
| EA3IBE | 2026-08-30 11:44:19 | 41.32320 | 2.58255 | 80° | 73km/h | 15353m | 3.4m/s | 0°C | 0% | 0hPa | 0V | 00:00:00 | 00:00:00 | 00:00:00 | |
| EA3GEO | 2026-08-30 11:44:15 | 41.32309 | 2.58157 | 83° | 71km/h | 15335m | 3.3m/s | 0°C | 0% | 0hPa | 0V | 00:00:00 | 00:00:00 | 00:00:00 | |
| EA3GEO | 2026-08-30 11:44:09 | 41.32280 | 2.58020 | 72° | 73km/h | 15306m | 3.7m/s | 0°C | 0% | 0hPa | 0V | 00:00:00 | 00:00:00 | 00:00:00 | |
| EA3IBE | 2026-08-30 11:44:02 | 41.32251 | 2.57861 | 74° | 68km/h | 15275m | 5.8m/s | 0°C | 0% | 0hPa | 0V | 00:00:00 | 00:00:00 | 00:00:00 | |
| EA3IBE | 2026-08-30 11:43:57 | 41.32223 | 2.57754 | 73° | 66km/h | 15252m | 5.4m/s | 0°C | 0% | 0hPa | 0V | 00:00:00 | 00:00:00 | 00:00:00 | |
| EA3GEO | 2026-08-30 11:43:56 | 41.32218 | 2.57733 | 75° | 66km/h | 15248m | 3.7m/s | 0°C | 0% | 0hPa | 0V | 00:00:00 | 00:00:00 | 00:00:00 | |
| EA3IBE | 2026-08-30 11:43:50 | 41.32187 | 2.57608 | 74° | 64km/h | 15219m | 5.0m/s | 0°C | 0% | 0hPa | 0V | 00:00:00 | 00:00:00 | 00:00:00 | |
| EA3IBE | 2026-08-30 11:43:43 | 41.32159 | 2.57464 | 78° | 64km/h | 15185m | 5.0m/s | 0°C | 0% | 0hPa | 0V | 00:00:00 | 00:00:00 | 00:00:00 | |
| EA3IBE | 2026-08-30 11:43:38 | 41.32145 | 2.57361 | 81° | 66km/h | 15160m | 4.8m/s | 0°C | 0% | 0hPa | 0V | 00:00:00 | 00:00:00 | 00:00:00 | |
| EA3GEO | 2026-08-30 11:43:37 | 41.32142 | 2.57339 | 82° | 68km/h | 15156m | 4.5m/s | 0°C | 0% | 0hPa | 0V | 00:00:00 | 00:00:00 | 00:00:00 | |
| EA3IBE | 2026-08-30 11:43:31 | 41.32127 | 2.57204 | 83° | 66km/h | 15125m | 4.9m/s | 0°C | 0% | 0hPa | 0V | 00:00:00 | 00:00:00 | 00:00:00 | |
| EA3GEO | 2026-08-30 11:43:27 | 41.32117 | 2.57115 | 86° | 69km/h | 15105m | 4.0m/s | 0°C | 0% | 0hPa | 0V | 00:00:00 | 00:00:00 | 00:00:00 | |
| EA3IBE | 2026-08-30 11:43:24 | 41.32112 | 2.57044 | 89° | 73km/h | 15091m | 4.3m/s | 0°C | 0% | 0hPa | 0V | 00:00:00 | 00:00:00 | 00:00:00 | |
| EA3IBE | 2026-08-30 11:43:18 | 41.32096 | 2.56895 | 81° | 73km/h | 15061m | 4.2m/s | 0°C | 0% | 0hPa | 0V | 00:00:00 | 00:00:00 | 00:00:00 | |
| EA3GEO | 2026-08-30 11:43:16 | 41.32092 | 2.56847 | 90° | 71km/h | 15052m | 5.2m/s | 0°C | 0% | 0hPa | 0V | 00:00:00 | 00:00:00 | 00:00:00 | |
| EA3IBE | 2026-08-30 11:43:13 | 41.32088 | 2.56780 | 81° | 64km/h | 15038m | 4.0m/s | 0°C | 0% | 0hPa | 0V | 00:00:00 | 00:00:00 | 00:00:00 | |
| EA3GEO | 2026-08-30 11:43:09 | 41.32073 | 2.56696 | 75° | 64km/h | 15018m | 4.8m/s | 0°C | 0% | 0hPa | 0V | 00:00:00 | 00:00:00 | 00:00:00 | |
| EA3GEO | 2026-08-30 11:43:03 | 41.32053 | 2.56567 | 82° | 64km/h | 14988m | 4.2m/s | 0°C | 0% | 0hPa | 0V | 00:00:00 | 00:00:00 | 00:00:00 | |
| EA3IBE | 2026-08-30 11:42:57 | 41.32025 | 2.56449 | 74° | 57km/h | 14960m | 4.5m/s | 0°C | 0% | 0hPa | 0V | 00:00:00 | 00:00:00 | 00:00:00 | |
| EA3GEO | 2026-08-30 11:42:56 | 41.32021 | 2.56430 | 71° | 60km/h | 14955m | 5.2m/s | 0°C | 0% | 0hPa | 0V | 00:00:00 | 00:00:00 | 00:00:00 | |
| EA3GEO | 2026-08-30 11:42:50 | 41.31998 | 2.56315 | 80° | 46km/h | 14927m | 5.3m/s | 0°C | 0% | 0hPa | 0V | 00:00:00 | 00:00:00 | 00:00:00 | |
| EA3IBE | 2026-08-30 11:42:47 | 41.31989 | 2.56264 | 74° | 58km/h | 14914m | 6.7m/s | 0°C | 0% | 0hPa | 0V | 00:00:00 | 00:00:00 | 00:00:00 | |
| EA3GEO | 2026-08-30 11:42:43 | 41.31977 | 2.56185 | 89° | 60km/h | 14893m | 4.3m/s | 0°C | 0% | 0hPa | 0V | 00:00:00 | 00:00:00 | 00:00:00 | |
| EA3IBE | 2026-08-30 11:42:42 | 41.31976 | 2.56165 | 88° | 60km/h | 14890m | 3.2m/s | 0°C | 0% | 0hPa | 0V | 00:00:00 | 00:00:00 | 00:00:00 | |
| EA3IBE | 2026-08-30 11:42:36 | 41.31958 | 2.56060 | 85° | 55km/h | 14860m | 4.8m/s | 0°C | 0% | 0hPa | 0V | 00:00:00 | 00:00:00 | 00:00:00 | |
| EA3IBE | 2026-08-30 11:42:30 | 41.31949 | 2.55940 | 91° | 58km/h | 14825m | 4.6m/s | 0°C | 0% | 0hPa | 0V | 00:00:00 | 00:00:00 | 00:00:00 | |
| EA3IBE | 2026-08-30 11:42:23 | 41.31950 | 2.55812 | 91° | 62km/h | 14792m | 4.4m/s | 0°C | 0% | 0hPa | 0V | 00:00:00 | 00:00:00 | 00:00:00 | |
| EA3GEO | 2026-08-30 11:42:18 | 41.31953 | 2.55709 | 96° | 53km/h | 14768m | 5.9m/s | 0°C | 0% | 0hPa | 0V | 00:00:00 | 00:00:00 | 00:00:00 | |
| EA3IBE | 2026-08-30 11:42:16 | 41.31957 | 2.55674 | 100° | 55km/h | 14759m | 4.5m/s | 0°C | 0% | 0hPa | 0V | 00:00:00 | 00:00:00 | 00:00:00 | |
| EA3GEO | 2026-08-30 11:42:12 | 41.31964 | 2.55590 | 100° | 68km/h | 14739m | 5.6m/s | 0°C | 0% | 0hPa | 0V | 00:00:00 | 00:00:00 | 00:00:00 | |
| EA3IBE | 2026-08-30 11:42:11 | 41.31966 | 2.55568 | 99° | 64km/h | 14734m | 4.1m/s | 0°C | 0% | 0hPa | 0V | 00:00:00 | 00:00:00 | 00:00:00 | |
| EA3GEO | 2026-08-30 11:42:07 | 41.31973 | 2.55482 | 97° | 60km/h | 14716m | 4.2m/s | 0°C | 0% | 0hPa | 0V | 00:00:00 | 00:00:00 | 00:00:00 | |
| EA3IBE | 2026-08-30 11:42:05 | 41.31977 | 2.55420 | 95° | 66km/h | 14702m | 5.8m/s | 0°C | 0% | 0hPa | 0V | 00:00:00 | 00:00:00 | 00:00:00 | |
| EA3GEO | 2026-08-30 11:42:01 | 41.31982 | 2.55347 | 95° | 78km/h | 14690m | 4.6m/s | 0°C | 0% | 0hPa | 0V | 00:00:00 | 00:00:00 | 00:00:00 | |
| EA3IBE | 2026-08-30 11:41:59 | 41.31988 | 2.55294 | 102° | 78km/h | 14681m | 3.5m/s | 0°C | 0% | 0hPa | 0V | 00:00:00 | 00:00:00 | 00:00:00 | |
| EA3GEO | 2026-08-30 11:41:56 | 41.31997 | 2.55220 | 94° | 68km/h | 14668m | 4.8m/s | 0°C | 0% | 0hPa | 0V | 00:00:00 | 00:00:00 | 00:00:00 | |
| EA3IBE | 2026-08-30 11:41:54 | 41.31999 | 2.55151 | 93° | 78km/h | 14655m | 4.9m/s | 0°C | 0% | 0hPa | 0V | 00:00:00 | 00:00:00 | 00:00:00 | |
| EA3GEO | 2026-08-30 11:41:51 | 41.32001 | 2.55095 | 95° | 80km/h | 14647m | 6.3m/s | 0°C | 0% | 0hPa | 0V | 00:00:00 | 00:00:00 | 00:00:00 | |
| EA3IBE | 2026-08-30 11:41:48 | 41.32008 | 2.55015 | 94° | 75km/h | 14634m | 5.9m/s | 0°C | 0% | 0hPa | 0V | 00:00:00 | 00:00:00 | 00:00:00 | |
| EA3GEO | 2026-08-30 11:41:45 | 41.32008 | 2.54936 | 92° | 77km/h | 14619m | 5.5m/s | 0°C | 0% | 0hPa | 0V | 00:00:00 | 00:00:00 | 00:00:00 | |
| EA3IBE | 2026-08-30 11:41:42 | 41.32011 | 2.54858 | 92° | 75km/h | 14604m | 4.5m/s | 0°C | 0% | 0hPa | 0V | 00:00:00 | 00:00:00 | 00:00:00 | |
| EA3IBE | 2026-08-30 11:41:37 | 41.32017 | 2.54732 | 98° | 80km/h | 14581m | 2.6m/s | 0°C | 0% | 0hPa | 0V | 00:00:00 | 00:00:00 | 00:00:00 | |
| EA3GEO | 2026-08-30 11:41:32 | 41.32020 | 2.54602 | 92° | 80km/h | 14558m | 5.4m/s | 0°C | 0% | 0hPa | 0V | 00:00:00 | 00:00:00 | 00:00:00 | |
| EA3IBE | 2026-08-30 11:41:30 | 41.32019 | 2.54551 | 87° | 77km/h | 14548m | 6.6m/s | 0°C | 0% | 0hPa | 0V | 00:00:00 | 00:00:00 | 00:00:00 | |
| EA3GEO | 2026-08-30 11:41:26 | 41.32010 | 2.54449 | 82° | 75km/h | 14526m | 7.8m/s | 0°C | 0% | 0hPa | 0V | 00:00:00 | 00:00:00 | 00:00:00 | |
| EA3IBE | 2026-08-30 11:41:22 | 41.32006 | 2.54349 | 90° | 78km/h | 14506m | 5.8m/s | 0°C | 0% | 0hPa | 0V | 00:00:00 | 00:00:00 | 00:00:00 | |
| EA3GEO | 2026-08-30 11:41:21 | 41.32004 | 2.54322 | 86° | 82km/h | 14501m | 4.0m/s | 0°C | 0% | 0hPa | 0V | 00:00:00 | 00:00:00 | 00:00:00 | |
| EA3IBE | 2026-08-30 11:41:17 | 41.31995 | 2.54213 | 80° | 78km/h | 14482m | 5.0m/s | 0°C | 0% | 0hPa | 0V | 00:00:00 | 00:00:00 | 00:00:00 | |
| EA3GEO | 2026-08-30 11:41:15 | 41.31990 | 2.54162 | 88° | 75km/h | 14471m | 4.7m/s | 0°C | 0% | 0hPa | 0V | 00:00:00 | 00:00:00 | 00:00:00 | |
| EA3IBE | 2026-08-30 11:41:11 | 41.31986 | 2.54066 | 91° | 69km/h | 14454m | 4.2m/s | 0°C | 0% | 0hPa | 0V | 00:00:00 | 00:00:00 | 00:00:00 | |
| EA3GEO | 2026-08-30 11:41:02 | 41.31978 | 2.53837 | 86° | 64km/h | 14410m | 3.3m/s | 0°C | 0% | 0hPa | 0V | 00:00:00 | 00:00:00 | 00:00:00 | |
| EA3GEO | 2026-08-30 11:40:55 | 41.31972 | 2.53683 | 92° | 73km/h | 14362m | 6.2m/s | 0°C | 0% | 0hPa | 0V | 00:00:00 | 00:00:00 | 00:00:00 | |
| EA3IBE | 2026-08-30 11:40:47 | 41.31975 | 2.53500 | 95° | 68km/h | 14313m | 3.5m/s | 0°C | 0% | 0hPa | 0V | 00:00:00 | 00:00:00 | 00:00:00 | |
| EA3IBE | 2026-08-30 11:40:42 | 41.31975 | 2.53385 | 94° | 71km/h | 14283m | 5.8m/s | 0°C | 0% | 0hPa | 0V | 00:00:00 | 00:00:00 | 00:00:00 | |
| EA3IBE | 2026-08-30 11:40:36 | 41.31991 | 2.53254 | 96° | 71km/h | 14249m | 4.1m/s | 0°C | 0% | 0hPa | 0V | 00:00:00 | 00:00:00 | 00:00:00 | |
| EA3IBE | 2026-08-30 11:40:31 | 41.31999 | 2.53116 | 103° | 84km/h | 14211m | 6.3m/s | 0°C | 0% | 0hPa | 0V | 00:00:00 | 00:00:00 | 00:00:00 | |
| EA3GEO | 2026-08-30 11:40:30 | 41.32005 | 2.53090 | 112° | 78km/h | 14204m | 5.8m/s | 0°C | 0% | 0hPa | 0V | 00:00:00 | 00:00:00 | 00:00:00 | |
| EA3IBE | 2026-08-30 11:40:25 | 41.32035 | 2.52968 | 100° | 84km/h | 14177m | 3.2m/s | 0°C | 0% | 0hPa | 0V | 00:00:00 | 00:00:00 | 00:00:00 | |
| EA3GEO | 2026-08-30 11:40:24 | 41.32039 | 2.52939 | 102° | 89km/h | 14170m | 9.4m/s | 0°C | 0% | 0hPa | 0V | 00:00:00 | 00:00:00 | 00:00:00 | |
| EA3IBE | 2026-08-30 11:40:19 | 41.32073 | 2.52789 | 111° | 93km/h | 14141m | 6.0m/s | 0°C | 0% | 0hPa | 0V | 00:00:00 | 00:00:00 | 00:00:00 | |
| EA3GEO | 2026-08-30 11:40:12 | 41.32117 | 2.52599 | 109° | 89km/h | 14100m | 6.8m/s | 0°C | 0% | 0hPa | 0V | 00:00:00 | 00:00:00 | 00:00:00 | |
| EA3IBE | 2026-08-30 11:40:11 | 41.32123 | 2.52572 | 105° | 82km/h | 14094m | 5.0m/s | 0°C | 0% | 0hPa | 0V | 00:00:00 | 00:00:00 | 00:00:00 | |
| EA3GEO | 2026-08-30 11:40:07 | 41.32148 | 2.52468 | 112° | 82km/h | 14070m | 3.6m/s | 0°C | 0% | 0hPa | 0V | 00:00:00 | 00:00:00 | 00:00:00 | |
| EA3GEO | 2026-08-30 11:40:02 | 41.32188 | 2.52331 | 109° | 93km/h | 14041m | 9.2m/s | 0°C | 0% | 0hPa | 0V | 00:00:00 | 00:00:00 | 00:00:00 | |
| EA3IBE | 2026-08-30 11:40:00 | 41.32200 | 2.52273 | 110° | 84km/h | 14026m | 4.8m/s | 0°C | 0% | 0hPa | 0V | 00:00:00 | 00:00:00 | 00:00:00 | |
| EA3GEO | 2026-08-30 11:39:56 | 41.32227 | 2.52166 | 106° | 80km/h | 14001m | 3.4m/s | 0°C | 0% | 0hPa | 0V | 00:00:00 | 00:00:00 | 00:00:00 | |
| EA3GEO | 2026-08-30 11:39:50 | 41.32260 | 2.52008 | 111° | 82km/h | 13968m | 3.7m/s | 0°C | 0% | 0hPa | 0V | 00:00:00 | 00:00:00 | 00:00:00 | |
| EA3GEO | 2026-08-30 11:39:44 | 41.32299 | 2.51839 | 103° | 77km/h | 13936m | 5.7m/s | 0°C | 0% | 0hPa | 0V | 00:00:00 | 00:00:00 | 00:00:00 | |
| EA3IBE | 2026-08-30 11:39:41 | 41.32314 | 2.51766 | 110° | 84km/h | 13920m | 6.8m/s | 0°C | 0% | 0hPa | 0V | 00:00:00 | 00:00:00 | 00:00:00 | |
| EA3GEO | 2026-08-30 11:39:39 | 41.32328 | 2.51712 | 109° | 86km/h | 13904m | 4.6m/s | 0°C | 0% | 0hPa | 0V | 00:00:00 | 00:00:00 | 00:00:00 | |
| EA3IBE | 2026-08-30 11:39:35 | 41.32347 | 2.51600 | 96° | 80km/h | 13878m | 7.6m/s | 0°C | 0% | 0hPa | 0V | 00:00:00 | 00:00:00 | 00:00:00 | |
| EA3GEO | 2026-08-30 11:39:28 | 41.32390 | 2.51422 | 104° | 86km/h | 13835m | 6.2m/s | 0°C | 0% | 0hPa | 0V | 00:00:00 | 00:00:00 | 00:00:00 | |
| EA3IBE | 2026-08-30 11:39:27 | 41.32395 | 2.51395 | 109° | 86km/h | 13829m | 6.7m/s | 0°C | 0% | 0hPa | 0V | 00:00:00 | 00:00:00 | 00:00:00 | |
| EA3IBE | 2026-08-30 11:39:20 | 41.32432 | 2.51217 | 114° | 86km/h | 13794m | 5.3m/s | 0°C | 0% | 0hPa | 0V | 00:00:00 | 00:00:00 | 00:00:00 | |
| EA3GEO | 2026-08-30 11:39:19 | 41.32440 | 2.51190 | 112° | 84km/h | 13788m | 8.7m/s | 0°C | 0% | 0hPa | 0V | 00:00:00 | 00:00:00 | 00:00:00 | |
| EA3GEO | 2026-08-30 11:39:14 | 41.32470 | 2.51057 | 106° | 78km/h | 13758m | 5.2m/s | 0°C | 0% | 0hPa | 0V | 00:00:00 | 00:00:00 | 00:00:00 | |
| EA3IBE | 2026-08-30 11:39:07 | 41.32523 | 2.50875 | 118° | 84km/h | 13706m | 9.9m/s | 0°C | 0% | 0hPa | 0V | 00:00:00 | 00:00:00 | 00:00:00 | |
| EA3GEO | 2026-08-30 11:39:06 | 41.32531 | 2.50851 | 114° | 75km/h | 13698m | 4.2m/s | 0°C | 0% | 0hPa | 0V | 00:00:00 | 00:00:00 | 00:00:00 | |
| EA3GEO | 2026-08-30 11:39:00 | 41.32575 | 2.50715 | 112° | 78km/h | 13663m | 6.6m/s | 0°C | 0% | 0hPa | 0V | 00:00:00 | 00:00:00 | 00:00:00 | |
| EA3GEO | 2026-08-30 11:38:55 | 41.32615 | 2.50593 | 112° | 77km/h | 13636m | 5.8m/s | 0°C | 0% | 0hPa | 0V | 00:00:00 | 00:00:00 | 00:00:00 | |
| EA3IBE | 2026-08-30 11:38:53 | 41.32630 | 2.50549 | 116° | 71km/h | 13626m | 7.2m/s | 0°C | 0% | 0hPa | 0V | 00:00:00 | 00:00:00 | 00:00:00 | |
| EA3GEO | 2026-08-30 11:38:49 | 41.32663 | 2.50452 | 109° | 77km/h | 13601m | 5.0m/s | 0°C | 0% | 0hPa | 0V | 00:00:00 | 00:00:00 | 00:00:00 | |
| EA3IBE | 2026-08-30 11:38:47 | 41.32675 | 2.50406 | 116° | 69km/h | 13589m | 3.3m/s | 0°C | 0% | 0hPa | 0V | 00:00:00 | 00:00:00 | 00:00:00 | |
| EA3GEO | 2026-08-30 11:38:43 | 41.32709 | 2.50315 | 115° | 80km/h | 13564m | 4.6m/s | 0°C | 0% | 0hPa | 0V | 00:00:00 | 00:00:00 | 00:00:00 | |
| EA3GEO | 2026-08-30 11:38:37 | 41.32751 | 2.50173 | 118° | 71km/h | 13531m | 6.0m/s | 0°C | 0% | 0hPa | 0V | 00:00:00 | 00:00:00 | 00:00:00 | |
| EA3IBE | 2026-08-30 11:38:35 | 41.32769 | 2.50129 | 120° | 77km/h | 13519m | 6.2m/s | 0°C | 0% | 0hPa | 0V | 00:00:00 | 00:00:00 | 00:00:00 | |
| EA3GEO | 2026-08-30 11:38:32 | 41.32796 | 2.50060 | 119° | 73km/h | 13502m | 3.7m/s | 0°C | 0% | 0hPa | 0V | 00:00:00 | 00:00:00 | 00:00:00 | |
| EA3IBE | 2026-08-30 11:38:27 | 41.32835 | 2.49942 | 115° | 78km/h | 13467m | 4.0m/s | 0°C | 0% | 0hPa | 0V | 00:00:00 | 00:00:00 | 00:00:00 | |
| EA3IBE | 2026-08-30 11:38:21 | 41.32883 | 2.49806 | 122° | 71km/h | 13427m | 3.2m/s | 0°C | 0% | 0hPa | 0V | 00:00:00 | 00:00:00 | 00:00:00 | |
| EA3GEO | 2026-08-30 11:38:14 | 41.32947 | 2.49641 | 121° | 80km/h | 13389m | 8.1m/s | 0°C | 0% | 0hPa | 0V | 00:00:00 | 00:00:00 | 00:00:00 | |
| EA3IBE | 2026-08-30 11:38:12 | 41.32969 | 2.49595 | 119° | 84km/h | 13378m | 5.1m/s | 0°C | 0% | 0hPa | 0V | 00:00:00 | 00:00:00 | 00:00:00 | |
| EA3GEO | 2026-08-30 11:38:08 | 41.33003 | 2.49499 | 115° | 77km/h | 13354m | 6.3m/s | 0°C | 0% | 0hPa | 0V | 00:00:00 | 00:00:00 | 00:00:00 | |
| EA3GEO | 2026-08-30 11:38:02 | 41.33060 | 2.49365 | 123° | 75km/h | 13316m | 4.2m/s | 0°C | 0% | 0hPa | 0V | 00:00:00 | 00:00:00 | 00:00:00 | |
| EA3IBE | 2026-08-30 11:38:00 | 41.33077 | 2.49322 | 119° | 69km/h | 13307m | 3.2m/s | 0°C | 0% | 0hPa | 0V | 00:00:00 | 00:00:00 | 00:00:00 | |
| EA3GEO | 2026-08-30 11:37:57 | 41.33106 | 2.49256 | 123° | 82km/h | 13290m | 10.0m/s | 0°C | 0% | 0hPa | 0V | 00:00:00 | 00:00:00 | 00:00:00 | |
| EA3GEO | 2026-08-30 11:37:51 | 41.33157 | 2.49114 | 119° | 68km/h | 13253m | 2.9m/s | 0°C | 0% | 0hPa | 0V | 00:00:00 | 00:00:00 | 00:00:00 | |
| EA3IBE | 2026-08-30 11:37:49 | 41.33174 | 2.49072 | 120° | 77km/h | 13241m | 6.7m/s | 0°C | 0% | 0hPa | 0V | 00:00:00 | 00:00:00 | 00:00:00 | |
| EA3GEO | 2026-08-30 11:37:46 | 41.33203 | 2.49000 | 118° | 84km/h | 13224m | 8.1m/s | 0°C | 0% | 0hPa | 0V | 00:00:00 | 00:00:00 | 00:00:00 | |
| EA3IBE | 2026-08-30 11:37:41 | 41.33248 | 2.48879 | 119° | 75km/h | 13196m | 6.9m/s | 0°C | 0% | 0hPa | 0V | 00:00:00 | 00:00:00 | 00:00:00 | |
| EA3GEO | 2026-08-30 11:37:40 | 41.33257 | 2.48856 | 115° | 77km/h | 13191m | 3.2m/s | 0°C | 0% | 0hPa | 0V | 00:00:00 | 00:00:00 | 00:00:00 | |
| EA3GEO | 2026-08-30 11:37:33 | 41.33319 | 2.48698 | 117° | 80km/h | 13148m | 4.4m/s | 0°C | 0% | 0hPa | 0V | 00:00:00 | 00:00:00 | 00:00:00 | |
| EA3GEO | 2026-08-30 11:37:18 | 41.33470 | 2.48364 | 121° | 78km/h | 13064m | 5.1m/s | 0°C | 0% | 0hPa | 0V | 00:00:00 | 00:00:00 | 00:00:00 | |
| EA3GEO | 2026-08-30 11:37:11 | 41.33542 | 2.48204 | 119° | 82km/h | 13019m | 4.1m/s | 0°C | 0% | 0hPa | 0V | 00:00:00 | 00:00:00 | 00:00:00 | |
| EA3GEO | 2026-08-30 11:37:02 | 41.33641 | 2.47999 | 121° | 77km/h | 12968m | 3.3m/s | 0°C | 0% | 0hPa | 0V | 00:00:00 | 00:00:00 | 00:00:00 | |
| EA3GEO | 2026-08-30 11:36:57 | 41.33698 | 2.47880 | 123° | 84km/h | 12936m | 4.6m/s | 0°C | 0% | 0hPa | 0V | 00:00:00 | 00:00:00 | 00:00:00 | |
| EA3GEO | 2026-08-30 11:36:52 | 41.33755 | 2.47767 | 127° | 80km/h | 12906m | 2.3m/s | 0°C | 0% | 0hPa | 0V | 00:00:00 | 00:00:00 | 00:00:00 | |
| EA3GEO | 2026-08-30 11:36:43 | 41.33862 | 2.47571 | 125° | 82km/h | 12848m | 4.3m/s | 0°C | 0% | 0hPa | 0V | 00:00:00 | 00:00:00 | 00:00:00 | |
| EA3GEO | 2026-08-30 11:36:34 | 41.33969 | 2.47364 | 134° | 89km/h | 12798m | 4.9m/s | 0°C | 0% | 0hPa | 0V | 00:00:00 | 00:00:00 | 00:00:00 | |
| EA3GEO | 2026-08-30 11:36:25 | 41.34085 | 2.47142 | 131° | 95km/h | 12747m | 7.2m/s | 0°C | 0% | 0hPa | 0V | 00:00:00 | 00:00:00 | 00:00:00 | |
| EA3GEO | 2026-08-30 11:36:16 | 41.34206 | 2.46916 | 129° | 89km/h | 12697m | 3.6m/s | 0°C | 0% | 0hPa | 0V | 00:00:00 | 00:00:00 | 00:00:00 | |
| EA3GEO | 2026-08-30 11:35:51 | 41.34559 | 2.46285 | 130° | 97km/h | 12553m | 6.5m/s | 0°C | 0% | 0hPa | 0V | 00:00:00 | 00:00:00 | 00:00:00 | |
| EA3GEO | 2026-08-30 11:35:44 | 41.34661 | 2.46089 | 129° | 97km/h | 12513m | 2.5m/s | 0°C | 0% | 0hPa | 0V | 00:00:00 | 00:00:00 | 00:00:00 | |
| EA3GEO | 2026-08-30 11:35:39 | 41.34733 | 2.45957 | 126° | 91km/h | 12482m | 1.7m/s | 0°C | 0% | 0hPa | 0V | 00:00:00 | 00:00:00 | 00:00:00 | |
| EA3IBE | 2026-08-30 11:35:37 | 41.34760 | 2.45905 | 128° | 100km/h | 12469m | 4.0m/s | 0°C | 0% | 0hPa | 0V | 00:00:00 | 00:00:00 | 00:00:00 | |
| EA3GEO | 2026-08-30 11:35:35 | 41.34804 | 2.45825 | 127° | 91km/h | 12456m | 3.1m/s | 0°C | 0% | 0hPa | 0V | 00:00:00 | 00:00:00 | 00:00:00 | |
| EA3GEO | 2026-08-30 11:35:29 | 41.34873 | 2.45695 | 129° | 102km/h | 12427m | 0.9m/s | 0°C | 0% | 0hPa | 0V | 00:00:00 | 00:00:00 | 00:00:00 | |
| EA3GEO | 2026-08-30 11:35:24 | 41.34946 | 2.45562 | 125° | 99km/h | 12396m | 3.4m/s | 0°C | 0% | 0hPa | 0V | 00:00:00 | 00:00:00 | 00:00:00 | |
| EA3GEO | 2026-08-30 11:35:10 | 41.35151 | 2.45192 | 127° | 102km/h | 12318m | 6.9m/s | 0°C | 0% | 0hPa | 0V | 00:00:00 | 00:00:00 | 00:00:00 | |
| EA3IBE | 2026-08-30 11:35:09 | 41.35166 | 2.45165 | 128° | 99km/h | 12313m | 2.7m/s | 0°C | 0% | 0hPa | 0V | 00:00:00 | 00:00:00 | 00:00:00 | |
| EA3GEO | 2026-08-30 11:35:05 | 41.35225 | 2.45066 | 131° | 97km/h | 12290m | 8.6m/s | 0°C | 0% | 0hPa | 0V | 00:00:00 | 00:00:00 | 00:00:00 | |
| EA3GEO | 2026-08-30 11:34:58 | 41.35328 | 2.44888 | 127° | 100km/h | 12248m | 2.0m/s | 0°C | 0% | 0hPa | 0V | 00:00:00 | 00:00:00 | 00:00:00 | |
| EA3GEO | 2026-08-30 11:34:53 | 41.35406 | 2.44754 | 131° | 108km/h | 12218m | 4.1m/s | 0°C | 0% | 0hPa | 0V | 00:00:00 | 00:00:00 | 00:00:00 | |
| EA3GEO | 2026-08-30 11:34:44 | 41.35543 | 2.44509 | 129° | 99km/h | 12166m | 8.9m/s | 0°C | 0% | 0hPa | 0V | 00:00:00 | 00:00:00 | 00:00:00 | |
| EA3GEO | 2026-08-30 11:34:38 | 41.35632 | 2.44350 | 129° | 99km/h | 12132m | 4.3m/s | 0°C | 0% | 0hPa | 0V | 00:00:00 | 00:00:00 | 00:00:00 | |
| EA3IBE | 2026-08-30 11:34:35 | 41.35680 | 2.44272 | 126° | 100km/h | 12115m | 3.8m/s | 0°C | 0% | 0hPa | 0V | 00:00:00 | 00:00:00 | 00:00:00 | |
| EA3GEO | 2026-08-30 11:34:33 | 41.35710 | 2.44216 | 125° | 108km/h | 12103m | 7.3m/s | 0°C | 0% | 0hPa | 0V | 00:00:00 | 00:00:00 | 00:00:00 | |
| EA3GEO | 2026-08-30 11:34:28 | 41.35789 | 2.44092 | 132° | 93km/h | 12072m | 4.8m/s | 0°C | 0% | 0hPa | 0V | 00:00:00 | 00:00:00 | 00:00:00 | |
| EA3IBE | 2026-08-30 11:34:23 | 41.35863 | 2.43962 | 130° | 100km/h | 12039m | 4.8m/s | 0°C | 0% | 0hPa | 0V | 00:00:00 | 00:00:00 | 00:00:00 | |
| EA3GEO | 2026-08-30 11:34:22 | 41.35879 | 2.43936 | 129° | 97km/h | 12034m | 2.5m/s | 0°C | 0% | 0hPa | 0V | 00:00:00 | 00:00:00 | 00:00:00 | |
| EA3GEO | 2026-08-30 11:34:16 | 41.35971 | 2.43790 | 128° | 97km/h | 12003m | 8.9m/s | 0°C | 0% | 0hPa | 0V | 00:00:00 | 00:00:00 | 00:00:00 | |
| EA3IBE | 2026-08-30 11:34:07 | 41.36111 | 2.43544 | 128° | 97km/h | 11949m | 4.9m/s | 0°C | 0% | 0hPa | 0V | 00:00:00 | 00:00:00 | 00:00:00 | |
| EA3GEO | 2026-08-30 11:34:03 | 41.36165 | 2.43442 | 125° | 86km/h | 11923m | 10.4m/s | 0°C | 0% | 0hPa | 0V | 00:00:00 | 00:00:00 | 00:00:00 | |
| EA3IBE | 2026-08-30 11:34:01 | 41.36193 | 2.43392 | 129° | 95km/h | 11909m | 3.0m/s | 0°C | 0% | 0hPa | 0V | 00:00:00 | 00:00:00 | 00:00:00 | |
| EA3GEO | 2026-08-30 11:33:50 | 41.36351 | 2.43119 | 128° | 91km/h | 11855m | 8.2m/s | 0°C | 0% | 0hPa | 0V | 00:00:00 | 00:00:00 | 00:00:00 | |
| EA3IBE | 2026-08-30 11:33:49 | 41.36365 | 2.43094 | 130° | 97km/h | 11848m | 7.5m/s | 0°C | 0% | 0hPa | 0V | 00:00:00 | 00:00:00 | 00:00:00 | |
| EA3IBE | 2026-08-30 11:33:43 | 41.36453 | 2.42947 | 129° | 97km/h | 11813m | 3.6m/s | 0°C | 0% | 0hPa | 0V | 00:00:00 | 00:00:00 | 00:00:00 | |
| EA3GEO | 2026-08-30 11:33:39 | 41.36511 | 2.42845 | 131° | 97km/h | 11789m | 3.0m/s | 0°C | 0% | 0hPa | 0V | 00:00:00 | 00:00:00 | 00:00:00 | |
| EA3IBE | 2026-08-30 11:33:36 | 41.36556 | 2.42773 | 130° | 95km/h | 11776m | 3.5m/s | 0°C | 0% | 0hPa | 0V | 00:00:00 | 00:00:00 | 00:00:00 | |
| EA3IBE | 2026-08-30 11:33:28 | 41.36672 | 2.42583 | 129° | 93km/h | 11727m | 4.6m/s | 0°C | 0% | 0hPa | 0V | 00:00:00 | 00:00:00 | 00:00:00 | |
| EA3GEO | 2026-08-30 11:33:25 | 41.36717 | 2.42511 | 131° | 93km/h | 11713m | 3.5m/s | 0°C | 0% | 0hPa | 0V | 00:00:00 | 00:00:00 | 00:00:00 | |
| EA3IBE | 2026-08-30 11:33:23 | 41.36747 | 2.42462 | 130° | 91km/h | 11702m | 7.2m/s | 0°C | 0% | 0hPa | 0V | 00:00:00 | 00:00:00 | 00:00:00 | |
| EA3GEO | 2026-08-30 11:33:18 | 41.36823 | 2.42343 | 133° | 99km/h | 11676m | 10.1m/s | 0°C | 0% | 0hPa | 0V | 00:00:00 | 00:00:00 | 00:00:00 | |
| EA3IBE | 2026-08-30 11:33:16 | 41.36855 | 2.42295 | 132° | 89km/h | 11663m | 2.8m/s | 0°C | 0% | 0hPa | 0V | 00:00:00 | 00:00:00 | 00:00:00 | |
| EA3GEO | 2026-08-30 11:33:12 | 41.36918 | 2.42203 | 135° | 93km/h | 11638m | 12.4m/s | 0°C | 0% | 0hPa | 0V | 00:00:00 | 00:00:00 | 00:00:00 | |
| EA3IBE | 2026-08-30 11:33:08 | 41.36979 | 2.42107 | 131° | 88km/h | 11610m | 3.5m/s | 0°C | 0% | 0hPa | 0V | 00:00:00 | 00:00:00 | 00:00:00 | |
| EA3GEO | 2026-08-30 11:33:05 | 41.37025 | 2.42036 | 135° | 99km/h | 11592m | 4.7m/s | 0°C | 0% | 0hPa | 0V | 00:00:00 | 00:00:00 | 00:00:00 | |
| EA3GEO | 2026-08-30 11:32:54 | 41.37203 | 2.41771 | 135° | 91km/h | 11534m | 7.1m/s | 0°C | 0% | 0hPa | 0V | 00:00:00 | 00:00:00 | 00:00:00 | |
| EA3IBE | 2026-08-30 11:32:52 | 41.37234 | 2.41724 | 131° | 91km/h | 11521m | 3.2m/s | 0°C | 0% | 0hPa | 0V | 00:00:00 | 00:00:00 | 00:00:00 | |
| EA3IBE | 2026-08-30 11:32:44 | 41.37356 | 2.41538 | 134° | 99km/h | 11472m | 9.6m/s | 0°C | 0% | 0hPa | 0V | 00:00:00 | 00:00:00 | 00:00:00 | |
| EA3GEO | 2026-08-30 11:32:39 | 41.37429 | 2.41416 | 132° | 91km/h | 11441m | 4.1m/s | 0°C | 0% | 0hPa | 0V | 00:00:00 | 00:00:00 | 00:00:00 | |
| EA3IBE | 2026-08-30 11:32:38 | 41.37445 | 2.41393 | 131° | 93km/h | 11437m | 3.1m/s | 0°C | 0% | 0hPa | 0V | 00:00:00 | 00:00:00 | 00:00:00 | |
| EA3IBE | 2026-08-30 11:32:32 | 41.37536 | 2.41253 | 133° | 99km/h | 11401m | 9.8m/s | 0°C | 0% | 0hPa | 0V | 00:00:00 | 00:00:00 | 00:00:00 | |
| EA3IBE | 2026-08-30 11:32:27 | 41.37610 | 2.41140 | 138° | 84km/h | 11372m | 3.6m/s | 0°C | 0% | 0hPa | 0V | 00:00:00 | 00:00:00 | 00:00:00 | |
| EA3GEO | 2026-08-30 11:32:26 | 41.37625 | 2.41120 | 137° | 86km/h | 11368m | 4.1m/s | 0°C | 0% | 0hPa | 0V | 00:00:00 | 00:00:00 | 00:00:00 | |
| EA3GEO | 2026-08-30 11:32:18 | 41.37736 | 2.40936 | 135° | 77km/h | 11325m | 5.7m/s | 0°C | 0% | 0hPa | 0V | 00:00:00 | 00:00:00 | 00:00:00 | |
| EA3IBE | 2026-08-30 11:32:13 | 41.37803 | 2.40828 | 127° | 89km/h | 11295m | 5.3m/s | 0°C | 0% | 0hPa | 0V | 00:00:00 | 00:00:00 | 00:00:00 | |
| EA3GEO | 2026-08-30 11:32:12 | 41.37816 | 2.40804 | 124° | 84km/h | 11289m | 8.1m/s | 0°C | 0% | 0hPa | 0V | 00:00:00 | 00:00:00 | 00:00:00 | |
| EA3IBE | 2026-08-30 11:32:08 | 41.37866 | 2.40718 | 131° | 78km/h | 11261m | 3.3m/s | 0°C | 0% | 0hPa | 0V | 00:00:00 | 00:00:00 | 00:00:00 | |
| EA3GEO | 2026-08-30 11:32:04 | 41.37912 | 2.40634 | 125° | 80km/h | 11244m | 8.1m/s | 0°C | 0% | 0hPa | 0V | 00:00:00 | 00:00:00 | 00:00:00 | |
| EA3IBE | 2026-08-30 11:32:02 | 41.37935 | 2.40590 | 127° | 75km/h | 11229m | 6.6m/s | 0°C | 0% | 0hPa | 0V | 00:00:00 | 00:00:00 | 00:00:00 | |
| EA3GEO | 2026-08-30 11:31:59 | 41.37970 | 2.40530 | 129° | 77km/h | 11215m | 3.1m/s | 0°C | 0% | 0hPa | 0V | 00:00:00 | 00:00:00 | 00:00:00 | |
| EA3IBE | 2026-08-30 11:31:57 | 41.37994 | 2.40486 | 125° | 86km/h | 11200m | 8.4m/s | 0°C | 0% | 0hPa | 0V | 00:00:00 | 00:00:00 | 00:00:00 | |
| EA3IBE | 2026-08-30 11:31:52 | 41.38052 | 2.40381 | 130° | 77km/h | 11171m | 5.8m/s | 0°C | 0% | 0hPa | 0V | 00:00:00 | 00:00:00 | 00:00:00 | |
| EA3GEO | 2026-08-30 11:31:50 | 41.38077 | 2.40336 | 128° | 89km/h | 11158m | 9.6m/s | 0°C | 0% | 0hPa | 0V | 00:00:00 | 00:00:00 | 00:00:00 | |
| EA3GEO | 2026-08-30 11:31:43 | 41.38160 | 2.40190 | 122° | 84km/h | 11114m | 4.4m/s | 0°C | 0% | 0hPa | 0V | 00:00:00 | 00:00:00 | 00:00:00 | |
| EA3IBE | 2026-08-30 11:31:40 | 41.38196 | 2.40126 | 133° | 78km/h | 11099m | 10.9m/s | 0°C | 0% | 0hPa | 0V | 00:00:00 | 00:00:00 | 00:00:00 | |
| EA3GEO | 2026-08-30 11:31:38 | 41.38223 | 2.40087 | 133° | 82km/h | 11080m | 6.9m/s | 0°C | 0% | 0hPa | 0V | 00:00:00 | 00:00:00 | 00:00:00 | |
| EA3IBE | 2026-08-30 11:31:35 | 41.38259 | 2.40022 | 123° | 73km/h | 11065m | 6.5m/s | 0°C | 0% | 0hPa | 0V | 00:00:00 | 00:00:00 | 00:00:00 | |
| EA3GEO | 2026-08-30 11:31:31 | 41.38299 | 2.39940 | 130° | 78km/h | 11039m | 5.1m/s | 0°C | 0% | 0hPa | 0V | 00:00:00 | 00:00:00 | 00:00:00 | |
| EA3IBE | 2026-08-30 11:31:29 | 41.38325 | 2.39894 | 126° | 88km/h | 11027m | 6.3m/s | 0°C | 0% | 0hPa | 0V | 00:00:00 | 00:00:00 | 00:00:00 | |
| EA3IBE | 2026-08-30 11:31:24 | 41.38372 | 2.39779 | 115° | 69km/h | 10997m | 4.4m/s | 0°C | 0% | 0hPa | 0V | 00:00:00 | 00:00:00 | 00:00:00 | |
| EA3IBE | 2026-08-30 11:31:17 | 41.38450 | 2.39631 | 123° | 78km/h | 10951m | 3.8m/s | 0°C | 0% | 0hPa | 0V | 00:00:00 | 00:00:00 | 00:00:00 | |
| EA3GEO | 2026-08-30 11:31:14 | 41.38480 | 2.39567 | 123° | 69km/h | 10932m | 9.9m/s | 0°C | 0% | 0hPa | 0V | 00:00:00 | 00:00:00 | 00:00:00 | |
| EA3IBE | 2026-08-30 11:31:10 | 41.38518 | 2.39480 | 117° | 78km/h | 10910m | 8.2m/s | 0°C | 0% | 0hPa | 0V | 00:00:00 | 00:00:00 | 00:00:00 | |
| EA3GEO | 2026-08-30 11:31:05 | 41.38578 | 2.39369 | 122° | 78km/h | 10880m | 7.5m/s | 0°C | 0% | 0hPa | 0V | 00:00:00 | 00:00:00 | 00:00:00 | |
| EA3IBE | 2026-08-30 11:30:59 | 41.38634 | 2.39235 | 128° | 84km/h | 10845m | 8.5m/s | 0°C | 0% | 0hPa | 0V | 00:00:00 | 00:00:00 | 00:00:00 | |
| EA3IBE | 2026-08-30 11:30:53 | 41.38688 | 2.39090 | 124° | 62km/h | 10802m | 8.0m/s | 0°C | 0% | 0hPa | 0V | 00:00:00 | 00:00:00 | 00:00:00 | |
| EA3GEO | 2026-08-30 11:30:50 | 41.38714 | 2.39042 | 127° | 68km/h | 10781m | 7.5m/s | 0°C | 0% | 0hPa | 0V | 00:00:00 | 00:00:00 | 00:00:00 | |
| EA3IBE | 2026-08-30 11:30:48 | 41.38736 | 2.38999 | 123° | 84km/h | 10766m | 7.5m/s | 0°C | 0% | 0hPa | 0V | 00:00:00 | 00:00:00 | 00:00:00 | |
| EA3GEO | 2026-08-30 11:30:44 | 41.38773 | 2.38902 | 114° | 75km/h | 10743m | 10.8m/s | 0°C | 0% | 0hPa | 0V | 00:00:00 | 00:00:00 | 00:00:00 | |
| EA3GEO | 2026-08-30 11:30:38 | 41.38821 | 2.38773 | 124° | 66km/h | 10701m | 5.4m/s | 0°C | 0% | 0hPa | 0V | 00:00:00 | 00:00:00 | 00:00:00 | |
| EA3GEO | 2026-08-30 11:30:32 | 41.38858 | 2.38645 | 114° | 73km/h | 10660m | 2.8m/s | 0°C | 0% | 0hPa | 0V | 00:00:00 | 00:00:00 | 00:00:00 | |
| EA3IBE | 2026-08-30 11:30:29 | 41.38877 | 2.38580 | 109° | 68km/h | 10640m | 2.6m/s | 0°C | 0% | 0hPa | 0V | 00:00:00 | 00:00:00 | 00:00:00 | |
| EA3GEO | 2026-08-30 11:30:26 | 41.38892 | 2.38515 | 109° | 68km/h | 10621m | 7.0m/s | 0°C | 0% | 0hPa | 0V | 00:00:00 | 00:00:00 | 00:00:00 | |
| EA3IBE | 2026-08-30 11:30:21 | 41.38920 | 2.38405 | 110° | 73km/h | 10591m | 3.0m/s | 0°C | 0% | 0hPa | 0V | 00:00:00 | 00:00:00 | 00:00:00 | |
| EA3GEO | 2026-08-30 11:30:16 | 41.38948 | 2.38298 | 109° | 69km/h | 10566m | 7.4m/s | 0°C | 0% | 0hPa | 0V | 00:00:00 | 00:00:00 | 00:00:00 | |
| EA3IBE | 2026-08-30 11:30:11 | 41.38976 | 2.38190 | 108° | 77km/h | 10534m | 5.9m/s | 0°C | 0% | 0hPa | 0V | 00:00:00 | 00:00:00 | 00:00:00 | |
| EA3GEO | 2026-08-30 11:30:07 | 41.38995 | 2.38104 | 112° | 62km/h | 10511m | 5.4m/s | 0°C | 0% | 0hPa | 0V | 00:00:00 | 00:00:00 | 00:00:00 | |
| EA3IBE | 2026-08-30 11:30:06 | 41.39001 | 2.38084 | 110° | 64km/h | 10507m | 2.6m/s | 0°C | 0% | 0hPa | 0V | 00:00:00 | 00:00:00 | 00:00:00 | |
| EA3IBE | 2026-08-30 11:30:00 | 41.39033 | 2.37954 | 109° | 73km/h | 10470m | 5.1m/s | 0°C | 0% | 0hPa | 0V | 00:00:00 | 00:00:00 | 00:00:00 | |
| EA3GEO | 2026-08-30 11:29:55 | 41.39063 | 2.37842 | 107° | 69km/h | 10438m | 6.3m/s | 0°C | 0% | 0hPa | 0V | 00:00:00 | 00:00:00 | 00:00:00 | |
| EA3GEO | 2026-08-30 11:29:48 | 41.39094 | 2.37694 | 112° | 69km/h | 10396m | 9.9m/s | 0°C | 0% | 0hPa | 0V | 00:00:00 | 00:00:00 | 00:00:00 | |
| EA3IBE | 2026-08-30 11:29:47 | 41.39100 | 2.37672 | 111° | 71km/h | 10388m | 5.1m/s | 0°C | 0% | 0hPa | 0V | 00:00:00 | 00:00:00 | 00:00:00 | |
| EA3IBE | 2026-08-30 11:29:42 | 41.39127 | 2.37570 | 108° | 60km/h | 10363m | 3.0m/s | 0°C | 0% | 0hPa | 0V | 00:00:00 | 00:00:00 | 00:00:00 | |
| EA3GEO | 2026-08-30 11:29:39 | 41.39140 | 2.37509 | 107° | 66km/h | 10342m | 8.8m/s | 0°C | 0% | 0hPa | 0V | 00:00:00 | 00:00:00 | 00:00:00 | |
| EA3IBE | 2026-08-30 11:29:36 | 41.39155 | 2.37441 | 110° | 75km/h | 10326m | 2.7m/s | 0°C | 0% | 0hPa | 0V | 00:00:00 | 00:00:00 | 00:00:00 | |
| EA3GEO | 2026-08-30 11:29:32 | 41.39178 | 2.37351 | 105° | 66km/h | 10297m | 3.9m/s | 0°C | 0% | 0hPa | 0V | 00:00:00 | 00:00:00 | 00:00:00 | |
| EA3IBE | 2026-08-30 11:29:29 | 41.39190 | 2.37287 | 104° | 68km/h | 10282m | 5.9m/s | 0°C | 0% | 0hPa | 0V | 00:00:00 | 00:00:00 | 00:00:00 | |
| EA3GEO | 2026-08-30 11:29:26 | 41.39206 | 2.37219 | 106° | 77km/h | 10267m | 8.5m/s | 0°C | 0% | 0hPa | 0V | 00:00:00 | 00:00:00 | 00:00:00 | |
| EA3IBE | 2026-08-30 11:29:24 | 41.39219 | 2.37170 | 109° | 77km/h | 10254m | 4.4m/s | 0°C | 0% | 0hPa | 0V | 00:00:00 | 00:00:00 | 00:00:00 | |
| EA3GEO | 2026-08-30 11:29:21 | 41.39235 | 2.37101 | 103° | 66km/h | 10233m | 8.4m/s | 0°C | 0% | 0hPa | 0V | 00:00:00 | 00:00:00 | 00:00:00 | |
| EA3GEO | 2026-08-30 11:29:13 | 41.39268 | 2.36921 | 112° | 75km/h | 10182m | 4.0m/s | 0°C | 0% | 0hPa | 0V | 00:00:00 | 00:00:00 | 00:00:00 | |
| EA3IBE | 2026-08-30 11:29:11 | 41.39280 | 2.36873 | 107° | 77km/h | 10173m | 4.4m/s | 0°C | 0% | 0hPa | 0V | 00:00:00 | 00:00:00 | 00:00:00 | |
| EA3GEO | 2026-08-30 11:29:08 | 41.39296 | 2.36803 | 107° | 71km/h | 10150m | 5.4m/s | 0°C | 0% | 0hPa | 0V | 00:00:00 | 00:00:00 | 00:00:00 | |
| EA3IBE | 2026-08-30 11:29:06 | 41.39306 | 2.36756 | 105° | 73km/h | 10143m | 3.2m/s | 0°C | 0% | 0hPa | 0V | 00:00:00 | 00:00:00 | 00:00:00 | |
| EA3GEO | 2026-08-30 11:29:02 | 41.39327 | 2.36663 | 107° | 78km/h | 10110m | 5.8m/s | 0°C | 0% | 0hPa | 0V | 00:00:00 | 00:00:00 | 00:00:00 | |
| EA3GEO | 2026-08-30 11:28:57 | 41.39358 | 2.36540 | 107° | 69km/h | 10078m | 7.8m/s | 0°C | 0% | 0hPa | 0V | 00:00:00 | 00:00:00 | 00:00:00 | |
| EA3GEO | 2026-08-30 11:28:50 | 41.39384 | 2.36369 | 104° | 77km/h | 10040m | 5.6m/s | 0°C | 0% | 0hPa | 0V | 00:00:00 | 00:00:00 | 00:00:00 | |
| EA3GEO | 2026-08-30 11:28:44 | 41.39406 | 2.36231 | 93° | 78km/h | 10007m | 5.9m/s | 0°C | 0% | 0hPa | 0V | 00:00:00 | 00:00:00 | 00:00:00 | |
| EA3GEO | 2026-08-30 11:28:38 | 41.39430 | 2.36076 | 105° | 77km/h | 9973m | 3.3m/s | 0°C | 0% | 0hPa | 0V | 00:00:00 | 00:00:00 | 00:00:00 | |
| EA3IBE | 2026-08-30 11:28:36 | 41.39440 | 2.36029 | 107° | 69km/h | 9965m | 5.0m/s | 0°C | 0% | 0hPa | 0V | 00:00:00 | 00:00:00 | 00:00:00 | |
| EA3GEO | 2026-08-30 11:28:32 | 41.39460 | 2.35943 | 101° | 71km/h | 9937m | 8.2m/s | 0°C | 0% | 0hPa | 0V | 00:00:00 | 00:00:00 | 00:00:00 | |
| EA3GEO | 2026-08-30 11:28:27 | 41.39480 | 2.35822 | 110° | 75km/h | 9907m | 5.4m/s | 0°C | 0% | 0hPa | 0V | 00:00:00 | 00:00:00 | 00:00:00 | |
| EA3IBE | 2026-08-30 11:28:23 | 41.39492 | 2.35730 | 100° | 71km/h | 9879m | 6.3m/s | 0°C | 0% | 0hPa | 0V | 00:00:00 | 00:00:00 | 00:00:00 | |
| EA3GEO | 2026-08-30 11:28:21 | 41.39501 | 2.35684 | 109° | 75km/h | 9868m | 5.2m/s | 0°C | 0% | 0hPa | 0V | 00:00:00 | 00:00:00 | 00:00:00 | |
| EA3GEO | 2026-08-30 11:28:15 | 41.39529 | 2.35543 | 104° | 75km/h | 9833m | 6.7m/s | 0°C | 0% | 0hPa | 0V | 00:00:00 | 00:00:00 | 00:00:00 | |
| EA3IBE | 2026-08-30 11:28:14 | 41.39533 | 2.35519 | 104° | 77km/h | 9825m | 7.1m/s | 0°C | 0% | 0hPa | 0V | 00:00:00 | 00:00:00 | 00:00:00 | |
| EA3IBE | 2026-08-30 11:28:09 | 41.39552 | 2.35402 | 113° | 71km/h | 9797m | 2.4m/s | 0°C | 0% | 0hPa | 0V | 00:00:00 | 00:00:00 | 00:00:00 | |
| EA3GEO | 2026-08-30 11:28:05 | 41.39575 | 2.35290 | 95° | 71km/h | 9765m | 6.1m/s | 0°C | 0% | 0hPa | 0V | 00:00:00 | 00:00:00 | 00:00:00 | |
| EA3GEO | 2026-08-30 11:27:58 | 41.39595 | 2.35146 | 107° | 75km/h | 9737m | 7.4m/s | 0°C | 0% | 0hPa | 0V | 00:00:00 | 00:00:00 | 00:00:00 | |
| EA3IBE | 2026-08-30 11:27:57 | 41.39600 | 2.35122 | 107° | 71km/h | 9729m | 9.2m/s | 0°C | 0% | 0hPa | 0V | 00:00:00 | 00:00:00 | 00:00:00 | |
| EA3GEO | 2026-08-30 11:27:53 | 41.39619 | 2.35030 | 108° | 73km/h | 9706m | 6.5m/s | 0°C | 0% | 0hPa | 0V | 00:00:00 | 00:00:00 | 00:00:00 | |
| EA3IBE | 2026-08-30 11:27:51 | 41.39626 | 2.34985 | 103° | 69km/h | 9692m | 5.6m/s | 0°C | 0% | 0hPa | 0V | 00:00:00 | 00:00:00 | 00:00:00 | |
| EA3IBE | 2026-08-30 11:27:46 | 41.39647 | 2.34867 | 108° | 78km/h | 9662m | 8.7m/s | 0°C | 0% | 0hPa | 0V | 00:00:00 | 00:00:00 | 00:00:00 | |
| EA3GEO | 2026-08-30 11:27:45 | 41.39653 | 2.34843 | 112° | 73km/h | 9654m | 8.6m/s | 0°C | 0% | 0hPa | 0V | 00:00:00 | 00:00:00 | 00:00:00 | |
| EA3IBE | 2026-08-30 11:27:40 | 41.39679 | 2.34719 | 100° | 77km/h | 9626m | 3.1m/s | 0°C | 0% | 0hPa | 0V | 00:00:00 | 00:00:00 | 00:00:00 | |
| EA3GEO | 2026-08-30 11:27:39 | 41.39681 | 2.34693 | 102° | 80km/h | 9623m | 4.8m/s | 0°C | 0% | 0hPa | 0V | 00:00:00 | 00:00:00 | 00:00:00 | |
| EA3IBE | 2026-08-30 11:27:34 | 41.39703 | 2.34569 | 108° | 73km/h | 9585m | 5.5m/s | 0°C | 0% | 0hPa | 0V | 00:00:00 | 00:00:00 | 00:00:00 | |
| EA3IBE | 2026-08-30 11:27:28 | 41.39731 | 2.34420 | 106° | 75km/h | 9548m | 7.4m/s | 0°C | 0% | 0hPa | 0V | 00:00:00 | 00:00:00 | 00:00:00 | |
| EA3IBE | 2026-08-30 11:27:23 | 41.39751 | 2.34293 | 100° | 84km/h | 9513m | 4.4m/s | 0°C | 0% | 0hPa | 0V | 00:00:00 | 00:00:00 | 00:00:00 | |
| EA3IBE | 2026-08-30 11:27:17 | 41.39778 | 2.34139 | 106° | 78km/h | 9479m | 7.9m/s | 0°C | 0% | 0hPa | 0V | 00:00:00 | 00:00:00 | 00:00:00 | |
| EA3IBE | 2026-08-30 11:27:12 | 41.39794 | 2.34022 | 105° | 84km/h | 9447m | 2.6m/s | 0°C | 0% | 0hPa | 0V | 00:00:00 | 00:00:00 | 00:00:00 | |
| EA3IBE | 2026-08-30 11:27:06 | 41.39827 | 2.33865 | 106° | 75km/h | 9411m | 6.5m/s | 0°C | 0% | 0hPa | 0V | 00:00:00 | 00:00:00 | 00:00:00 | |
| EA3GEO | 2026-08-30 11:27:04 | 41.39834 | 2.33814 | 100° | 77km/h | 9395m | 7.8m/s | 0°C | 0% | 0hPa | 0V | 00:00:00 | 00:00:00 | 00:00:00 | |
| EA3IBE | 2026-08-30 11:27:00 | 41.39845 | 2.33708 | 103° | 80km/h | 9374m | 3.7m/s | 0°C | 0% | 0hPa | 0V | 00:00:00 | 00:00:00 | 00:00:00 | |
| EA3IBE | 2026-08-30 11:26:55 | 41.39870 | 2.33583 | 99° | 84km/h | 9343m | 6.7m/s | 0°C | 0% | 0hPa | 0V | 00:00:00 | 00:00:00 | 00:00:00 | |
| EA3GEO | 2026-08-30 11:26:51 | 41.39878 | 2.33479 | 103° | 73km/h | 9320m | 7.3m/s | 0°C | 0% | 0hPa | 0V | 00:00:00 | 00:00:00 | 00:00:00 | |
| EA3IBE | 2026-08-30 11:26:50 | 41.39882 | 2.33456 | 107° | 68km/h | 9313m | 4.4m/s | 0°C | 0% | 0hPa | 0V | 00:00:00 | 00:00:00 | 00:00:00 | |
| EA3IBE | 2026-08-30 11:26:44 | 41.39914 | 2.33318 | 98° | 75km/h | 9283m | 5.1m/s | 0°C | 0% | 0hPa | 0V | 00:00:00 | 00:00:00 | 00:00:00 | |
| EA3IBE | 2026-08-30 11:26:39 | 41.39929 | 2.33197 | 107° | 77km/h | 9258m | 7.8m/s | 0°C | 0% | 0hPa | 0V | 00:00:00 | 00:00:00 | 00:00:00 | |
| EA3GEO | 2026-08-30 11:26:38 | 41.39935 | 2.33173 | 109° | 73km/h | 9252m | 6.5m/s | 0°C | 0% | 0hPa | 0V | 00:00:00 | 00:00:00 | 00:00:00 | |
| EA3GEO | 2026-08-30 11:26:33 | 41.39960 | 2.33050 | 101° | 66km/h | 9216m | 8.5m/s | 0°C | 0% | 0hPa | 0V | 00:00:00 | 00:00:00 | 00:00:00 | |
| EA3IBE | 2026-08-30 11:26:28 | 41.39981 | 2.32942 | 108° | 71km/h | 9190m | 3.5m/s | 0°C | 0% | 0hPa | 0V | 00:00:00 | 00:00:00 | 00:00:00 | |
| EA3GEO | 2026-08-30 11:26:27 | 41.39986 | 2.32919 | 105° | 71km/h | 9186m | 4.6m/s | 0°C | 0% | 0hPa | 0V | 00:00:00 | 00:00:00 | 00:00:00 | |
| EA3IBE | 2026-08-30 11:26:22 | 41.40002 | 2.32804 | 106° | 71km/h | 9152m | 7.3m/s | 0°C | 0% | 0hPa | 0V | 00:00:00 | 00:00:00 | 00:00:00 | |
| EA3GEO | 2026-08-30 11:26:21 | 41.40006 | 2.32781 | 105° | 69km/h | 9146m | 6.1m/s | 0°C | 0% | 0hPa | 0V | 00:00:00 | 00:00:00 | 00:00:00 | |
| EA3IBE | 2026-08-30 11:26:17 | 41.40019 | 2.32682 | 103° | 73km/h | 9126m | 5.1m/s | 0°C | 0% | 0hPa | 0V | 00:00:00 | 00:00:00 | 00:00:00 | |
| EA3GEO | 2026-08-30 11:26:16 | 41.40023 | 2.32659 | 108° | 69km/h | 9121m | 5.1m/s | 0°C | 0% | 0hPa | 0V | 00:00:00 | 00:00:00 | 00:00:00 | |
| EA3IBE | 2026-08-30 11:26:11 | 41.40042 | 2.32542 | 104° | 73km/h | 9100m | 4.0m/s | 0°C | 0% | 0hPa | 0V | 00:00:00 | 00:00:00 | 00:00:00 | |
| EA3GEO | 2026-08-30 11:26:09 | 41.40051 | 2.32494 | 110° | 75km/h | 9092m | 7.8m/s | 0°C | 0% | 0hPa | 0V | 00:00:00 | 00:00:00 | 00:00:00 | |
| EA3IBE | 2026-08-30 11:26:04 | 41.40077 | 2.32387 | 98° | 60km/h | 9053m | 9.0m/s | 0°C | 0% | 0hPa | 0V | 00:00:00 | 00:00:00 | 00:00:00 | |
| EA3IBE | 2026-08-30 11:25:59 | 41.40097 | 2.32284 | 111° | 64km/h | 9019m | 9.3m/s | 0°C | 0% | 0hPa | 0V | 00:00:00 | 00:00:00 | 00:00:00 | |
| EA3GEO | 2026-08-30 11:25:56 | 41.40111 | 2.32222 | 100° | 69km/h | 8998m | 8.0m/s | 0°C | 0% | 0hPa | 0V | 00:00:00 | 00:00:00 | 00:00:00 | |
| EA3IBE | 2026-08-30 11:25:54 | 41.40117 | 2.32171 | 99° | 78km/h | 8985m | 6.1m/s | 0°C | 0% | 0hPa | 0V | 00:00:00 | 00:00:00 | 00:00:00 | |
| EA3GEO | 2026-08-30 11:25:51 | 41.40125 | 2.32092 | 103° | 75km/h | 8969m | 5.7m/s | 0°C | 0% | 0hPa | 0V | 00:00:00 | 00:00:00 | 00:00:00 | |
| EA3IBE | 2026-08-30 11:25:48 | 41.40138 | 2.32023 | 103° | 68km/h | 8955m | 8.8m/s | 0°C | 0% | 0hPa | 0V | 00:00:00 | 00:00:00 | 00:00:00 | |
| EA3GEO | 2026-08-30 11:25:45 | 41.40148 | 2.31948 | 99° | 75km/h | 8934m | 7.2m/s | 0°C | 0% | 0hPa | 0V | 00:00:00 | 00:00:00 | 00:00:00 | |
| EA3IBE | 2026-08-30 11:25:43 | 41.40153 | 2.31901 | 103° | 69km/h | 8922m | 6.8m/s | 0°C | 0% | 0hPa | 0V | 00:00:00 | 00:00:00 | 00:00:00 | |
| EA3GEO | 2026-08-30 11:25:39 | 41.40168 | 2.31812 | 102° | 71km/h | 8896m | 5.7m/s | 0°C | 0% | 0hPa | 0V | 00:00:00 | 00:00:00 | 00:00:00 | |
| EA3IBE | 2026-08-30 11:25:37 | 41.40174 | 2.31764 | 99° | 75km/h | 8887m | 4.4m/s | 0°C | 0% | 0hPa | 0V | 00:00:00 | 00:00:00 | 00:00:00 | |
| EA3IBE | 2026-08-30 11:25:32 | 41.40189 | 2.31648 | 105° | 75km/h | 8860m | 7.1m/s | 0°C | 0% | 0hPa | 0V | 00:00:00 | 00:00:00 | 00:00:00 | |
| EA3GEO | 2026-08-30 11:25:28 | 41.40208 | 2.31551 | 105° | 75km/h | 8828m | 8.6m/s | 0°C | 0% | 0hPa | 0V | 00:00:00 | 00:00:00 | 00:00:00 | |
| EA3IBE | 2026-08-30 11:25:26 | 41.40218 | 2.31505 | 102° | 71km/h | 8812m | 7.2m/s | 0°C | 0% | 0hPa | 0V | 00:00:00 | 00:00:00 | 00:00:00 | |
| EA3GEO | 2026-08-30 11:25:23 | 41.40230 | 2.31440 | 105° | 68km/h | 8800m | 4.2m/s | 0°C | 0% | 0hPa | 0V | 00:00:00 | 00:00:00 | 00:00:00 | |
| EA3IBE | 2026-08-30 11:25:20 | 41.40243 | 2.31374 | 104° | 71km/h | 8780m | 8.1m/s | 0°C | 0% | 0hPa | 0V | 00:00:00 | 00:00:00 | 00:00:00 | |
| EA3GEO | 2026-08-30 11:25:17 | 41.40254 | 2.31296 | 100° | 80km/h | 8758m | 7.7m/s | 0°C | 0% | 0hPa | 0V | 00:00:00 | 00:00:00 | 00:00:00 | |
| EA3IBE | 2026-08-30 11:25:14 | 41.40265 | 2.31225 | 108° | 64km/h | 8737m | 4.8m/s | 0°C | 0% | 0hPa | 0V | 00:00:00 | 00:00:00 | 00:00:00 | |
| EA3GEO | 2026-08-30 11:25:12 | 41.40274 | 2.31182 | 104° | 66km/h | 8730m | 3.0m/s | 0°C | 0% | 0hPa | 0V | 00:00:00 | 00:00:00 | 00:00:00 | |
| EA3IBE | 2026-08-30 11:25:09 | 41.40286 | 2.31117 | 101° | 69km/h | 8710m | 8.0m/s | 0°C | 0% | 0hPa | 0V | 00:00:00 | 00:00:00 | 00:00:00 | |
| EA3GEO | 2026-08-30 11:25:06 | 41.40290 | 2.31049 | 94° | 66km/h | 8685m | 7.9m/s | 0°C | 0% | 0hPa | 0V | 00:00:00 | 00:00:00 | 00:00:00 | |
| EA3IBE | 2026-08-30 11:25:03 | 41.40297 | 2.30979 | 100° | 73km/h | 8658m | 6.7m/s | 0°C | 0% | 0hPa | 0V | 00:00:00 | 00:00:00 | 00:00:00 | |
| EA3GEO | 2026-08-30 11:25:00 | 41.40310 | 2.30907 | 105° | 69km/h | 8637m | 5.2m/s | 0°C | 0% | 0hPa | 0V | 00:00:00 | 00:00:00 | 00:00:00 | |
| EA3IBE | 2026-08-30 11:24:58 | 41.40318 | 2.30861 | 100° | 68km/h | 8626m | 5.5m/s | 0°C | 0% | 0hPa | 0V | 00:00:00 | 00:00:00 | 00:00:00 | |
| EA3GEO | 2026-08-30 11:24:55 | 41.40323 | 2.30794 | 95° | 68km/h | 8608m | 4.7m/s | 0°C | 0% | 0hPa | 0V | 00:00:00 | 00:00:00 | 00:00:00 | |
| EA3IBE | 2026-08-30 11:24:52 | 41.40330 | 2.30726 | 100° | 64km/h | 8591m | 7.0m/s | 0°C | 0% | 0hPa | 0V | 00:00:00 | 00:00:00 | 00:00:00 | |
| EA3GEO | 2026-08-30 11:24:49 | 41.40341 | 2.30663 | 101° | 64km/h | 8575m | 3.9m/s | 0°C | 0% | 0hPa | 0V | 00:00:00 | 00:00:00 | 00:00:00 | |
| EA3IBE | 2026-08-30 11:24:47 | 41.40345 | 2.30620 | 98° | 66km/h | 8566m | 3.8m/s | 0°C | 0% | 0hPa | 0V | 00:00:00 | 00:00:00 | 00:00:00 | |
| EA3GEO | 2026-08-30 11:24:44 | 41.40349 | 2.30553 | 91° | 68km/h | 8554m | 4.3m/s | 0°C | 0% | 0hPa | 0V | 00:00:00 | 00:00:00 | 00:00:00 | |
| EA3IBE | 2026-08-30 11:24:40 | 41.40355 | 2.30455 | 97° | 77km/h | 8533m | 5.0m/s | 0°C | 0% | 0hPa | 0V | 00:00:00 | 00:00:00 | 00:00:00 | |
| EA3GEO | 2026-08-30 11:24:38 | 41.40360 | 2.30408 | 106° | 66km/h | 8524m | 3.8m/s | 0°C | 0% | 0hPa | 0V | 00:00:00 | 00:00:00 | 00:00:00 | |
| EA3IBE | 2026-08-30 11:24:35 | 41.40372 | 2.30348 | 100° | 64km/h | 8514m | 4.3m/s | 0°C | 0% | 0hPa | 0V | 00:00:00 | 00:00:00 | 00:00:00 | |
| EA3GEO | 2026-08-30 11:24:33 | 41.40375 | 2.30302 | 92° | 73km/h | 8508m | 4.0m/s | 0°C | 0% | 0hPa | 0V | 00:00:00 | 00:00:00 | 00:00:00 | |
| EA3IBE | 2026-08-30 11:24:30 | 41.40377 | 2.30232 | 93° | 62km/h | 8499m | 3.6m/s | 0°C | 0% | 0hPa | 0V | 00:00:00 | 00:00:00 | 00:00:00 | |
| EA3GEO | 2026-08-30 11:24:27 | 41.40377 | 2.30166 | 92° | 69km/h | 8481m | 6.3m/s | 0°C | 0% | 0hPa | 0V | 00:00:00 | 00:00:00 | 00:00:00 | |
| EA3IBE | 2026-08-30 11:24:24 | 41.40378 | 2.30090 | 91° | 69km/h | 8460m | 5.6m/s | 0°C | 0% | 0hPa | 0V | 00:00:00 | 00:00:00 | 00:00:00 | |
| EA3GEO | 2026-08-30 11:24:21 | 41.40382 | 2.30026 | 101° | 68km/h | 8439m | 10.1m/s | 0°C | 0% | 0hPa | 0V | 00:00:00 | 00:00:00 | 00:00:00 | |
| EA3IBE | 2026-08-30 11:24:19 | 41.40388 | 2.29983 | 98° | 68km/h | 8421m | 7.9m/s | 0°C | 0% | 0hPa | 0V | 00:00:00 | 00:00:00 | 00:00:00 | |
| EA3GEO | 2026-08-30 11:24:15 | 41.40399 | 2.29888 | 99° | 73km/h | 8389m | 4.3m/s | 0°C | 0% | 0hPa | 0V | 00:00:00 | 00:00:00 | 00:00:00 | |
| EA3IBE | 2026-08-30 11:24:14 | 41.40401 | 2.29863 | 94° | 69km/h | 8384m | 5.7m/s | 0°C | 0% | 0hPa | 0V | 00:00:00 | 00:00:00 | 00:00:00 | |
| EA3GEO | 2026-08-30 11:24:10 | 41.40400 | 2.29782 | 88° | 60km/h | 8362m | 6.1m/s | 0°C | 0% | 0hPa | 0V | 00:00:00 | 00:00:00 | 00:00:00 | |
| EA3IBE | 2026-08-30 11:24:09 | 41.40399 | 2.29761 | 90° | 62km/h | 8357m | 4.7m/s | 0°C | 0% | 0hPa | 0V | 00:00:00 | 00:00:00 | 00:00:00 | |
| EA3GEO | 2026-08-30 11:24:05 | 41.40406 | 2.29675 | 100° | 64km/h | 8329m | 6.0m/s | 0°C | 0% | 0hPa | 0V | 00:00:00 | 00:00:00 | 00:00:00 | |
| EA3IBE | 2026-08-30 11:24:03 | 41.40410 | 2.29632 | 100° | 68km/h | 8316m | 4.7m/s | 0°C | 0% | 0hPa | 0V | 00:00:00 | 00:00:00 | 00:00:00 | |
| EA3GEO | 2026-08-30 11:23:59 | 41.40411 | 2.29546 | 87° | 73km/h | 8290m | 7.6m/s | 0°C | 0% | 0hPa | 0V | 00:00:00 | 00:00:00 | 00:00:00 | |
| EA3IBE | 2026-08-30 11:23:58 | 41.40411 | 2.29522 | 91° | 73km/h | 8283m | 6.3m/s | 0°C | 0% | 0hPa | 0V | 00:00:00 | 00:00:00 | 00:00:00 | |
| EA3GEO | 2026-08-30 11:23:53 | 41.40420 | 2.29401 | 96° | 64km/h | 8249m | 5.3m/s | 0°C | 0% | 0hPa | 0V | 00:00:00 | 00:00:00 | 00:00:00 | |
| EA3IBE | 2026-08-30 11:23:52 | 41.40422 | 2.29379 | 96° | 66km/h | 8243m | 7.2m/s | 0°C | 0% | 0hPa | 0V | 00:00:00 | 00:00:00 | 00:00:00 | |
| EA3GEO | 2026-08-30 11:23:48 | 41.40426 | 2.29286 | 99° | 71km/h | 8220m | 5.1m/s | 0°C | 0% | 0hPa | 0V | 00:00:00 | 00:00:00 | 00:00:00 | |
| EA3IBE | 2026-08-30 11:23:47 | 41.40429 | 2.29262 | 100° | 71km/h | 8216m | 4.2m/s | 0°C | 0% | 0hPa | 0V | 00:00:00 | 00:00:00 | 00:00:00 | |
| EA3IBE | 2026-08-30 11:23:42 | 41.40438 | 2.29152 | 98° | 71km/h | 8197m | 5.3m/s | 0°C | 0% | 0hPa | 0V | 00:00:00 | 00:00:00 | 00:00:00 | |
| EA3GEO | 2026-08-30 11:23:36 | 41.40446 | 2.29013 | 94° | 66km/h | 8175m | 7.8m/s | 0°C | 0% | 0hPa | 0V | 00:00:00 | 00:00:00 | 00:00:00 | |
| EA3GEO | 2026-08-30 11:23:31 | 41.40459 | 2.28906 | 97° | 60km/h | 8143m | 7.4m/s | 0°C | 0% | 0hPa | 0V | 00:00:00 | 00:00:00 | 00:00:00 | |
| EA3GEO | 2026-08-30 11:23:25 | 41.40460 | 2.28779 | 94° | 73km/h | 8101m | 7.7m/s | 0°C | 0% | 0hPa | 0V | 00:00:00 | 00:00:00 | 00:00:00 | |
| EA3GEO | 2026-08-30 11:23:20 | 41.40468 | 2.28669 | 91° | 60km/h | 8063m | 6.3m/s | 0°C | 0% | 0hPa | 0V | 00:00:00 | 00:00:00 | 00:00:00 | |
| EA3IBE | 2026-08-30 11:23:19 | 41.40468 | 2.28649 | 88° | 62km/h | 8056m | 6.7m/s | 0°C | 0% | 0hPa | 0V | 00:00:00 | 00:00:00 | 00:00:00 | |
| EA3GEO | 2026-08-30 11:23:15 | 41.40469 | 2.28553 | 91° | 77km/h | 8038m | 6.0m/s | 0°C | 0% | 0hPa | 0V | 00:00:00 | 00:00:00 | 00:00:00 | |
| EA3IBE | 2026-08-30 11:23:14 | 41.40470 | 2.28527 | 97° | 77km/h | 8032m | 5.0m/s | 0°C | 0% | 0hPa | 0V | 00:00:00 | 00:00:00 | 00:00:00 | |
| EA3GEO | 2026-08-30 11:23:10 | 41.40480 | 2.28434 | 101° | 62km/h | 8011m | 5.9m/s | 0°C | 0% | 0hPa | 0V | 00:00:00 | 00:00:00 | 00:00:00 | |
| EA3IBE | 2026-08-30 11:23:08 | 41.40484 | 2.28389 | 98° | 71km/h | 7998m | 6.5m/s | 0°C | 0% | 0hPa | 0V | 00:00:00 | 00:00:00 | 00:00:00 | |
| EA3GEO | 2026-08-30 11:23:04 | 41.40489 | 2.28292 | 85° | 69km/h | 7971m | 7.9m/s | 0°C | 0% | 0hPa | 0V | 00:00:00 | 00:00:00 | 00:00:00 | |
| EA3IBE | 2026-08-30 11:23:03 | 41.40488 | 2.28270 | 87° | 64km/h | 7963m | 8.1m/s | 0°C | 0% | 0hPa | 0V | 00:00:00 | 00:00:00 | 00:00:00 | |
| EA3IBE | 2026-08-30 11:22:58 | 41.40492 | 2.28174 | 98° | 55km/h | 7931m | 4.2m/s | 0°C | 0% | 0hPa | 0V | 00:00:00 | 00:00:00 | 00:00:00 | |
| EA3GEO | 2026-08-30 11:22:53 | 41.40497 | 2.28066 | 95° | 57km/h | 7913m | 2.6m/s | 0°C | 0% | 0hPa | 0V | 00:00:00 | 00:00:00 | 00:00:00 | |
| EA3IBE | 2026-08-30 11:22:52 | 41.40499 | 2.28047 | 99° | 57km/h | 7910m | 4.0m/s | 0°C | 0% | 0hPa | 0V | 00:00:00 | 00:00:00 | 00:00:00 | |
| EA3GEO | 2026-08-30 11:22:48 | 41.40506 | 2.27969 | 94° | 53km/h | 7894m | 5.1m/s | 0°C | 0% | 0hPa | 0V | 00:00:00 | 00:00:00 | 00:00:00 | |
| EA3IBE | 2026-08-30 11:22:47 | 41.40506 | 2.27951 | 93° | 51km/h | 7890m | 3.3m/s | 0°C | 0% | 0hPa | 0V | 00:00:00 | 00:00:00 | 00:00:00 | |
| EA3GEO | 2026-08-30 11:22:42 | 41.40511 | 2.27850 | 92° | 64km/h | 7864m | 6.3m/s | 0°C | 0% | 0hPa | 0V | 00:00:00 | 00:00:00 | 00:00:00 | |
| EA3IBE | 2026-08-30 11:22:41 | 41.40511 | 2.27829 | 94° | 64km/h | 7858m | 8.1m/s | 0°C | 0% | 0hPa | 0V | 00:00:00 | 00:00:00 | 00:00:00 | |
| EA3IBE | 2026-08-30 11:22:36 | 41.40508 | 2.27717 | 89° | 73km/h | 7826m | 8.2m/s | 0°C | 0% | 0hPa | 0V | 00:00:00 | 00:00:00 | 00:00:00 | |
| EA3GEO | 2026-08-30 11:22:30 | 41.40513 | 2.27591 | 92° | 60km/h | 7788m | 8.0m/s | 0°C | 0% | 0hPa | 0V | 00:00:00 | 00:00:00 | 00:00:00 | |
| EA3GEO | 2026-08-30 11:22:24 | 41.40512 | 2.27455 | 91° | 75km/h | 7755m | 4.4m/s | 0°C | 0% | 0hPa | 0V | 00:00:00 | 00:00:00 | 00:00:00 | |
| EA3GEO | 2026-08-30 11:22:19 | 41.40518 | 2.27347 | 94° | 57km/h | 7737m | 5.8m/s | 0°C | 0% | 0hPa | 0V | 00:00:00 | 00:00:00 | 00:00:00 | |
| EA3GEO | 2026-08-30 11:22:14 | 41.40519 | 2.27251 | 92° | 55km/h | 7712m | 5.6m/s | 0°C | 0% | 0hPa | 0V | 00:00:00 | 00:00:00 | 00:00:00 | |
| EA3IBE | 2026-08-30 11:22:13 | 41.40520 | 2.27232 | 96° | 62km/h | 7707m | 4.6m/s | 0°C | 0% | 0hPa | 0V | 00:00:00 | 00:00:00 | 00:00:00 | |
| EA3GEO | 2026-08-30 11:22:08 | 41.40521 | 2.27132 | 89° | 60km/h | 7679m | 5.3m/s | 0°C | 0% | 0hPa | 0V | 00:00:00 | 00:00:00 | 00:00:00 | |
| EA3GEO | 2026-08-30 11:22:03 | 41.40517 | 2.27036 | 87° | 53km/h | 7655m | 5.3m/s | 0°C | 0% | 0hPa | 0V | 00:00:00 | 00:00:00 | 00:00:00 | |
| EA3IBE | 2026-08-30 11:22:01 | 41.40515 | 2.27000 | 86° | 57km/h | 7645m | 6.5m/s | 0°C | 0% | 0hPa | 0V | 00:00:00 | 00:00:00 | 00:00:00 | |
| EA3GEO | 2026-08-30 11:21:58 | 41.40516 | 2.26941 | 96° | 60km/h | 7632m | 6.7m/s | 0°C | 0% | 0hPa | 0V | 00:00:00 | 00:00:00 | 00:00:00 | |
| EA3IBE | 2026-08-30 11:21:56 | 41.40513 | 2.26900 | 82° | 62km/h | 7618m | 8.9m/s | 0°C | 0% | 0hPa | 0V | 00:00:00 | 00:00:00 | 00:00:00 | |
| EA3GEO | 2026-08-30 11:21:52 | 41.40502 | 2.26810 | 83° | 66km/h | 7591m | 8.3m/s | 0°C | 0% | 0hPa | 0V | 00:00:00 | 00:00:00 | 00:00:00 | |
| EA3IBE | 2026-08-30 11:21:51 | 41.40500 | 2.26787 | 86° | 69km/h | 7584m | 7.2m/s | 0°C | 0% | 0hPa | 0V | 00:00:00 | 00:00:00 | 00:00:00 | |
| EA3IBE | 2026-08-30 11:21:46 | 41.40498 | 2.26677 | 85° | 60km/h | 7554m | 10.2m/s | 0°C | 0% | 0hPa | 0V | 00:00:00 | 00:00:00 | 00:00:00 | |
| EA3GEO | 2026-08-30 11:21:41 | 41.40489 | 2.26574 | 96° | 55km/h | 7518m | 5.3m/s | 0°C | 0% | 0hPa | 0V | 00:00:00 | 00:00:00 | 00:00:00 | |
| EA3IBE | 2026-08-30 11:21:40 | 41.40491 | 2.26556 | 100° | 53km/h | 7513m | 4.4m/s | 0°C | 0% | 0hPa | 0V | 00:00:00 | 00:00:00 | 00:00:00 | |
| EA3GEO | 2026-08-30 11:21:35 | 41.40490 | 2.26465 | 94° | 53km/h | 7491m | 5.3m/s | 0°C | 0% | 0hPa | 0V | 00:00:00 | 00:00:00 | 00:00:00 | |
| EA3IBE | 2026-08-30 11:21:32 | 41.40493 | 2.26410 | 96° | 58km/h | 7477m | 3.2m/s | 0°C | 0% | 0hPa | 0V | 00:00:00 | 00:00:00 | 00:00:00 | |
| EA3GEO | 2026-08-30 11:21:30 | 41.40496 | 2.26369 | 96° | 64km/h | 7468m | 6.3m/s | 0°C | 0% | 0hPa | 0V | 00:00:00 | 00:00:00 | 00:00:00 | |
| EA3IBE | 2026-08-30 11:21:27 | 41.40498 | 2.26310 | 91° | 53km/h | 7454m | 6.0m/s | 0°C | 0% | 0hPa | 0V | 00:00:00 | 00:00:00 | 00:00:00 | |
| EA3GEO | 2026-08-30 11:21:24 | 41.40495 | 2.26253 | 88° | 60km/h | 7440m | 5.4m/s | 0°C | 0% | 0hPa | 0V | 00:00:00 | 00:00:00 | 00:00:00 | |
| EA3IBE | 2026-08-30 11:21:21 | 41.40496 | 2.26193 | 96° | 62km/h | 7423m | 7.3m/s | 0°C | 0% | 0hPa | 0V | 00:00:00 | 00:00:00 | 00:00:00 | |
| EA3GEO | 2026-08-30 11:21:19 | 41.40500 | 2.26152 | 95° | 62km/h | 7412m | 5.2m/s | 0°C | 0% | 0hPa | 0V | 00:00:00 | 00:00:00 | 00:00:00 | |
| EA3IBE | 2026-08-30 11:21:14 | 41.40495 | 2.26047 | 93° | 68km/h | 7388m | 3.0m/s | 0°C | 0% | 0hPa | 0V | 00:00:00 | 00:00:00 | 00:00:00 | |
| EA3GEO | 2026-08-30 11:21:09 | 41.40496 | 2.25945 | 95° | 53km/h | 7366m | 5.5m/s | 0°C | 0% | 0hPa | 0V | 00:00:00 | 00:00:00 | 00:00:00 | |
| EA3GEO | 2026-08-30 11:21:03 | 41.40502 | 2.25838 | 92° | 62km/h | 7334m | 5.6m/s | 0°C | 0% | 0hPa | 0V | 00:00:00 | 00:00:00 | 00:00:00 | |
| EA3IBE | 2026-08-30 11:21:01 | 41.40498 | 2.25792 | 81° | 69km/h | 7320m | 4.6m/s | 0°C | 0% | 0hPa | 0V | 00:00:00 | 00:00:00 | 00:00:00 | |
| EA3GEO | 2026-08-30 11:20:58 | 41.40499 | 2.25723 | 97° | 77km/h | 7303m | 4.2m/s | 0°C | 0% | 0hPa | 0V | 00:00:00 | 00:00:00 | 00:00:00 | |
| EA3GEO | 2026-08-30 11:20:52 | 41.40505 | 2.25588 | 91° | 55km/h | 7271m | 3.0m/s | 0°C | 0% | 0hPa | 0V | 00:00:00 | 00:00:00 | 00:00:00 | |
| EA3GEO | 2026-08-30 11:20:47 | 41.40508 | 2.25486 | 87° | 73km/h | 7250m | 3.5m/s | 0°C | 0% | 0hPa | 0V | 00:00:00 | 00:00:00 | 00:00:00 | |
| EA3IBE | 2026-08-30 11:20:46 | 41.40506 | 2.25462 | 86° | 69km/h | 7246m | 4.0m/s | 0°C | 0% | 0hPa | 0V | 00:00:00 | 00:00:00 | 00:00:00 | |
| EA3GEO | 2026-08-30 11:20:41 | 41.40506 | 2.25357 | 101° | 68km/h | 7222m | 6.2m/s | 0°C | 0% | 0hPa | 0V | 00:00:00 | 00:00:00 | 00:00:00 | |
| EA3IBE | 2026-08-30 11:20:40 | 41.40508 | 2.25334 | 93° | 68km/h | 7215m | 7.4m/s | 0°C | 0% | 0hPa | 0V | 00:00:00 | 00:00:00 | 00:00:00 | |
| EA3GEO | 2026-08-30 11:20:36 | 41.40510 | 2.25258 | 96° | 51km/h | 7190m | 3.3m/s | 0°C | 0% | 0hPa | 0V | 00:00:00 | 00:00:00 | 00:00:00 | |
| EA3IBE | 2026-08-30 11:20:34 | 41.40512 | 2.25219 | 92° | 62km/h | 7180m | 6.8m/s | 0°C | 0% | 0hPa | 0V | 00:00:00 | 00:00:00 | 00:00:00 | |
| EA3GEO | 2026-08-30 11:20:31 | 41.40513 | 2.25143 | 92° | 78km/h | 7167m | 1.1m/s | 0°C | 0% | 0hPa | 0V | 00:00:00 | 00:00:00 | 00:00:00 | |
| EA3IBE | 2026-08-30 11:20:29 | 41.40513 | 2.25093 | 88° | 68km/h | 7161m | 4.7m/s | 0°C | 0% | 0hPa | 0V | 00:00:00 | 00:00:00 | 00:00:00 | |
| EA3GEO | 2026-08-30 11:20:25 | 41.40509 | 2.25018 | 87° | 57km/h | 7134m | 5.7m/s | 0°C | 0% | 0hPa | 0V | 00:00:00 | 00:00:00 | 00:00:00 | |
| EA3IBE | 2026-08-30 11:20:23 | 41.40508 | 2.24976 | 89° | 71km/h | 7123m | 7.5m/s | 0°C | 0% | 0hPa | 0V | 00:00:00 | 00:00:00 | 00:00:00 | |
| EA3IBE | 2026-08-30 11:20:17 | 41.40521 | 2.24837 | 99° | 64km/h | 7082m | 6.7m/s | 0°C | 0% | 0hPa | 0V | 00:00:00 | 00:00:00 | 00:00:00 | |
| EA3GEO | 2026-08-30 11:20:14 | 41.40527 | 2.24779 | 99° | 60km/h | 7064m | 6.2m/s | 0°C | 0% | 0hPa | 0V | 00:00:00 | 00:00:00 | 00:00:00 | |
| EA3IBE | 2026-08-30 11:20:11 | 41.40533 | 2.24718 | 101° | 68km/h | 7051m | 4.1m/s | 0°C | 0% | 0hPa | 0V | 00:00:00 | 00:00:00 | 00:00:00 | |
| EA3GEO | 2026-08-30 11:20:08 | 41.40538 | 2.24645 | 91° | 69km/h | 7029m | 8.8m/s | 0°C | 0% | 0hPa | 0V | 00:00:00 | 00:00:00 | 00:00:00 | |
| EA3IBE | 2026-08-30 11:20:06 | 41.40539 | 2.24601 | 92° | 58km/h | 7014m | 8.0m/s | 0°C | 0% | 0hPa | 0V | 00:00:00 | 00:00:00 | 00:00:00 | |
| EA3GEO | 2026-08-30 11:20:03 | 41.40539 | 2.24546 | 93° | 57km/h | 6991m | 8.9m/s | 0°C | 0% | 0hPa | 0V | 00:00:00 | 00:00:00 | 00:00:00 | |
| EA3IBE | 2026-08-30 11:20:00 | 41.40543 | 2.24484 | 96° | 69km/h | 6970m | 4.5m/s | 0°C | 0% | 0hPa | 0V | 00:00:00 | 00:00:00 | 00:00:00 | |
| EA3GEO | 2026-08-30 11:19:57 | 41.40547 | 2.24420 | 95° | 47km/h | 6947m | 4.2m/s | 0°C | 0% | 0hPa | 0V | 00:00:00 | 00:00:00 | 00:00:00 | |
| EA3IBE | 2026-08-30 11:19:54 | 41.40543 | 2.24368 | 84° | 58km/h | 6929m | 4.8m/s | 0°C | 0% | 0hPa | 0V | 00:00:00 | 00:00:00 | 00:00:00 | |
| EA3GEO | 2026-08-30 11:19:52 | 41.40542 | 2.24323 | 94° | 66km/h | 6918m | 5.3m/s | 0°C | 0% | 0hPa | 0V | 00:00:00 | 00:00:00 | 00:00:00 | |
| EA3IBE | 2026-08-30 11:19:49 | 41.40546 | 2.24260 | 96° | 60km/h | 6896m | 6.7m/s | 0°C | 0% | 0hPa | 0V | 00:00:00 | 00:00:00 | 00:00:00 | |
| EA3GEO | 2026-08-30 11:19:47 | 41.40548 | 2.24217 | 91° | 64km/h | 6883m | 6.6m/s | 0°C | 0% | 0hPa | 0V | 00:00:00 | 00:00:00 | 00:00:00 | |
| EA3GEO | 2026-08-30 11:19:42 | 41.40547 | 2.24108 | 92° | 62km/h | 6856m | 4.4m/s | 0°C | 0% | 0hPa | 0V | 00:00:00 | 00:00:00 | 00:00:00 | |
| EA3GEO | 2026-08-30 11:19:36 | 41.40543 | 2.23995 | 94° | 64km/h | 6826m | 4.5m/s | 0°C | 0% | 0hPa | 0V | 00:00:00 | 00:00:00 | 00:00:00 | |
| EA3IBE | 2026-08-30 11:19:33 | 41.40552 | 2.23935 | 105° | 60km/h | 6811m | 6.0m/s | 0°C | 0% | 0hPa | 0V | 00:00:00 | 00:00:00 | 00:00:00 | |
| EA3GEO | 2026-08-30 11:19:30 | 41.40558 | 2.23877 | 97° | 55km/h | 6791m | 8.5m/s | 0°C | 0% | 0hPa | 0V | 00:00:00 | 00:00:00 | 00:00:00 | |
| EA3IBE | 2026-08-30 11:19:26 | 41.40560 | 2.23796 | 100° | 68km/h | 6763m | 5.2m/s | 0°C | 0% | 0hPa | 0V | 00:00:00 | 00:00:00 | 00:00:00 | |
| EA3GEO | 2026-08-30 11:19:24 | 41.40566 | 2.23751 | 104° | 66km/h | 6753m | 4.8m/s | 0°C | 0% | 0hPa | 0V | 00:00:00 | 00:00:00 | 00:00:00 | |
| EA3IBE | 2026-08-30 11:19:20 | 41.40575 | 2.23669 | 97° | 62km/h | 6732m | 7.5m/s | 0°C | 0% | 0hPa | 0V | 00:00:00 | 00:00:00 | 00:00:00 | |
| EA3GEO | 2026-08-30 11:19:18 | 41.40580 | 2.23627 | 101° | 60km/h | 6719m | 7.3m/s | 0°C | 0% | 0hPa | 0V | 00:00:00 | 00:00:00 | 00:00:00 | |
| EA3IBE | 2026-08-30 11:19:13 | 41.40589 | 2.23518 | 92° | 68km/h | 6683m | 7.1m/s | 0°C | 0% | 0hPa | 0V | 00:00:00 | 00:00:00 | 00:00:00 | |
| EA3GEO | 2026-08-30 11:19:12 | 41.40591 | 2.23496 | 106° | 62km/h | 6676m | 5.5m/s | 0°C | 0% | 0hPa | 0V | 00:00:00 | 00:00:00 | 00:00:00 | |
| EA3IBE | 2026-08-30 11:19:07 | 41.40608 | 2.23389 | 99° | 69km/h | 6644m | 4.9m/s | 0°C | 0% | 0hPa | 0V | 00:00:00 | 00:00:00 | 00:00:00 | |
| EA3GEO | 2026-08-30 11:19:06 | 41.40610 | 2.23365 | 91° | 71km/h | 6638m | 5.0m/s | 0°C | 0% | 0hPa | 0V | 00:00:00 | 00:00:00 | 00:00:00 | |
| EA3IBE | 2026-08-30 11:19:01 | 41.40612 | 2.23250 | 95° | 66km/h | 6606m | 6.2m/s | 0°C | 0% | 0hPa | 0V | 00:00:00 | 00:00:00 | 00:00:00 | |
| EA3IBE | 2026-08-30 11:18:55 | 41.40615 | 2.23135 | 99° | 60km/h | 6563m | 4.7m/s | 0°C | 0% | 0hPa | 0V | 00:00:00 | 00:00:00 | 00:00:00 | |
| EA3GEO | 2026-08-30 11:18:50 | 41.40614 | 2.23032 | 84° | 66km/h | 6530m | 4.1m/s | 0°C | 0% | 0hPa | 0V | 00:00:00 | 00:00:00 | 00:00:00 | |
| EA3IBE | 2026-08-30 11:18:49 | 41.40613 | 2.23010 | 85° | 66km/h | 6525m | 3.9m/s | 0°C | 0% | 0hPa | 0V | 00:00:00 | 00:00:00 | 00:00:00 | |
| EA3GEO | 2026-08-30 11:18:44 | 41.40615 | 2.22903 | 83° | 60km/h | 6497m | 6.0m/s | 0°C | 0% | 0hPa | 0V | 00:00:00 | 00:00:00 | 00:00:00 | |
| EA3IBE | 2026-08-30 11:18:43 | 41.40613 | 2.22884 | 83° | 53km/h | 6490m | 5.9m/s | 0°C | 0% | 0hPa | 0V | 00:00:00 | 00:00:00 | 00:00:00 | |
| EA3IBE | 2026-08-30 11:18:38 | 41.40609 | 2.22794 | 91° | 60km/h | 6457m | 8.4m/s | 0°C | 0% | 0hPa | 0V | 00:00:00 | 00:00:00 | 00:00:00 | |
| EA3IBE | 2026-08-30 11:18:33 | 41.40613 | 2.22686 | 92° | 64km/h | 6424m | 6.4m/s | 0°C | 0% | 0hPa | 0V | 00:00:00 | 00:00:00 | 00:00:00 | |
| EA3GEO | 2026-08-30 11:18:32 | 41.40614 | 2.22664 | 96° | 66km/h | 6418m | 6.6m/s | 0°C | 0% | 0hPa | 0V | 00:00:00 | 00:00:00 | 00:00:00 | |
| EA3IBE | 2026-08-30 11:18:28 | 41.40618 | 2.22580 | 93° | 62km/h | 6391m | 5.2m/s | 0°C | 0% | 0hPa | 0V | 00:00:00 | 00:00:00 | 00:00:00 | |
| EA3GEO | 2026-08-30 11:18:26 | 41.40618 | 2.22538 | 90° | 64km/h | 6380m | 2.8m/s | 0°C | 0% | 0hPa | 0V | 00:00:00 | 00:00:00 | 00:00:00 | |
| EA3GEO | 2026-08-30 11:18:21 | 41.40618 | 2.22428 | 94° | 69km/h | 6353m | 7.5m/s | 0°C | 0% | 0hPa | 0V | 00:00:00 | 00:00:00 | 00:00:00 | |
| EA3IBE | 2026-08-30 11:18:16 | 41.40611 | 2.22334 | 89° | 51km/h | 6325m | 2.1m/s | 0°C | 0% | 0hPa | 0V | 00:00:00 | 00:00:00 | 00:00:00 | |
| EA3GEO | 2026-08-30 11:18:15 | 41.40611 | 2.22317 | 95° | 51km/h | 6321m | 5.1m/s | 0°C | 0% | 0hPa | 0V | 00:00:00 | 00:00:00 | 00:00:00 | |
| EA3GEO | 2026-08-30 11:18:10 | 41.40616 | 2.22221 | 95° | 53km/h | 6291m | 5.9m/s | 0°C | 0% | 0hPa | 0V | 00:00:00 | 00:00:00 | 00:00:00 | |
| EA3GEO | 2026-08-30 11:18:05 | 41.40608 | 2.22132 | 77° | 53km/h | 6261m | 5.7m/s | 0°C | 0% | 0hPa | 0V | 00:00:00 | 00:00:00 | 00:00:00 | |
| EA3GEO | 2026-08-30 11:18:00 | 41.40603 | 2.22043 | 100° | 51km/h | 6232m | 6.1m/s | 0°C | 0% | 0hPa | 0V | 00:00:00 | 00:00:00 | 00:00:00 | |
| EA3IBE | 2026-08-30 11:17:59 | 41.40606 | 2.22026 | 96° | 53km/h | 6225m | 6.3m/s | 0°C | 0% | 0hPa | 0V | 00:00:00 | 00:00:00 | 00:00:00 | |
| EA3IBE | 2026-08-30 11:17:54 | 41.40610 | 2.21928 | 81° | 60km/h | 6193m | 4.1m/s | 0°C | 0% | 0hPa | 0V | 00:00:00 | 00:00:00 | 00:00:00 | |
| EA3GEO | 2026-08-30 11:17:48 | 41.40607 | 2.21827 | 99° | 49km/h | 6159m | 7.2m/s | 0°C | 0% | 0hPa | 0V | 00:00:00 | 00:00:00 | 00:00:00 | |
| EA3IBE | 2026-08-30 11:17:43 | 41.40608 | 2.21744 | 87° | 47km/h | 6130m | 5.3m/s | 0°C | 0% | 0hPa | 0V | 00:00:00 | 00:00:00 | 00:00:00 | |
| EA3GEO | 2026-08-30 11:17:41 | 41.40606 | 2.21715 | 82° | 42km/h | 6118m | 4.9m/s | 0°C | 0% | 0hPa | 0V | 00:00:00 | 00:00:00 | 00:00:00 | |
| EA3IBE | 2026-08-30 11:17:38 | 41.40603 | 2.21667 | 91° | 57km/h | 6098m | 6.5m/s | 0°C | 0% | 0hPa | 0V | 00:00:00 | 00:00:00 | 00:00:00 | |
| EA3GEO | 2026-08-30 11:17:35 | 41.40602 | 2.21610 | 82° | 53km/h | 6078m | 5.2m/s | 0°C | 0% | 0hPa | 0V | 00:00:00 | 00:00:00 | 00:00:00 | |
| EA3IBE | 2026-08-30 11:17:32 | 41.40595 | 2.21558 | 84° | 51km/h | 6058m | 5.2m/s | 0°C | 0% | 0hPa | 0V | 00:00:00 | 00:00:00 | 00:00:00 | |
| EA3GEO | 2026-08-30 11:17:29 | 41.40591 | 2.21505 | 83° | 47km/h | 6040m | 5.4m/s | 0°C | 0% | 0hPa | 0V | 00:00:00 | 00:00:00 | 00:00:00 | |
| EA3IBE | 2026-08-30 11:17:26 | 41.40583 | 2.21451 | 82° | 57km/h | 6025m | 3.5m/s | 0°C | 0% | 0hPa | 0V | 00:00:00 | 00:00:00 | 00:00:00 | |
| EA3GEO | 2026-08-30 11:17:24 | 41.40581 | 2.21417 | 92° | 53km/h | 6014m | 1.4m/s | 0°C | 0% | 0hPa | 0V | 00:00:00 | 00:00:00 | 00:00:00 | |
| EA3IBE | 2026-08-30 11:17:20 | 41.40591 | 2.21351 | 105° | 57km/h | 6002m | 3.5m/s | 0°C | 0% | 0hPa | 0V | 00:00:00 | 00:00:00 | 00:00:00 | |
| EA3GEO | 2026-08-30 11:17:19 | 41.40595 | 2.21334 | 107° | 58km/h | 5997m | 3.9m/s | 0°C | 0% | 0hPa | 0V | 00:00:00 | 00:00:00 | 00:00:00 | |
| EA3GEO | 2026-08-30 11:17:14 | 41.40606 | 2.21252 | 98° | 42km/h | 5971m | 5.3m/s | 0°C | 0% | 0hPa | 0V | 00:00:00 | 00:00:00 | 00:00:00 | |
| EA3IBE | 2026-08-30 11:17:09 | 41.40616 | 2.21169 | 95° | 57km/h | 5945m | 3.5m/s | 0°C | 0% | 0hPa | 0V | 00:00:00 | 00:00:00 | 00:00:00 | |
| EA3GEO | 2026-08-30 11:17:08 | 41.40615 | 2.21150 | 81° | 58km/h | 5942m | 4.4m/s | 0°C | 0% | 0hPa | 0V | 00:00:00 | 00:00:00 | 00:00:00 | |
| EA3IBE | 2026-08-30 11:17:04 | 41.40617 | 2.21082 | 96° | 47km/h | 5917m | 6.2m/s | 0°C | 0% | 0hPa | 0V | 00:00:00 | 00:00:00 | 00:00:00 | |
| EA3GEO | 2026-08-30 11:17:02 | 41.40618 | 2.21051 | 93° | 47km/h | 5902m | 6.5m/s | 0°C | 0% | 0hPa | 0V | 00:00:00 | 00:00:00 | 00:00:00 | |
| EA3IBE | 2026-08-30 11:16:58 | 41.40627 | 2.20987 | 96° | 53km/h | 5875m | 3.0m/s | 0°C | 0% | 0hPa | 0V | 00:00:00 | 00:00:00 | 00:00:00 | |
| EA3GEO | 2026-08-30 11:16:56 | 41.40628 | 2.20957 | 98° | 44km/h | 5865m | 2.5m/s | 0°C | 0% | 0hPa | 0V | 00:00:00 | 00:00:00 | 00:00:00 | |
| EA3IBE | 2026-08-30 11:16:52 | 41.40640 | 2.20897 | 103° | 46km/h | 5848m | 3.4m/s | 0°C | 0% | 0hPa | 0V | 00:00:00 | 00:00:00 | 00:00:00 | |
| EA3GEO | 2026-08-30 11:16:50 | 41.40641 | 2.20864 | 87° | 49km/h | 5836m | 6.8m/s | 0°C | 0% | 0hPa | 0V | 00:00:00 | 00:00:00 | 00:00:00 | |
| EA3IBE | 2026-08-30 11:16:46 | 41.40633 | 2.20808 | 83° | 47km/h | 5816m | 2.9m/s | 0°C | 0% | 0hPa | 0V | 00:00:00 | 00:00:00 | 00:00:00 | |
| EA3GEO | 2026-08-30 11:16:44 | 41.40630 | 2.20774 | 88° | 57km/h | 5805m | 4.1m/s | 0°C | 0% | 0hPa | 0V | 00:00:00 | 00:00:00 | 00:00:00 | |
| EA3IBE | 2026-08-30 11:16:40 | 41.40629 | 2.20710 | 83° | 51km/h | 5770m | 6.8m/s | 0°C | 0% | 0hPa | 0V | 00:00:00 | 00:00:00 | 00:00:00 | |
| EA3GEO | 2026-08-30 11:16:38 | 41.40626 | 2.20676 | 84° | 53km/h | 5759m | 2.1m/s | 0°C | 0% | 0hPa | 0V | 00:00:00 | 00:00:00 | 00:00:00 | |
| EA3IBE | 2026-08-30 11:16:33 | 41.40619 | 2.20602 | 78° | 57km/h | 5740m | 3.0m/s | 0°C | 0% | 0hPa | 0V | 00:00:00 | 00:00:00 | 00:00:00 | |
| EA3GEO | 2026-08-30 11:16:32 | 41.40616 | 2.20581 | 82° | 66km/h | 5736m | 3.4m/s | 0°C | 0% | 0hPa | 0V | 00:00:00 | 00:00:00 | 00:00:00 | |
| EA3IBE | 2026-08-30 11:16:27 | 41.40617 | 2.20468 | 92° | 57km/h | 5708m | 4.9m/s | 0°C | 0% | 0hPa | 0V | 00:00:00 | 00:00:00 | 00:00:00 | |
| EA3GEO | 2026-08-30 11:16:26 | 41.40617 | 2.20449 | 84° | 55km/h | 5702m | 7.1m/s | 0°C | 0% | 0hPa | 0V | 00:00:00 | 00:00:00 | 00:00:00 | |
| EA3IBE | 2026-08-30 11:16:22 | 41.40603 | 2.20380 | 79° | 49km/h | 5674m | 5.0m/s | 0°C | 0% | 0hPa | 0V | 00:00:00 | 00:00:00 | 00:00:00 | |
| EA3GEO | 2026-08-30 11:16:21 | 41.40601 | 2.20365 | 84° | 42km/h | 5667m | 6.9m/s | 0°C | 0% | 0hPa | 0V | 00:00:00 | 00:00:00 | 00:00:00 | |
| EA3IBE | 2026-08-30 11:16:16 | 41.40607 | 2.20279 | 84° | 51km/h | 5638m | 3.6m/s | 0°C | 0% | 0hPa | 0V | 00:00:00 | 00:00:00 | 00:00:00 | |
| EA3GEO | 2026-08-30 11:16:14 | 41.40603 | 2.20246 | 83° | 55km/h | 5625m | 4.6m/s | 0°C | 0% | 0hPa | 0V | 00:00:00 | 00:00:00 | 00:00:00 | |
| EA3IBE | 2026-08-30 11:16:11 | 41.40602 | 2.20186 | 91° | 66km/h | 5607m | 5.2m/s | 0°C | 0% | 0hPa | 0V | 00:00:00 | 00:00:00 | 00:00:00 | |
| EA3IBE | 2026-08-30 11:16:06 | 41.40602 | 2.20082 | 92° | 55km/h | 5576m | 2.1m/s | 0°C | 0% | 0hPa | 0V | 00:00:00 | 00:00:00 | 00:00:00 | |
| EA3IBE | 2026-08-30 11:16:01 | 41.40599 | 2.19985 | 95° | 68km/h | 5547m | 3.6m/s | 0°C | 0% | 0hPa | 0V | 00:00:00 | 00:00:00 | 00:00:00 | |
| EA3IBE | 2026-08-30 11:15:56 | 41.40594 | 2.19897 | 64° | 44km/h | 5526m | 4.1m/s | 0°C | 0% | 0hPa | 0V | 00:00:00 | 00:00:00 | 00:00:00 | |
| EA3GEO | 2026-08-30 11:15:55 | 41.40590 | 2.19882 | 72° | 53km/h | 5521m | 2.5m/s | 0°C | 0% | 0hPa | 0V | 00:00:00 | 00:00:00 | 00:00:00 | |
| EA3IBE | 2026-08-30 11:15:50 | 41.40581 | 2.19783 | 84° | 53km/h | 5490m | 8.0m/s | 0°C | 0% | 0hPa | 0V | 00:00:00 | 00:00:00 | 00:00:00 | |
| EA3IBE | 2026-08-30 11:15:45 | 41.40560 | 2.19690 | 72° | 58km/h | 5461m | 2.9m/s | 0°C | 0% | 0hPa | 0V | 00:00:00 | 00:00:00 | 00:00:00 | |
| EA3IBE | 2026-08-30 11:15:39 | 41.40538 | 2.19578 | 88° | 55km/h | 5423m | 3.8m/s | 0°C | 0% | 0hPa | 0V | 00:00:00 | 00:00:00 | 00:00:00 | |
| EA3GEO | 2026-08-30 11:15:38 | 41.40537 | 2.19560 | 89° | 51km/h | 5418m | 4.1m/s | 0°C | 0% | 0hPa | 0V | 00:00:00 | 00:00:00 | 00:00:00 | |
| EA3IBE | 2026-08-30 11:15:34 | 41.40537 | 2.19473 | 88° | 68km/h | 5400m | 4.6m/s | 0°C | 0% | 0hPa | 0V | 00:00:00 | 00:00:00 | 00:00:00 | |
| EA3GEO | 2026-08-30 11:15:32 | 41.40535 | 2.19428 | 90° | 62km/h | 5386m | 5.7m/s | 0°C | 0% | 0hPa | 0V | 00:00:00 | 00:00:00 | 00:00:00 | |
| EA3IBE | 2026-08-30 11:15:28 | 41.40532 | 2.19362 | 81° | 47km/h | 5356m | 3.0m/s | 0°C | 0% | 0hPa | 0V | 00:00:00 | 00:00:00 | 00:00:00 | |
| EA3GEO | 2026-08-30 11:15:26 | 41.40527 | 2.19326 | 81° | 57km/h | 5344m | 5.2m/s | 0°C | 0% | 0hPa | 0V | 00:00:00 | 00:00:00 | 00:00:00 | |
| EA3IBE | 2026-08-30 11:15:22 | 41.40522 | 2.19243 | 82° | 53km/h | 5328m | 6.4m/s | 0°C | 0% | 0hPa | 0V | 00:00:00 | 00:00:00 | 00:00:00 | |
| EA3GEO | 2026-08-30 11:15:20 | 41.40517 | 2.19207 | 78° | 58km/h | 5313m | 6.9m/s | 0°C | 0% | 0hPa | 0V | 00:00:00 | 00:00:00 | 00:00:00 | |
| EA3IBE | 2026-08-30 11:15:17 | 41.40510 | 2.19151 | 87° | 58km/h | 5291m | 4.5m/s | 0°C | 0% | 0hPa | 0V | 00:00:00 | 00:00:00 | 00:00:00 | |
| EA3GEO | 2026-08-30 11:15:15 | 41.40508 | 2.19118 | 80° | 44km/h | 5279m | 2.7m/s | 0°C | 0% | 0hPa | 0V | 00:00:00 | 00:00:00 | 00:00:00 | |
| EA3GEO | 2026-08-30 11:15:10 | 41.40494 | 2.19049 | 84° | 64km/h | 5260m | 4.7m/s | 0°C | 0% | 0hPa | 0V | 00:00:00 | 00:00:00 | 00:00:00 | |
| EA3GEO | 2026-08-30 11:15:04 | 41.40485 | 2.18938 | 75° | 38km/h | 5215m | 5.1m/s | 0°C | 0% | 0hPa | 0V | 00:00:00 | 00:00:00 | 00:00:00 | |
| EA3IBE | 2026-08-30 11:14:59 | 41.40476 | 2.18861 | 86° | 53km/h | 5182m | 7.2m/s | 0°C | 0% | 0hPa | 0V | 00:00:00 | 00:00:00 | 00:00:00 | |
| EA3GEO | 2026-08-30 11:14:58 | 41.40474 | 2.18844 | 78° | 51km/h | 5174m | 7.0m/s | 0°C | 0% | 0hPa | 0V | 00:00:00 | 00:00:00 | 00:00:00 | |
| EA3IBE | 2026-08-30 11:14:53 | 41.40445 | 2.18760 | 80° | 51km/h | 5151m | 4.2m/s | 0°C | 0% | 0hPa | 0V | 00:00:00 | 00:00:00 | 00:00:00 | |
| EA3GEO | 2026-08-30 11:14:48 | 41.40447 | 2.18669 | 85° | 57km/h | 5121m | 5.0m/s | 0°C | 0% | 0hPa | 0V | 00:00:00 | 00:00:00 | 00:00:00 | |
| EA3IBE | 2026-08-30 11:14:42 | 41.40423 | 2.18564 | 73° | 58km/h | 5074m | 5.5m/s | 0°C | 0% | 0hPa | 0V | 00:00:00 | 00:00:00 | 00:00:00 | |
| EA3IBE | 2026-08-30 11:14:37 | 41.40404 | 2.18472 | 83° | 49km/h | 5042m | 6.3m/s | 0°C | 0% | 0hPa | 0V | 00:00:00 | 00:00:00 | 00:00:00 | |
| EA3IBE | 2026-08-30 11:14:31 | 41.40392 | 2.18369 | 73° | 55km/h | 5005m | 3.0m/s | 0°C | 0% | 0hPa | 0V | 00:00:00 | 00:00:00 | 00:00:00 | |
| EA3IBE | 2026-08-30 11:14:25 | 41.40375 | 2.18259 | 88° | 62km/h | 4973m | 3.0m/s | 0°C | 0% | 0hPa | 0V | 00:00:00 | 00:00:00 | 00:00:00 | |
| EA3GEO | 2026-08-30 11:14:19 | 41.40361 | 2.18176 | 59° | 51km/h | 4941m | 2.2m/s | 0°C | 0% | 0hPa | 0V | 00:00:00 | 00:00:00 | 00:00:00 | |
| EA3IBE | 2026-08-30 11:14:18 | 41.40355 | 2.18160 | 64° | 60km/h | 4936m | 3.5m/s | 0°C | 0% | 0hPa | 0V | 00:00:00 | 00:00:00 | 00:00:00 | |
| EA3GEO | 2026-08-30 11:14:14 | 41.40345 | 2.18086 | 93° | 47km/h | 4911m | 5.4m/s | 0°C | 0% | 0hPa | 0V | 00:00:00 | 00:00:00 | 00:00:00 | |
| EA3IBE | 2026-08-30 11:14:12 | 41.40344 | 2.18057 | 85° | 38km/h | 4896m | 4.0m/s | 0°C | 0% | 0hPa | 0V | 00:00:00 | 00:00:00 | 00:00:00 | |
| EA3GEO | 2026-08-30 11:14:09 | 41.40334 | 2.18027 | 62° | 33km/h | 4877m | 3.1m/s | 0°C | 0% | 0hPa | 0V | 00:00:00 | 00:00:00 | 00:00:00 | |
| EA3IBE | 2026-08-30 11:14:06 | 41.40322 | 2.17993 | 66° | 47km/h | 4863m | 4.1m/s | 0°C | 0% | 0hPa | 0V | 00:00:00 | 00:00:00 | 00:00:00 | |
| EA3GEO | 2026-08-30 11:14:03 | 41.40308 | 2.17953 | 69° | 44km/h | 4844m | 3.9m/s | 0°C | 0% | 0hPa | 0V | 00:00:00 | 00:00:00 | 00:00:00 | |
| EA3IBE | 2026-08-30 11:14:00 | 41.40298 | 2.17915 | 69° | 42km/h | 4824m | 4.0m/s | 0°C | 0% | 0hPa | 0V | 00:00:00 | 00:00:00 | 00:00:00 | |
| EA3GEO | 2026-08-30 11:13:58 | 41.40292 | 2.17884 | 83° | 51km/h | 4811m | 4.8m/s | 0°C | 0% | 0hPa | 0V | 00:00:00 | 00:00:00 | 00:00:00 | |
| EA3IBE | 2026-08-30 11:13:54 | 41.40277 | 2.17823 | 57° | 42km/h | 4787m | 4.1m/s | 0°C | 0% | 0hPa | 0V | 00:00:00 | 00:00:00 | 00:00:00 | |
| EA3GEO | 2026-08-30 11:13:52 | 41.40264 | 2.17796 | 67° | 46km/h | 4779m | 2.5m/s | 0°C | 0% | 0hPa | 0V | 00:00:00 | 00:00:00 | 00:00:00 | |
| EA3IBE | 2026-08-30 11:13:48 | 41.40261 | 2.17746 | 105° | 35km/h | 4750m | 4.2m/s | 0°C | 0% | 0hPa | 0V | 00:00:00 | 00:00:00 | 00:00:00 | |
| EA3GEO | 2026-08-30 11:13:46 | 41.40263 | 2.17724 | 88° | 35km/h | 4740m | 3.2m/s | 0°C | 0% | 0hPa | 0V | 00:00:00 | 00:00:00 | 00:00:00 | |
| EA3GEO | 2026-08-30 11:13:41 | 41.40244 | 2.17666 | 80° | 33km/h | 4711m | 4.3m/s | 0°C | 0% | 0hPa | 0V | 00:00:00 | 00:00:00 | 00:00:00 | |
| EA3IBE | 2026-08-30 11:13:39 | 41.40242 | 2.17646 | 92° | 27km/h | 4698m | 3.6m/s | 0°C | 0% | 0hPa | 0V | 00:00:00 | 00:00:00 | 00:00:00 | |
| EA3GEO | 2026-08-30 11:13:36 | 41.40236 | 2.17613 | 75° | 44km/h | 4684m | 4.7m/s | 0°C | 0% | 0hPa | 0V | 00:00:00 | 00:00:00 | 00:00:00 | |
| EA3IBE | 2026-08-30 11:13:35 | 41.40229 | 2.17583 | 77° | 47km/h | 4671m | 6.1m/s | 0°C | 0% | 0hPa | 0V | 00:00:00 | 00:00:00 | 00:00:00 | |
| EA3GEO | 2026-08-30 11:13:30 | 41.40211 | 2.17529 | 75° | 51km/h | 4645m | 4.3m/s | 0°C | 0% | 0hPa | 0V | 00:00:00 | 00:00:00 | 00:00:00 | |
| EA3GEO | 2026-08-30 11:13:24 | 41.40203 | 2.17434 | 87° | 42km/h | 4601m | 5.7m/s | 0°C | 0% | 0hPa | 0V | 00:00:00 | 00:00:00 | 00:00:00 | |
| EA3IBE | 2026-08-30 11:13:23 | 41.40202 | 2.17420 | 89° | 42km/h | 4595m | 3.1m/s | 0°C | 0% | 0hPa | 0V | 00:00:00 | 00:00:00 | 00:00:00 | |
| EA3GEO | 2026-08-30 11:13:18 | 41.40195 | 2.17354 | 82° | 38km/h | 4559m | 7.1m/s | 0°C | 0% | 0hPa | 0V | 00:00:00 | 00:00:00 | 00:00:00 | |
| EA3GEO | 2026-08-30 11:13:12 | 41.40182 | 2.17282 | 64° | 33km/h | 4520m | 3.0m/s | 0°C | 0% | 0hPa | 0V | 00:00:00 | 00:00:00 | 00:00:00 | |
| EA3GEO | 2026-08-30 11:13:06 | 41.40174 | 2.17211 | 75° | 58km/h | 4491m | 4.7m/s | 0°C | 0% | 0hPa | 0V | 00:00:00 | 00:00:00 | 00:00:00 | |
| EA3GEO | 2026-08-30 11:13:01 | 41.40158 | 2.17142 | 69° | 40km/h | 4452m | 5.2m/s | 0°C | 0% | 0hPa | 0V | 00:00:00 | 00:00:00 | 00:00:00 | |
| EA3GEO | 2026-08-30 11:12:55 | 41.40124 | 2.17063 | 77° | 47km/h | 4423m | 6.9m/s | 0°C | 0% | 0hPa | 0V | 00:00:00 | 00:00:00 | 00:00:00 | |
| EA3GEO | 2026-08-30 11:12:49 | 41.40119 | 2.16956 | 71° | 44km/h | 4386m | 5.3m/s | 0°C | 0% | 0hPa | 0V | 00:00:00 | 00:00:00 | 00:00:00 | |
| EA3GEO | 2026-08-30 11:12:44 | 41.40106 | 2.16899 | 80° | 42km/h | 4356m | 7.2m/s | 0°C | 0% | 0hPa | 0V | 00:00:00 | 00:00:00 | 00:00:00 | |
| EA3GEO | 2026-08-30 11:12:38 | 41.40092 | 2.16810 | 85° | 35km/h | 4313m | 4.0m/s | 0°C | 0% | 0hPa | 0V | 00:00:00 | 00:00:00 | 00:00:00 | |
| EA3IBE | 2026-08-30 11:12:36 | 41.40093 | 2.16786 | 101° | 37km/h | 4303m | 2.5m/s | 0°C | 0% | 0hPa | 0V | 00:00:00 | 00:00:00 | 00:00:00 | |
| EA3GEO | 2026-08-30 11:12:32 | 41.40088 | 2.16737 | 60° | 38km/h | 4281m | 8.3m/s | 0°C | 0% | 0hPa | 0V | 00:00:00 | 00:00:00 | 00:00:00 | |
| EA3IBE | 2026-08-30 11:12:31 | 41.40083 | 2.16725 | 64° | 49km/h | 4274m | 5.2m/s | 0°C | 0% | 0hPa | 0V | 00:00:00 | 00:00:00 | 00:00:00 | |
| EA3GEO | 2026-08-30 11:12:27 | 41.40061 | 2.16660 | 73° | 51km/h | 4251m | 6.4m/s | 0°C | 0% | 0hPa | 0V | 00:00:00 | 00:00:00 | 00:00:00 | |
| EA3GEO | 2026-08-30 11:12:22 | 41.40057 | 2.16594 | 84° | 46km/h | 4225m | 0.9m/s | 0°C | 0% | 0hPa | 0V | 00:00:00 | 00:00:00 | 00:00:00 | |
| EA3IBE | 2026-08-30 11:12:21 | 41.40055 | 2.16579 | 72° | 47km/h | 4221m | 4.7m/s | 0°C | 0% | 0hPa | 0V | 00:00:00 | 00:00:00 | 00:00:00 | |
| EA3GEO | 2026-08-30 11:12:17 | 41.40036 | 2.16525 | 72° | 46km/h | 4197m | 6.2m/s | 0°C | 0% | 0hPa | 0V | 00:00:00 | 00:00:00 | 00:00:00 | |
| EA3IBE | 2026-08-30 11:12:16 | 41.40033 | 2.16510 | 78° | 47km/h | 4190m | 5.6m/s | 0°C | 0% | 0hPa | 0V | 00:00:00 | 00:00:00 | 00:00:00 | |
| EA3GEO | 2026-08-30 11:12:11 | 41.40018 | 2.16449 | 91° | 24km/h | 4159m | 6.1m/s | 0°C | 0% | 0hPa | 0V | 00:00:00 | 00:00:00 | 00:00:00 | |
| EA3IBE | 2026-08-30 11:12:10 | 41.40018 | 2.16440 | 96° | 31km/h | 4154m | 3.5m/s | 0°C | 0% | 0hPa | 0V | 00:00:00 | 00:00:00 | 00:00:00 | |
| EA3IBE | 2026-08-30 11:12:05 | 41.40010 | 2.16389 | 54° | 37km/h | 4122m | 4.9m/s | 0°C | 0% | 0hPa | 0V | 00:00:00 | 00:00:00 | 00:00:00 | |
| EA3GEO | 2026-08-30 11:12:00 | 41.39984 | 2.16315 | 75° | 53km/h | 4093m | 6.0m/s | 0°C | 0% | 0hPa | 0V | 00:00:00 | 00:00:00 | 00:00:00 | |
| EA3IBE | 2026-08-30 11:11:59 | 41.39981 | 2.16298 | 72° | 49km/h | 4086m | 6.3m/s | 0°C | 0% | 0hPa | 0V | 00:00:00 | 00:00:00 | 00:00:00 | |
| EA3IBE | 2026-08-30 11:11:54 | 41.39967 | 2.16233 | 73° | 40km/h | 4047m | 6.2m/s | 0°C | 0% | 0hPa | 0V | 00:00:00 | 00:00:00 | 00:00:00 | |
| EA3IBE | 2026-08-30 11:11:48 | 41.39931 | 2.16168 | 49° | 42km/h | 4013m | 4.2m/s | 0°C | 0% | 0hPa | 0V | 00:00:00 | 00:00:00 | 00:00:00 | |
| EA3GEO | 2026-08-30 11:11:43 | 41.39906 | 2.16115 | 58° | 33km/h | 3986m | 6.3m/s | 0°C | 0% | 0hPa | 0V | 00:00:00 | 00:00:00 | 00:00:00 | |
| EA3IBE | 2026-08-30 11:11:42 | 41.39901 | 2.16105 | 53° | 40km/h | 3980m | 5.4m/s | 0°C | 0% | 0hPa | 0V | 00:00:00 | 00:00:00 | 00:00:00 | |
| EA3IBE | 2026-08-30 11:11:37 | 41.39876 | 2.16052 | 73° | 31km/h | 3949m | 3.4m/s | 0°C | 0% | 0hPa | 0V | 00:00:00 | 00:00:00 | 00:00:00 | |
| EA3GEO | 2026-08-30 11:11:31 | 41.39868 | 2.15976 | 60° | 27km/h | 3912m | 5.5m/s | 0°C | 0% | 0hPa | 0V | 00:00:00 | 00:00:00 | 00:00:00 | |
| EA3IBE | 2026-08-30 11:11:30 | 41.39864 | 2.15969 | 57° | 22km/h | 3907m | 3.8m/s | 0°C | 0% | 0hPa | 0V | 00:00:00 | 00:00:00 | 00:00:00 | |
| EA3GEO | 2026-08-30 11:11:26 | 41.39861 | 2.15926 | 93° | 49km/h | 3884m | 5.8m/s | 0°C | 0% | 0hPa | 0V | 00:00:00 | 00:00:00 | 00:00:00 | |
| EA3IBE | 2026-08-30 11:11:25 | 41.39860 | 2.15909 | 83° | 49km/h | 3878m | 4.6m/s | 0°C | 0% | 0hPa | 0V | 00:00:00 | 00:00:00 | 00:00:00 | |
| EA3IBE | 2026-08-30 11:11:20 | 41.39842 | 2.15844 | 73° | 35km/h | 3849m | 6.5m/s | 0°C | 0% | 0hPa | 0V | 00:00:00 | 00:00:00 | 00:00:00 | |
| EA3IBE | 2026-08-30 11:11:14 | 41.39836 | 2.15776 | 98° | 29km/h | 3808m | 7.2m/s | 0°C | 0% | 0hPa | 0V | 00:00:00 | 00:00:00 | 00:00:00 | |
| EA3IBE | 2026-08-30 11:11:09 | 41.39820 | 2.15720 | 61° | 42km/h | 3776m | 3.6m/s | 0°C | 0% | 0hPa | 0V | 00:00:00 | 00:00:00 | 00:00:00 | |
| EA3GEO | 2026-08-30 11:11:08 | 41.39815 | 2.15708 | 61° | 42km/h | 3771m | 3.6m/s | 0°C | 0% | 0hPa | 0V | 00:00:00 | 00:00:00 | 00:00:00 | |
| EA3IBE | 2026-08-30 11:11:04 | 41.39800 | 2.15669 | 90° | 24km/h | 3748m | 3.0m/s | 0°C | 0% | 0hPa | 0V | 00:00:00 | 00:00:00 | 00:00:00 | |
| EA3GEO | 2026-08-30 11:11:02 | 41.39801 | 2.15649 | 90° | 42km/h | 3739m | 3.2m/s | 0°C | 0% | 0hPa | 0V | 00:00:00 | 00:00:00 | 00:00:00 | |
| EA3IBE | 2026-08-30 11:10:58 | 41.39792 | 2.15588 | 72° | 44km/h | 3712m | 5.6m/s | 0°C | 0% | 0hPa | 0V | 00:00:00 | 00:00:00 | 00:00:00 | |
| EA3GEO | 2026-08-30 11:10:57 | 41.39786 | 2.15567 | 72° | 26km/h | 3701m | 3.9m/s | 0°C | 0% | 0hPa | 0V | 00:00:00 | 00:00:00 | 00:00:00 | |
| EA3IBE | 2026-08-30 11:10:53 | 41.39786 | 2.15544 | 96° | 24km/h | 3686m | 1.8m/s | 0°C | 0% | 0hPa | 0V | 00:00:00 | 00:00:00 | 00:00:00 | |
| EA3GEO | 2026-08-30 11:10:50 | 41.39783 | 2.15521 | 70° | 26km/h | 3669m | 5.4m/s | 0°C | 0% | 0hPa | 0V | 00:00:00 | 00:00:00 | 00:00:00 | |
| EA3GEO | 2026-08-30 11:10:45 | 41.39772 | 2.15458 | 96° | 44km/h | 3642m | 3.1m/s | 0°C | 0% | 0hPa | 0V | 00:00:00 | 00:00:00 | 00:00:00 | |
| EA3GEO | 2026-08-30 11:10:40 | 41.39776 | 2.15399 | 96° | 37km/h | 3615m | 7.7m/s | 0°C | 0% | 0hPa | 0V | 00:00:00 | 00:00:00 | 00:00:00 | |
| EA3IBE | 2026-08-30 11:10:36 | 41.39768 | 2.15361 | 50° | 33km/h | 3595m | 1.7m/s | 0°C | 0% | 0hPa | 0V | 00:00:00 | 00:00:00 | 00:00:00 | |
| EA3GEO | 2026-08-30 11:10:34 | 41.39759 | 2.15343 | 63° | 29km/h | 3589m | 2.1m/s | 0°C | 0% | 0hPa | 0V | 00:00:00 | 00:00:00 | 00:00:00 | |
| EA3IBE | 2026-08-30 11:10:30 | 41.39756 | 2.15304 | 108° | 29km/h | 3564m | 5.8m/s | 0°C | 0% | 0hPa | 0V | 00:00:00 | 00:00:00 | 00:00:00 | |
| EA3GEO | 2026-08-30 11:10:28 | 41.39760 | 2.15284 | 100° | 27km/h | 3553m | 2.1m/s | 0°C | 0% | 0hPa | 0V | 00:00:00 | 00:00:00 | 00:00:00 | |
| EA3IBE | 2026-08-30 11:10:25 | 41.39758 | 2.15250 | 81° | 33km/h | 3536m | 6.1m/s | 0°C | 0% | 0hPa | 0V | 00:00:00 | 00:00:00 | 00:00:00 | |
| EA3GEO | 2026-08-30 11:10:23 | 41.39755 | 2.15229 | 78° | 27km/h | 3522m | 5.9m/s | 0°C | 0% | 0hPa | 0V | 00:00:00 | 00:00:00 | 00:00:00 | |
| EA3IBE | 2026-08-30 11:10:19 | 41.39753 | 2.15190 | 93° | 29km/h | 3494m | 4.2m/s | 0°C | 0% | 0hPa | 0V | 00:00:00 | 00:00:00 | 00:00:00 | |
| EA3GEO | 2026-08-30 11:10:17 | 41.39754 | 2.15168 | 84° | 37km/h | 3483m | 3.4m/s | 0°C | 0% | 0hPa | 0V | 00:00:00 | 00:00:00 | 00:00:00 | |
| EA3IBE | 2026-08-30 11:10:14 | 41.39743 | 2.15128 | 57° | 42km/h | 3472m | 3.9m/s | 0°C | 0% | 0hPa | 0V | 00:00:00 | 00:00:00 | 00:00:00 | |
| EA3GEO | 2026-08-30 11:10:12 | 41.39736 | 2.15106 | 78° | 35km/h | 3463m | 3.8m/s | 0°C | 0% | 0hPa | 0V | 00:00:00 | 00:00:00 | 00:00:00 | |
| EA3IBE | 2026-08-30 11:10:08 | 41.39730 | 2.15053 | 66° | 38km/h | 3440m | 1.9m/s | 0°C | 0% | 0hPa | 0V | 00:00:00 | 00:00:00 | 00:00:00 | |
| EA3GEO | 2026-08-30 11:10:06 | 41.39722 | 2.15034 | 66° | 27km/h | 3431m | 5.3m/s | 0°C | 0% | 0hPa | 0V | 00:00:00 | 00:00:00 | 00:00:00 | |
| EA3IBE | 2026-08-30 11:10:03 | 41.39714 | 2.15002 | 68° | 44km/h | 3413m | 7.5m/s | 0°C | 0% | 0hPa | 0V | 00:00:00 | 00:00:00 | 00:00:00 | |
| EA3GEO | 2026-08-30 11:10:00 | 41.39699 | 2.14959 | 66° | 44km/h | 3398m | 1.3m/s | 0°C | 0% | 0hPa | 0V | 00:00:00 | 00:00:00 | 00:00:00 | |
| EA3IBE | 2026-08-30 11:09:57 | 41.39685 | 2.14920 | 65° | 42km/h | 3384m | 5.7m/s | 0°C | 0% | 0hPa | 0V | 00:00:00 | 00:00:00 | 00:00:00 | |
| EA3GEO | 2026-08-30 11:09:54 | 41.39671 | 2.14880 | 69° | 37km/h | 3368m | 4.0m/s | 0°C | 0% | 0hPa | 0V | 00:00:00 | 00:00:00 | 00:00:00 | |
| EA3IBE | 2026-08-30 11:09:52 | 41.39668 | 2.14857 | 93° | 37km/h | 3359m | 2.9m/s | 0°C | 0% | 0hPa | 0V | 00:00:00 | 00:00:00 | 00:00:00 | |
| EA3GEO | 2026-08-30 11:09:49 | 41.39670 | 2.14814 | 97° | 46km/h | 3347m | 4.6m/s | 0°C | 0% | 0hPa | 0V | 00:00:00 | 00:00:00 | 00:00:00 | |
| EA3GEO | 2026-08-30 11:09:43 | 41.39662 | 2.14727 | 81° | 46km/h | 3317m | 3.3m/s | 0°C | 0% | 0hPa | 0V | 00:00:00 | 00:00:00 | 00:00:00 | |
| EA3IBE | 2026-08-30 11:09:40 | 41.39651 | 2.14684 | 73° | 44km/h | 3304m | 3.1m/s | 0°C | 0% | 0hPa | 0V | 00:00:00 | 00:00:00 | 00:00:00 | |
| EA3GEO | 2026-08-30 11:09:37 | 41.39649 | 2.14640 | 96° | 38km/h | 3289m | 5.4m/s | 0°C | 0% | 0hPa | 0V | 00:00:00 | 00:00:00 | 00:00:00 | |
| EA3IBE | 2026-08-30 11:09:35 | 41.39647 | 2.14615 | 68° | 40km/h | 3278m | 4.1m/s | 0°C | 0% | 0hPa | 0V | 00:00:00 | 00:00:00 | 00:00:00 | |
| EA3GEO | 2026-08-30 11:09:32 | 41.39630 | 2.14577 | 63° | 35km/h | 3261m | 3.3m/s | 0°C | 0% | 0hPa | 0V | 00:00:00 | 00:00:00 | 00:00:00 | |
| EA3IBE | 2026-08-30 11:09:29 | 41.39629 | 2.14546 | 100° | 35km/h | 3246m | 4.9m/s | 0°C | 0% | 0hPa | 0V | 00:00:00 | 00:00:00 | 00:00:00 | |
| EA3IBE | 2026-08-30 11:09:24 | 41.39618 | 2.14481 | 67° | 33km/h | 3217m | 5.2m/s | 0°C | 0% | 0hPa | 0V | 00:00:00 | 00:00:00 | 00:00:00 | |
| EA3IBE | 2026-08-30 11:09:18 | 41.39610 | 2.14414 | 81° | 29km/h | 3183m | 5.8m/s | 0°C | 0% | 0hPa | 0V | 00:00:00 | 00:00:00 | 00:00:00 | |
| EA3GEO | 2026-08-30 11:09:15 | 41.39612 | 2.14388 | 105° | 35km/h | 3166m | 3.5m/s | 0°C | 0% | 0hPa | 0V | 00:00:00 | 00:00:00 | 00:00:00 | |
| EA3IBE | 2026-08-30 11:09:13 | 41.39616 | 2.14358 | 94° | 46km/h | 3159m | 2.8m/s | 0°C | 0% | 0hPa | 0V | 00:00:00 | 00:00:00 | 00:00:00 | |
| EA3GEO | 2026-08-30 11:09:10 | 41.39617 | 2.14317 | 82° | 35km/h | 3142m | 5.6m/s | 0°C | 0% | 0hPa | 0V | 00:00:00 | 00:00:00 | 00:00:00 | |
| EA3IBE | 2026-08-30 11:09:07 | 41.39609 | 2.14280 | 87° | 38km/h | 3121m | 5.4m/s | 0°C | 0% | 0hPa | 0V | 00:00:00 | 00:00:00 | 00:00:00 | |
| EA3GEO | 2026-08-30 11:09:05 | 41.39612 | 2.14259 | 110° | 31km/h | 3110m | 3.4m/s | 0°C | 0% | 0hPa | 0V | 00:00:00 | 00:00:00 | 00:00:00 | |
| EA3IBE | 2026-08-30 11:09:02 | 41.39616 | 2.14225 | 78° | 37km/h | 3093m | 3.6m/s | 0°C | 0% | 0hPa | 0V | 00:00:00 | 00:00:00 | 00:00:00 | |
| EA3GEO | 2026-08-30 11:08:59 | 41.39607 | 2.14197 | 59° | 26km/h | 3075m | 4.2m/s | 0°C | 0% | 0hPa | 0V | 00:00:00 | 00:00:00 | 00:00:00 | |
| EA3IBE | 2026-08-30 11:08:56 | 41.39597 | 2.14174 | 69° | 33km/h | 3062m | 3.5m/s | 0°C | 0% | 0hPa | 0V | 00:00:00 | 00:00:00 | 00:00:00 | |
| EA3GEO | 2026-08-30 11:08:53 | 41.39595 | 2.14138 | 102° | 35km/h | 3047m | 4.3m/s | 0°C | 0% | 0hPa | 0V | 00:00:00 | 00:00:00 | 00:00:00 | |
| EA3IBE | 2026-08-30 11:08:51 | 41.39595 | 2.14116 | 75° | 35km/h | 3035m | 3.1m/s | 0°C | 0% | 0hPa | 0V | 00:00:00 | 00:00:00 | 00:00:00 | |
| EA3GEO | 2026-08-30 11:08:47 | 41.39590 | 2.14072 | 85° | 27km/h | 3011m | 5.1m/s | 0°C | 0% | 0hPa | 0V | 00:00:00 | 00:00:00 | 00:00:00 | |
| EA3IBE | 2026-08-30 11:08:45 | 41.39586 | 2.14053 | 68° | 26km/h | 3000m | 4.0m/s | 0°C | 0% | 0hPa | 0V | 00:00:00 | 00:00:00 | 00:00:00 | |
| EA3GEO | 2026-08-30 11:08:42 | 41.39579 | 2.14031 | 58° | 29km/h | 2982m | 6.1m/s | 0°C | 0% | 0hPa | 0V | 00:00:00 | 00:00:00 | 00:00:00 | |
| EA3IBE | 2026-08-30 11:08:40 | 41.39569 | 2.14008 | 66° | 44km/h | 2972m | 5.0m/s | 0°C | 0% | 0hPa | 0V | 00:00:00 | 00:00:00 | 00:00:00 | |
| EA3GEO | 2026-08-30 11:08:37 | 41.39564 | 2.13969 | 90° | 31km/h | 2955m | 5.5m/s | 0°C | 0% | 0hPa | 0V | 00:00:00 | 00:00:00 | 00:00:00 | |
| EA3IBE | 2026-08-30 11:08:34 | 41.39558 | 2.13941 | 67° | 37km/h | 2939m | 4.2m/s | 0°C | 0% | 0hPa | 0V | 00:00:00 | 00:00:00 | 00:00:00 | |
| EA3GEO | 2026-08-30 11:08:31 | 41.39551 | 2.13909 | 86° | 24km/h | 2923m | 5.6m/s | 0°C | 0% | 0hPa | 0V | 00:00:00 | 00:00:00 | 00:00:00 | |
| EA3IBE | 2026-08-30 11:08:29 | 41.39548 | 2.13895 | 64° | 22km/h | 2908m | 5.6m/s | 0°C | 0% | 0hPa | 0V | 00:00:00 | 00:00:00 | 00:00:00 | |
| EA3GEO | 2026-08-30 11:08:26 | 41.39537 | 2.13862 | 70° | 42km/h | 2890m | 1.4m/s | 0°C | 0% | 0hPa | 0V | 00:00:00 | 00:00:00 | 00:00:00 | |
| EA3IBE | 2026-08-30 11:08:24 | 41.39531 | 2.13840 | 75° | 31km/h | 2878m | 3.9m/s | 0°C | 0% | 0hPa | 0V | 00:00:00 | 00:00:00 | 00:00:00 | |
| EA3GEO | 2026-08-30 11:08:20 | 41.39521 | 2.13785 | 66° | 47km/h | 2859m | 3.0m/s | 0°C | 0% | 0hPa | 0V | 00:00:00 | 00:00:00 | 00:00:00 | |
| EA3IBE | 2026-08-30 11:08:18 | 41.39512 | 2.13761 | 71° | 29km/h | 2848m | 5.4m/s | 0°C | 0% | 0hPa | 0V | 00:00:00 | 00:00:00 | 00:00:00 | |
| EA3GEO | 2026-08-30 11:08:15 | 41.39506 | 2.13735 | 75° | 37km/h | 2826m | 6.8m/s | 0°C | 0% | 0hPa | 0V | 00:00:00 | 00:00:00 | 00:00:00 | |
| EA3IBE | 2026-08-30 11:08:12 | 41.39499 | 2.13696 | 80° | 31km/h | 2805m | 6.0m/s | 0°C | 0% | 0hPa | 0V | 00:00:00 | 00:00:00 | 00:00:00 | |
| EA3GEO | 2026-08-30 11:08:09 | 41.39487 | 2.13673 | 47° | 35km/h | 2788m | 4.2m/s | 0°C | 0% | 0hPa | 0V | 00:00:00 | 00:00:00 | 00:00:00 | |
| EA3IBE | 2026-08-30 11:08:07 | 41.39474 | 2.13656 | 45° | 35km/h | 2779m | 5.6m/s | 0°C | 0% | 0hPa | 0V | 00:00:00 | 00:00:00 | 00:00:00 | |
| EA3GEO | 2026-08-30 11:08:04 | 41.39462 | 2.13629 | 89° | 37km/h | 2758m | 6.8m/s | 0°C | 0% | 0hPa | 0V | 00:00:00 | 00:00:00 | 00:00:00 | |
| EA3GEO | 2026-08-30 11:07:59 | 41.39456 | 2.13570 | 78° | 42km/h | 2724m | 6.1m/s | 0°C | 0% | 0hPa | 0V | 00:00:00 | 00:00:00 | 00:00:00 | |
| EA3IBE | 2026-08-30 11:07:56 | 41.39450 | 2.13532 | 65° | 31km/h | 2707m | 4.4m/s | 0°C | 0% | 0hPa | 0V | 00:00:00 | 00:00:00 | 00:00:00 | |
| EA3GEO | 2026-08-30 11:07:53 | 41.39441 | 2.13510 | 74° | 24km/h | 2688m | 5.5m/s | 0°C | 0% | 0hPa | 0V | 00:00:00 | 00:00:00 | 00:00:00 | |
| EA3IBE | 2026-08-30 11:07:51 | 41.39438 | 2.13489 | 79° | 37km/h | 2678m | 4.2m/s | 0°C | 0% | 0hPa | 0V | 00:00:00 | 00:00:00 | 00:00:00 | |
| EA3GEO | 2026-08-30 11:07:48 | 41.39425 | 2.13456 | 52° | 37km/h | 2662m | 4.0m/s | 0°C | 0% | 0hPa | 0V | 00:00:00 | 00:00:00 | 00:00:00 | |
| EA3IBE | 2026-08-30 11:07:45 | 41.39413 | 2.13423 | 80° | 29km/h | 2646m | 5.1m/s | 0°C | 0% | 0hPa | 0V | 00:00:00 | 00:00:00 | 00:00:00 | |
| EA3GEO | 2026-08-30 11:07:42 | 41.39408 | 2.13401 | 41° | 20km/h | 2625m | 4.3m/s | 0°C | 0% | 0hPa | 0V | 00:00:00 | 00:00:00 | 00:00:00 | |
| EA3IBE | 2026-08-30 11:07:39 | 41.39395 | 2.13380 | 64° | 33km/h | 2611m | 5.2m/s | 0°C | 0% | 0hPa | 0V | 00:00:00 | 00:00:00 | 00:00:00 | |
| EA3GEO | 2026-08-30 11:07:36 | 41.39391 | 2.13346 | 81° | 33km/h | 2593m | 3.0m/s | 0°C | 0% | 0hPa | 0V | 00:00:00 | 00:00:00 | 00:00:00 | |
| EA3IBE | 2026-08-30 11:07:34 | 41.39385 | 2.13327 | 50° | 27km/h | 2581m | 5.8m/s | 0°C | 0% | 0hPa | 0V | 00:00:00 | 00:00:00 | 00:00:00 | |
| EA3GEO | 2026-08-30 11:07:30 | 41.39369 | 2.13302 | 79° | 16km/h | 2549m | 4.1m/s | 0°C | 0% | 0hPa | 0V | 00:00:00 | 00:00:00 | 00:00:00 | |
| EA3IBE | 2026-08-30 11:07:29 | 41.39368 | 2.13295 | 90° | 20km/h | 2544m | 3.0m/s | 0°C | 0% | 0hPa | 0V | 00:00:00 | 00:00:00 | 00:00:00 | |
| EA3GEO | 2026-08-30 11:07:25 | 41.39360 | 2.13259 | 51° | 26km/h | 2526m | 4.6m/s | 0°C | 0% | 0hPa | 0V | 00:00:00 | 00:00:00 | 00:00:00 | |
| EA3IBE | 2026-08-30 11:07:24 | 41.39357 | 2.13252 | 71° | 20km/h | 2521m | 5.0m/s | 0°C | 0% | 0hPa | 0V | 00:00:00 | 00:00:00 | 00:00:00 | |
| EA3GEO | 2026-08-30 11:07:19 | 41.39359 | 2.13209 | 65° | 20km/h | 2494m | 3.2m/s | 0°C | 0% | 0hPa | 0V | 00:00:00 | 00:00:00 | 00:00:00 | |
| EA3IBE | 2026-08-30 11:07:18 | 41.39356 | 2.13203 | 59° | 22km/h | 2489m | 4.5m/s | 0°C | 0% | 0hPa | 0V | 00:00:00 | 00:00:00 | 00:00:00 | |
| EA3IBE | 2026-08-30 11:07:13 | 41.39347 | 2.13162 | 53° | 20km/h | 2456m | 3.5m/s | 0°C | 0% | 0hPa | 0V | 00:00:00 | 00:00:00 | 00:00:00 | |
| EA3GEO | 2026-08-30 11:07:08 | 41.39341 | 2.13126 | 91° | 13km/h | 2423m | 4.1m/s | 0°C | 0% | 0hPa | 0V | 00:00:00 | 00:00:00 | 00:00:00 | |
| EA3IBE | 2026-08-30 11:07:06 | 41.39339 | 2.13118 | 60° | 18km/h | 2414m | 3.9m/s | 0°C | 0% | 0hPa | 0V | 00:00:00 | 00:00:00 | 00:00:00 | |
| EA3GEO | 2026-08-30 11:07:02 | 41.39332 | 2.13085 | 85° | 20km/h | 2393m | 5.4m/s | 0°C | 0% | 0hPa | 0V | 00:00:00 | 00:00:00 | 00:00:00 | |
| EA3IBE | 2026-08-30 11:07:00 | 41.39328 | 2.13075 | 51° | 16km/h | 2383m | 5.2m/s | 0°C | 0% | 0hPa | 0V | 00:00:00 | 00:00:00 | 00:00:00 | |
| EA3GEO | 2026-08-30 11:06:57 | 41.39323 | 2.13049 | 87° | 27km/h | 2363m | 5.8m/s | 0°C | 0% | 0hPa | 0V | 00:00:00 | 00:00:00 | 00:00:00 | |
| EA3IBE | 2026-08-30 11:06:55 | 41.39321 | 2.13035 | 64° | 18km/h | 2350m | 3.6m/s | 0°C | 0% | 0hPa | 0V | 00:00:00 | 00:00:00 | 00:00:00 | |
| EA3GEO | 2026-08-30 11:06:51 | 41.39321 | 2.13010 | 103° | 31km/h | 2327m | 3.2m/s | 0°C | 0% | 0hPa | 0V | 00:00:00 | 00:00:00 | 00:00:00 | |
| EA3IBE | 2026-08-30 11:06:50 | 41.39321 | 2.13000 | 87° | 31km/h | 2323m | 3.7m/s | 0°C | 0% | 0hPa | 0V | 00:00:00 | 00:00:00 | 00:00:00 | |
| EA3GEO | 2026-08-30 11:06:46 | 41.39314 | 2.12970 | 71° | 22km/h | 2300m | 5.6m/s | 0°C | 0% | 0hPa | 0V | 00:00:00 | 00:00:00 | 00:00:00 | |
| EA3IBE | 2026-08-30 11:06:44 | 41.39308 | 2.12952 | 61° | 31km/h | 2291m | 5.4m/s | 0°C | 0% | 0hPa | 0V | 00:00:00 | 00:00:00 | 00:00:00 | |
| EA3IBE | 2026-08-30 11:06:39 | 41.39298 | 2.12928 | 100° | 22km/h | 2260m | 6.0m/s | 0°C | 0% | 0hPa | 0V | 00:00:00 | 00:00:00 | 00:00:00 | |
| EA3GEO | 2026-08-30 11:06:36 | 41.39292 | 2.12901 | 55° | 26km/h | 2242m | 5.2m/s | 0°C | 0% | 0hPa | 0V | 00:00:00 | 00:00:00 | 00:00:00 | |
| EA3IBE | 2026-08-30 11:06:33 | 41.39288 | 2.12886 | 96° | 13km/h | 2224m | 4.0m/s | 0°C | 0% | 0hPa | 0V | 00:00:00 | 00:00:00 | 00:00:00 | |
| EA3GEO | 2026-08-30 11:06:30 | 41.39284 | 2.12867 | 71° | 29km/h | 2208m | 3.9m/s | 0°C | 0% | 0hPa | 0V | 00:00:00 | 00:00:00 | 00:00:00 | |
| EA3IBE | 2026-08-30 11:06:28 | 41.39281 | 2.12849 | 88° | 20km/h | 2195m | 4.7m/s | 0°C | 0% | 0hPa | 0V | 00:00:00 | 00:00:00 | 00:00:00 | |
| EA3GEO | 2026-08-30 11:06:24 | 41.39277 | 2.12829 | 74° | 16km/h | 2173m | 3.8m/s | 0°C | 0% | 0hPa | 0V | 00:00:00 | 00:00:00 | 00:00:00 | |
| EA3IBE | 2026-08-30 11:06:23 | 41.39277 | 2.12823 | 81° | 18km/h | 2167m | 5.6m/s | 0°C | 0% | 0hPa | 0V | 00:00:00 | 00:00:00 | 00:00:00 | |
| EA3GEO | 2026-08-30 11:06:19 | 41.39269 | 2.12803 | 49° | 26km/h | 2142m | 4.8m/s | 0°C | 0% | 0hPa | 0V | 00:00:00 | 00:00:00 | 00:00:00 | |
| EA3IBE | 2026-08-30 11:06:17 | 41.39263 | 2.12789 | 58° | 24km/h | 2133m | 4.2m/s | 0°C | 0% | 0hPa | 0V | 00:00:00 | 00:00:00 | 00:00:00 | |
| EA3GEO | 2026-08-30 11:06:14 | 41.39260 | 2.12778 | 111° | 11km/h | 2116m | 1.4m/s | 0°C | 0% | 0hPa | 0V | 00:00:00 | 00:00:00 | 00:00:00 | |
| EA3IBE | 2026-08-30 11:06:11 | 41.39259 | 2.12763 | 66° | 15km/h | 2099m | 5.6m/s | 0°C | 0% | 0hPa | 0V | 00:00:00 | 00:00:00 | 00:00:00 | |
| EA3GEO | 2026-08-30 11:06:08 | 41.39257 | 2.12755 | 124° | 9km/h | 2085m | 3.5m/s | 0°C | 0% | 0hPa | 0V | 00:00:00 | 00:00:00 | 00:00:00 | |
| EA3IBE | 2026-08-30 11:06:06 | 41.39258 | 2.12744 | 79° | 26km/h | 2075m | 2.7m/s | 0°C | 0% | 0hPa | 0V | 00:00:00 | 00:00:00 | 00:00:00 | |
| EA3GEO | 2026-08-30 11:06:02 | 41.39252 | 2.12728 | 130° | 5km/h | 2055m | 3.1m/s | 0°C | 0% | 0hPa | 0V | 00:00:00 | 00:00:00 | 00:00:00 | |
| EA3IBE | 2026-08-30 11:06:00 | 41.39256 | 2.12723 | 124° | 13km/h | 2047m | 3.9m/s | 0°C | 0% | 0hPa | 0V | 00:00:00 | 00:00:00 | 00:00:00 | |
| EA3GEO | 2026-08-30 11:05:56 | 41.39257 | 2.12703 | 96° | 22km/h | 2028m | 6.2m/s | 0°C | 0% | 0hPa | 0V | 00:00:00 | 00:00:00 | 00:00:00 | |
| EA3IBE | 2026-08-30 11:05:55 | 41.39258 | 2.12697 | 100° | 15km/h | 2021m | 6.3m/s | 0°C | 0% | 0hPa | 0V | 00:00:00 | 00:00:00 | 00:00:00 | |
| EA3GEO | 2026-08-30 11:05:51 | 41.39253 | 2.12679 | 95° | 20km/h | 1994m | 5.2m/s | 0°C | 0% | 0hPa | 0V | 00:00:00 | 00:00:00 | 00:00:00 | |
| EA3IBE | 2026-08-30 11:05:49 | 41.39257 | 2.12665 | 111° | 24km/h | 1983m | 4.5m/s | 0°C | 0% | 0hPa | 0V | 00:00:00 | 00:00:00 | 00:00:00 | |
| EA3GEO | 2026-08-30 11:05:45 | 41.39252 | 2.12646 | 37° | 22km/h | 1960m | 5.9m/s | 0°C | 0% | 0hPa | 0V | 00:00:00 | 00:00:00 | 00:00:00 | |
| EA3IBE | 2026-08-30 11:05:44 | 41.39248 | 2.12642 | 39° | 18km/h | 1953m | 4.9m/s | 0°C | 0% | 0hPa | 0V | 00:00:00 | 00:00:00 | 00:00:00 | |
| EA3GEO | 2026-08-30 11:05:40 | 41.39244 | 2.12624 | 110° | 13km/h | 1931m | 5.9m/s | 0°C | 0% | 0hPa | 0V | 00:00:00 | 00:00:00 | 00:00:00 | |
| EA3IBE | 2026-08-30 11:05:38 | 41.39243 | 2.12615 | 58° | 27km/h | 1917m | 3.7m/s | 0°C | 0% | 0hPa | 0V | 00:00:00 | 00:00:00 | 00:00:00 | |
| EA3GEO | 2026-08-30 11:05:34 | 41.39232 | 2.12585 | 70° | 16km/h | 1897m | 4.2m/s | 0°C | 0% | 0hPa | 0V | 00:00:00 | 00:00:00 | 00:00:00 | |
| EA3IBE | 2026-08-30 11:05:33 | 41.39231 | 2.12580 | 67° | 20km/h | 1890m | 6.8m/s | 0°C | 0% | 0hPa | 0V | 00:00:00 | 00:00:00 | 00:00:00 | |
| EA3GEO | 2026-08-30 11:05:29 | 41.39227 | 2.12548 | 92° | 16km/h | 1870m | 2.9m/s | 0°C | 0% | 0hPa | 0V | 00:00:00 | 00:00:00 | 00:00:00 | |
| EA3IBE | 2026-08-30 11:05:27 | 41.39225 | 2.12539 | 41° | 16km/h | 1860m | 2.4m/s | 0°C | 0% | 0hPa | 0V | 00:00:00 | 00:00:00 | 00:00:00 | |
| EA3GEO | 2026-08-30 11:05:23 | 41.39212 | 2.12508 | 83° | 27km/h | 1843m | 3.5m/s | 0°C | 0% | 0hPa | 0V | 00:00:00 | 00:00:00 | 00:00:00 | |
| EA3IBE | 2026-08-30 11:05:22 | 41.39212 | 2.12501 | 82° | 20km/h | 1838m | 4.1m/s | 0°C | 0% | 0hPa | 0V | 00:00:00 | 00:00:00 | 00:00:00 | |
| EA3GEO | 2026-08-30 11:05:17 | 41.39194 | 2.12465 | 63° | 27km/h | 1811m | 3.0m/s | 0°C | 0% | 0hPa | 0V | 00:00:00 | 00:00:00 | 00:00:00 | |
| EA3IBE | 2026-08-30 11:05:16 | 41.39191 | 2.12458 | 61° | 24km/h | 1806m | 4.3m/s | 0°C | 0% | 0hPa | 0V | 00:00:00 | 00:00:00 | 00:00:00 | |
| EA3GEO | 2026-08-30 11:05:11 | 41.39179 | 2.12419 | 92° | 18km/h | 1780m | 3.8m/s | 0°C | 0% | 0hPa | 0V | 00:00:00 | 00:00:00 | 00:00:00 | |
| EA3IBE | 2026-08-30 11:05:07 | 41.39170 | 2.12393 | 63° | 31km/h | 1761m | 3.9m/s | 0°C | 0% | 0hPa | 0V | 00:00:00 | 00:00:00 | 00:00:00 | |
| EA3GEO | 2026-08-30 11:05:06 | 41.39167 | 2.12384 | 77° | 27km/h | 1757m | 4.4m/s | 0°C | 0% | 0hPa | 0V | 00:00:00 | 00:00:00 | 00:00:00 | |
| EA3IBE | 2026-08-30 11:05:01 | 41.39157 | 2.12349 | 51° | 29km/h | 1731m | 3.4m/s | 0°C | 0% | 0hPa | 0V | 00:00:00 | 00:00:00 | 00:00:00 | |
| EA3GEO | 2026-08-30 11:05:01 | 41.39157 | 2.12349 | 51° | 29km/h | 1731m | 3.4m/s | 0°C | 0% | 0hPa | 0V | 00:00:00 | 00:00:00 | 00:00:00 | |
| EA3IBE | 2026-08-30 11:04:56 | 41.39140 | 2.12308 | 55° | 15km/h | 1703m | 5.3m/s | 0°C | 0% | 0hPa | 0V | 00:00:00 | 00:00:00 | 00:00:00 | |
| EA3IBE | 2026-08-30 11:04:50 | 41.39132 | 2.12268 | 84° | 26km/h | 1668m | 2.5m/s | 0°C | 0% | 0hPa | 0V | 00:00:00 | 00:00:00 | 00:00:00 | |
| EA3GEO | 2026-08-30 11:04:49 | 41.39130 | 2.12259 | 74° | 26km/h | 1665m | 2.9m/s | 0°C | 0% | 0hPa | 0V | 00:00:00 | 00:00:00 | 00:00:00 | |
| EA3GEO | 2026-08-30 11:04:43 | 41.39116 | 2.12221 | 46° | 11km/h | 1637m | 5.7m/s | 0°C | 0% | 0hPa | 0V | 00:00:00 | 00:00:00 | 00:00:00 | |
| EA3IBE | 2026-08-30 11:04:43 | 41.39116 | 2.12221 | 46° | 11km/h | 1637m | 5.7m/s | 0°C | 0% | 0hPa | 0V | 00:00:00 | 00:00:00 | 00:00:00 | |
| EA3GEO | 2026-08-30 11:04:37 | 41.39101 | 2.12201 | 55° | 11km/h | 1606m | 4.1m/s | 0°C | 0% | 0hPa | 0V | 00:00:00 | 00:00:00 | 00:00:00 | |
| EA3IBE | 2026-08-30 11:04:37 | 41.39101 | 2.12201 | 55° | 11km/h | 1606m | 4.1m/s | 0°C | 0% | 0hPa | 0V | 00:00:00 | 00:00:00 | 00:00:00 | |
| EA3IBE | 2026-08-30 11:04:31 | 41.39090 | 2.12158 | 78° | 22km/h | 1576m | 5.8m/s | 0°C | 0% | 0hPa | 0V | 00:00:00 | 00:00:00 | 00:00:00 | |
| EA3GEO | 2026-08-30 11:04:31 | 41.39090 | 2.12158 | 78° | 22km/h | 1576m | 5.8m/s | 0°C | 0% | 0hPa | 0V | 00:00:00 | 00:00:00 | 00:00:00 | |
| EA3IBE | 2026-08-30 11:04:26 | 41.39077 | 2.12142 | 61° | 7km/h | 1550m | 2.6m/s | 0°C | 0% | 0hPa | 0V | 00:00:00 | 00:00:00 | 00:00:00 | |
| EA3GEO | 2026-08-30 11:04:25 | 41.39076 | 2.12140 | 54° | 5km/h | 1544m | 6.7m/s | 0°C | 0% | 0hPa | 0V | 00:00:00 | 00:00:00 | 00:00:00 | |
| EA3GEO | 2026-08-30 11:04:20 | 41.39066 | 2.12123 | 80° | 11km/h | 1515m | 3.8m/s | 0°C | 0% | 0hPa | 0V | 00:00:00 | 00:00:00 | 00:00:00 | |
| EA3IBE | 2026-08-30 11:04:20 | 41.39066 | 2.12123 | 80° | 11km/h | 1515m | 3.8m/s | 0°C | 0% | 0hPa | 0V | 00:00:00 | 00:00:00 | 00:00:00 | |
| EA3GEO | 2026-08-30 11:04:15 | 41.39070 | 2.12103 | 184° | 4km/h | 1485m | 5.1m/s | 0°C | 0% | 0hPa | 0V | 00:00:00 | 00:00:00 | 00:00:00 | |
| EA3IBE | 2026-08-30 11:04:14 | 41.39070 | 2.12103 | 33° | 4km/h | 1478m | 4.4m/s | 0°C | 0% | 0hPa | 0V | 00:00:00 | 00:00:00 | 00:00:00 | |
| EA3GEO | 2026-08-30 11:04:09 | 41.39069 | 2.12084 | 117° | 7km/h | 1456m | 4.9m/s | 0°C | 0% | 0hPa | 0V | 00:00:00 | 00:00:00 | 00:00:00 | |
| EA3IBE | 2026-08-30 11:04:08 | 41.39069 | 2.12081 | 58° | 11km/h | 1451m | 3.3m/s | 0°C | 0% | 0hPa | 0V | 00:00:00 | 00:00:00 | 00:00:00 | |
| EA3GEO | 2026-08-30 11:04:03 | 41.39065 | 2.12051 | 98° | 15km/h | 1422m | 4.9m/s | 0°C | 0% | 0hPa | 0V | 00:00:00 | 00:00:00 | 00:00:00 | |
| EA3IBE | 2026-08-30 11:04:03 | 41.39065 | 2.12051 | 98° | 15km/h | 1422m | 4.9m/s | 0°C | 0% | 0hPa | 0V | 00:00:00 | 00:00:00 | 00:00:00 | |
| EA3IBE | 2026-08-30 11:03:58 | 41.39066 | 2.12028 | 131° | 7km/h | 1392m | 5.0m/s | 0°C | 0% | 0hPa | 0V | 00:00:00 | 00:00:00 | 00:00:00 | |
| EA3GEO | 2026-08-30 11:03:57 | 41.39066 | 2.12025 | 89° | 9km/h | 1386m | 4.0m/s | 0°C | 0% | 0hPa | 0V | 00:00:00 | 00:00:00 | 00:00:00 | |
| EA3IBE | 2026-08-30 11:03:52 | 41.39068 | 2.11998 | 90° | 13km/h | 1361m | 3.5m/s | 0°C | 0% | 0hPa | 0V | 00:00:00 | 00:00:00 | 00:00:00 | |
| EA3GEO | 2026-08-30 11:03:52 | 41.39068 | 2.11998 | 90° | 13km/h | 1361m | 3.5m/s | 0°C | 0% | 0hPa | 0V | 00:00:00 | 00:00:00 | 00:00:00 | |
| EA3IBE | 2026-08-30 11:03:47 | 41.39068 | 2.11972 | 149° | 11km/h | 1336m | 4.7m/s | 0°C | 0% | 0hPa | 0V | 00:00:00 | 00:00:00 | 00:00:00 | |
| EA3GEO | 2026-08-30 11:03:47 | 41.39068 | 2.11972 | 149° | 11km/h | 1336m | 4.7m/s | 0°C | 0% | 0hPa | 0V | 00:00:00 | 00:00:00 | 00:00:00 | |
| EA3IBE | 2026-08-30 11:03:41 | 41.39071 | 2.11952 | 79° | 7km/h | 1299m | 4.0m/s | 0°C | 0% | 0hPa | 0V | 00:00:00 | 00:00:00 | 00:00:00 | |
| EA3GEO | 2026-08-30 11:03:41 | 41.39071 | 2.11952 | 79° | 7km/h | 1299m | 4.0m/s | 0°C | 0% | 0hPa | 0V | 00:00:00 | 00:00:00 | 00:00:00 | |
| EA3IBE | 2026-08-30 11:03:36 | 41.39069 | 2.11931 | 128° | 18km/h | 1276m | 3.8m/s | 0°C | 0% | 0hPa | 0V | 00:00:00 | 00:00:00 | 00:00:00 | |
| EA3GEO | 2026-08-30 11:03:35 | 41.39071 | 2.11927 | 123° | 11km/h | 1271m | 5.3m/s | 0°C | 0% | 0hPa | 0V | 00:00:00 | 00:00:00 | 00:00:00 | |
| EA3IBE | 2026-08-30 11:03:30 | 41.39069 | 2.11910 | 114° | 5km/h | 1244m | 6.1m/s | 0°C | 0% | 0hPa | 0V | 00:00:00 | 00:00:00 | 00:00:00 | |
| EA3GEO | 2026-08-30 11:03:30 | 41.39069 | 2.11910 | 114° | 5km/h | 1244m | 6.1m/s | 0°C | 0% | 0hPa | 0V | 00:00:00 | 00:00:00 | 00:00:00 | |
| EA3IBE | 2026-08-30 11:03:25 | 41.39072 | 2.11900 | 84° | 9km/h | 1218m | 4.9m/s | 0°C | 0% | 0hPa | 0V | 00:00:00 | 00:00:00 | 00:00:00 | |
| EA3GEO | 2026-08-30 11:03:24 | 41.39072 | 2.11897 | 74° | 5km/h | 1212m | 5.0m/s | 0°C | 0% | 0hPa | 0V | 00:00:00 | 00:00:00 | 00:00:00 | |
| EA3IBE | 2026-08-30 11:03:19 | 41.39070 | 2.11883 | 97° | 4km/h | 1184m | 4.3m/s | 0°C | 0% | 0hPa | 0V | 00:00:00 | 00:00:00 | 00:00:00 | |
| EA3GEO | 2026-08-30 11:03:18 | 41.39069 | 2.11882 | 25° | 7km/h | 1178m | 4.7m/s | 0°C | 0% | 0hPa | 0V | 00:00:00 | 00:00:00 | 00:00:00 | |
| EA3IBE | 2026-08-30 11:03:14 | 41.39060 | 2.11873 | 0° | 0km/h | 1156m | 5.5m/s | 0°C | 0% | 0hPa | 0V | 00:00:00 | 00:00:00 | 00:00:00 | |
| EA3GEO | 2026-08-30 11:03:12 | 41.39059 | 2.11874 | 328° | 5km/h | 1143m | 5.3m/s | 0°C | 0% | 0hPa | 0V | 00:00:00 | 00:00:00 | 00:00:00 | |
| EA3IBE | 2026-08-30 11:03:09 | 41.39052 | 2.11866 | 79° | 11km/h | 1128m | 5.5m/s | 0°C | 0% | 0hPa | 0V | 00:00:00 | 00:00:00 | 00:00:00 | |
| EA3GEO | 2026-08-30 11:03:07 | 41.39053 | 2.11862 | 97° | 4km/h | 1118m | 2.9m/s | 0°C | 0% | 0hPa | 0V | 00:00:00 | 00:00:00 | 00:00:00 | |
| EA3IBE | 2026-08-30 11:03:03 | 41.39047 | 2.11848 | 22° | 16km/h | 1097m | 4.6m/s | 0°C | 0% | 0hPa | 0V | 00:00:00 | 00:00:00 | 00:00:00 | |
| EA3GEO | 2026-08-30 11:03:02 | 41.39045 | 2.11847 | 9° | 7km/h | 1092m | 3.5m/s | 0°C | 0% | 0hPa | 0V | 00:00:00 | 00:00:00 | 00:00:00 | |
| EA3IBE | 2026-08-30 11:02:57 | 41.39034 | 2.11839 | 19° | 9km/h | 1063m | 3.9m/s | 0°C | 0% | 0hPa | 0V | 00:00:00 | 00:00:00 | 00:00:00 | |
| EA3GEO | 2026-08-30 11:02:56 | 41.39033 | 2.11838 | 37° | 5km/h | 1058m | 4.4m/s | 0°C | 0% | 0hPa | 0V | 00:00:00 | 00:00:00 | 00:00:00 | |
| EA3IBE | 2026-08-30 11:02:52 | 41.39025 | 2.11828 | 4° | 13km/h | 1034m | 5.0m/s | 0°C | 0% | 0hPa | 0V | 00:00:00 | 00:00:00 | 00:00:00 | |
| EA3GEO | 2026-08-30 11:02:51 | 41.39022 | 2.11828 | 346° | 9km/h | 1028m | 5.5m/s | 0°C | 0% | 0hPa | 0V | 00:00:00 | 00:00:00 | 00:00:00 | |
| EA3IBE | 2026-08-30 11:02:46 | 41.39010 | 2.11816 | 22° | 15km/h | 1001m | 5.3m/s | 0°C | 0% | 0hPa | 0V | 00:00:00 | 00:00:00 | 00:00:00 | |
| EA3GEO | 2026-08-30 11:02:45 | 41.39008 | 2.11815 | 352° | 9km/h | 995m | 4.0m/s | 0°C | 0% | 0hPa | 0V | 00:00:00 | 00:00:00 | 00:00:00 | |
| EA3IBE | 2026-08-30 11:02:41 | 41.38999 | 2.11809 | 357° | 16km/h | 970m | 6.6m/s | 0°C | 0% | 0hPa | 0V | 00:00:00 | 00:00:00 | 00:00:00 | |
| EA3GEO | 2026-08-30 11:02:39 | 41.38991 | 2.11814 | 311° | 18km/h | 956m | 6.0m/s | 0°C | 0% | 0hPa | 0V | 00:00:00 | 00:00:00 | 00:00:00 | |
| EA3IBE | 2026-08-30 11:02:36 | 41.38982 | 2.11823 | 349° | 15km/h | 938m | 6.1m/s | 0°C | 0% | 0hPa | 0V | 00:00:00 | 00:00:00 | 00:00:00 | |
| EA3GEO | 2026-08-30 11:02:34 | 41.38973 | 2.11819 | 46° | 18km/h | 927m | 4.8m/s | 0°C | 0% | 0hPa | 0V | 00:00:00 | 00:00:00 | 00:00:00 | |
| EA3IBE | 2026-08-30 11:02:30 | 41.38960 | 2.11813 | 359° | 18km/h | 903m | 5.7m/s | 0°C | 0% | 0hPa | 0V | 00:00:00 | 00:00:00 | 00:00:00 | |
| EA3GEO | 2026-08-30 11:02:29 | 41.38956 | 2.11813 | 358° | 13km/h | 896m | 5.9m/s | 0°C | 0% | 0hPa | 0V | 00:00:00 | 00:00:00 | 00:00:00 | |
| EA3IBE | 2026-08-30 11:02:24 | 41.38936 | 2.11817 | 9° | 16km/h | 861m | 6.6m/s | 0°C | 0% | 0hPa | 0V | 00:00:00 | 00:00:00 | 00:00:00 | |
| EA3GEO | 2026-08-30 11:02:23 | 41.38933 | 2.11816 | 14° | 11km/h | 854m | 6.2m/s | 0°C | 0% | 0hPa | 0V | 00:00:00 | 00:00:00 | 00:00:00 | |
| EA3IBE | 2026-08-30 11:02:19 | 41.38916 | 2.11824 | 349° | 22km/h | 830m | 5.7m/s | 0°C | 0% | 0hPa | 0V | 00:00:00 | 00:00:00 | 00:00:00 | |
| EA3GEO | 2026-08-30 11:02:17 | 41.38906 | 2.11825 | 11° | 18km/h | 813m | 7.9m/s | 0°C | 0% | 0hPa | 0V | 00:00:00 | 00:00:00 | 00:00:00 | |
| EA3IBE | 2026-08-30 11:02:13 | 41.38887 | 2.11823 | 336° | 20km/h | 787m | 5.2m/s | 0°C | 0% | 0hPa | 0V | 00:00:00 | 00:00:00 | 00:00:00 | |
| EA3GEO | 2026-08-30 11:02:12 | 41.38884 | 2.11825 | 341° | 11km/h | 781m | 4.7m/s | 0°C | 0% | 0hPa | 0V | 00:00:00 | 00:00:00 | 00:00:00 | |
| EA3GEO | 2026-08-30 11:02:06 | 41.38864 | 2.11819 | 43° | 13km/h | 744m | 4.2m/s | 0°C | 0% | 0hPa | 0V | 00:00:00 | 00:00:00 | 00:00:00 | |
| EA3IBE | 2026-08-30 11:02:02 | 41.38851 | 2.11802 | 77° | 13km/h | 723m | 3.4m/s | 0°C | 0% | 0hPa | 0V | 00:00:00 | 00:00:00 | 00:00:00 | |
| EA3GEO | 2026-08-30 11:02:01 | 41.38852 | 2.11799 | 135° | 5km/h | 719m | 4.3m/s | 0°C | 0% | 0hPa | 0V | 00:00:00 | 00:00:00 | 00:00:00 | |
| EA3IBE | 2026-08-30 11:01:56 | 41.38840 | 2.11795 | 9° | 20km/h | 682m | 7.0m/s | 0°C | 0% | 0hPa | 0V | 00:00:00 | 00:00:00 | 00:00:00 | |
| EA3GEO | 2026-08-30 11:01:56 | 41.38840 | 2.11795 | 9° | 20km/h | 682m | 7.0m/s | 0°C | 0% | 0hPa | 0V | 00:00:00 | 00:00:00 | 00:00:00 | |
| EA3IBE | 2026-08-30 11:01:51 | 41.38823 | 2.11792 | 25° | 24km/h | 639m | 7.3m/s | 0°C | 0% | 0hPa | 0V | 00:00:00 | 00:00:00 | 00:00:00 | |
| EA3GEO | 2026-08-30 11:01:50 | 41.38819 | 2.11788 | 40° | 20km/h | 630m | 7.7m/s | 0°C | 0% | 0hPa | 0V | 00:00:00 | 00:00:00 | 00:00:00 | |
| EA3IBE | 2026-08-30 11:01:45 | 41.38804 | 2.11779 | 20° | 11km/h | 591m | 6.1m/s | 0°C | 0% | 0hPa | 0V | 00:00:00 | 00:00:00 | 00:00:00 | |
| EA3GEO | 2026-08-30 11:01:44 | 41.38801 | 2.11778 | 5° | 15km/h | 585m | 6.7m/s | 0°C | 0% | 0hPa | 0V | 00:00:00 | 00:00:00 | 00:00:00 | |
| EA3IBE | 2026-08-30 11:01:40 | 41.38788 | 2.11770 | 47° | 4km/h | 554m | 6.1m/s | 0°C | 0% | 0hPa | 0V | 00:00:00 | 00:00:00 | 00:00:00 | |
| EA3GEO | 2026-08-30 11:01:38 | 41.38783 | 2.11769 | 8° | 15km/h | 542m | 5.2m/s | 0°C | 0% | 0hPa | 0V | 00:00:00 | 00:00:00 | 00:00:00 | |
| EA3IBE | 2026-08-30 11:01:35 | 41.38772 | 2.11769 | 320° | 11km/h | 523m | 5.4m/s | 0°C | 0% | 0hPa | 0V | 00:00:00 | 00:00:00 | 00:00:00 | |
| EA3GEO | 2026-08-30 11:01:33 | 41.38764 | 2.11771 | 9° | 24km/h | 510m | 5.6m/s | 0°C | 0% | 0hPa | 0V | 00:00:00 | 00:00:00 | 00:00:00 | |
| EA3GEO | 2026-08-30 11:01:26 | 41.38745 | 2.11777 | 295° | 11km/h | 469m | 4.6m/s | 0°C | 0% | 0hPa | 0V | 00:00:00 | 00:00:00 | 00:00:00 | |
| EA3GEO | 2026-08-30 11:01:21 | 41.38735 | 2.11764 | 74° | 9km/h | 442m | 2.4m/s | 0°C | 0% | 0hPa | 0V | 00:00:00 | 00:00:00 | 00:00:00 | |
| EA3GEO | 2026-08-30 11:01:13 | 41.38698 | 2.11764 | 38° | 26km/h | 401m | 4.4m/s | 0°C | 0% | 0hPa | 0V | 00:00:00 | 00:00:00 | 00:00:00 | |
| EA3GEO | 2026-08-30 11:01:07 | 41.38675 | 2.11745 | 24° | 20km/h | 365m | 3.4m/s | 0°C | 0% | 0hPa | 0V | 00:00:00 | 00:00:00 | 00:00:00 | |
| EA3GEO | 2026-08-30 11:01:02 | 41.38649 | 2.11738 | 349° | 33km/h | 341m | 4.2m/s | 0°C | 0% | 0hPa | 0V | 00:00:00 | 00:00:00 | 00:00:00 |